<?xml version="1.0" encoding="utf-8"?>
<gpx xmlns:xsi="http://www.w3.org/2001/XMLSchema-instance" xmlns:xsd="http://www.w3.org/2001/XMLSchema" version="1.1" creator="Shapelink.com" xmlns="http://www.topografix.com/GPX/1/1" xmlns:gpxtpx="http://www.garmin.com/xmlschemas/TrackPointExtension/v1">
  <metadata>
    <name>Sykling 63.59 km, 2012-05-19</name>
    <desc></desc>
    <author><name>Mikael Blom</name></author> 
    <time>2012-05-19T08:43:36Z</time>
  </metadata>
  <trk>
    <name>Sykling 63.59 km, 2012-05-19</name>
    <trkseg>
      <trkpt lat="59.9781547" lon="17.739164">
        <ele>39.0707</ele>
        <time>2012-05-19T08:43:36Z</time>
      </trkpt>
      <trkpt lat="59.9780166" lon="17.7390941">
        <ele>39.0707</ele>
        <time>2012-05-19T08:43:38Z</time>
      </trkpt>
      <trkpt lat="59.9776382" lon="17.7389725">
        <ele>36.6675</ele>
        <time>2012-05-19T08:43:45Z</time>
      </trkpt>
      <trkpt lat="59.9773002" lon="17.7390736">
        <ele>34.7449</ele>
        <time>2012-05-19T08:43:50Z</time>
      </trkpt>
      <trkpt lat="59.976793" lon="17.7393135">
        <ele>33.7834</ele>
        <time>2012-05-19T08:43:57Z</time>
      </trkpt>
      <trkpt lat="59.9766439" lon="17.7393863">
        <ele>32.8223</ele>
        <time>2012-05-19T08:43:59Z</time>
      </trkpt>
      <trkpt lat="59.9763678" lon="17.739708">
        <ele>31.3801</ele>
        <time>2012-05-19T08:44:03Z</time>
      </trkpt>
      <trkpt lat="59.9761647" lon="17.7402037">
        <ele>32.3416</ele>
        <time>2012-05-19T08:44:07Z</time>
      </trkpt>
      <trkpt lat="59.9758967" lon="17.7410492">
        <ele>34.2642</ele>
        <time>2012-05-19T08:44:14Z</time>
      </trkpt>
      <trkpt lat="59.9757353" lon="17.7417154">
        <ele>34.7449</ele>
        <time>2012-05-19T08:44:20Z</time>
      </trkpt>
      <trkpt lat="59.9755125" lon="17.7425608">
        <ele>35.7061</ele>
        <time>2012-05-19T08:44:28Z</time>
      </trkpt>
      <trkpt lat="59.9753307" lon="17.7433217">
        <ele>35.2255</ele>
        <time>2012-05-19T08:44:35Z</time>
      </trkpt>
      <trkpt lat="59.9751525" lon="17.7442748">
        <ele>35.2255</ele>
        <time>2012-05-19T08:44:43Z</time>
      </trkpt>
      <trkpt lat="59.9749955" lon="17.7448486">
        <ele>36.6675</ele>
        <time>2012-05-19T08:44:48Z</time>
      </trkpt>
      <trkpt lat="59.9748063" lon="17.7453803">
        <ele>38.5901</ele>
        <time>2012-05-19T08:44:53Z</time>
      </trkpt>
      <trkpt lat="59.9744309" lon="17.746057">
        <ele>41.9547</ele>
        <time>2012-05-19T08:45:01Z</time>
      </trkpt>
      <trkpt lat="59.9739988" lon="17.7466382">
        <ele>42.916</ele>
        <time>2012-05-19T08:45:09Z</time>
      </trkpt>
      <trkpt lat="59.9737602" lon="17.7469856">
        <ele>41.474</ele>
        <time>2012-05-19T08:45:14Z</time>
      </trkpt>
      <trkpt lat="59.9734593" lon="17.7473704">
        <ele>40.0321</ele>
        <time>2012-05-19T08:45:20Z</time>
      </trkpt>
      <trkpt lat="59.9729479" lon="17.7479805">
        <ele>35.2255</ele>
        <time>2012-05-19T08:45:29Z</time>
      </trkpt>
      <trkpt lat="59.9726822" lon="17.7485168">
        <ele>34.7449</ele>
        <time>2012-05-19T08:45:35Z</time>
      </trkpt>
      <trkpt lat="59.9726417" lon="17.7486091">
        <ele>35.2255</ele>
        <time>2012-05-19T08:45:36Z</time>
      </trkpt>
      <trkpt lat="59.9724989" lon="17.7489489">
        <ele>32.8223</ele>
        <time>2012-05-19T08:45:40Z</time>
      </trkpt>
      <trkpt lat="59.9722847" lon="17.749577">
        <ele>33.7834</ele>
        <time>2012-05-19T08:45:47Z</time>
      </trkpt>
      <trkpt lat="59.9721536" lon="17.7498785">
        <ele>32.8223</ele>
        <time>2012-05-19T08:45:51Z</time>
      </trkpt>
      <trkpt lat="59.9719417" lon="17.7502422">
        <ele>37.1481</ele>
        <time>2012-05-19T08:45:55Z</time>
      </trkpt>
      <trkpt lat="59.9716249" lon="17.750761">
        <ele>38.5901</ele>
        <time>2012-05-19T08:46:00Z</time>
      </trkpt>
      <trkpt lat="59.9711531" lon="17.7513145">
        <ele>37.6287</ele>
        <time>2012-05-19T08:46:07Z</time>
      </trkpt>
      <trkpt lat="59.970795" lon="17.7517866">
        <ele>36.6675</ele>
        <time>2012-05-19T08:46:13Z</time>
      </trkpt>
      <trkpt lat="59.9704864" lon="17.7523516">
        <ele>36.1868</ele>
        <time>2012-05-19T08:46:19Z</time>
      </trkpt>
      <trkpt lat="59.9702517" lon="17.7530508">
        <ele>34.7449</ele>
        <time>2012-05-19T08:46:25Z</time>
      </trkpt>
      <trkpt lat="59.9699886" lon="17.7537446">
        <ele>35.7061</ele>
        <time>2012-05-19T08:46:31Z</time>
      </trkpt>
      <trkpt lat="59.9696574" lon="17.7544209">
        <ele>35.2255</ele>
        <time>2012-05-19T08:46:38Z</time>
      </trkpt>
      <trkpt lat="59.9694208" lon="17.7548753">
        <ele>35.2255</ele>
        <time>2012-05-19T08:46:43Z</time>
      </trkpt>
      <trkpt lat="59.9691232" lon="17.755538">
        <ele>33.3029</ele>
        <time>2012-05-19T08:46:50Z</time>
      </trkpt>
      <trkpt lat="59.9687406" lon="17.7563454">
        <ele>34.2642</ele>
        <time>2012-05-19T08:46:59Z</time>
      </trkpt>
      <trkpt lat="59.9683634" lon="17.7570069">
        <ele>31.3801</ele>
        <time>2012-05-19T08:47:07Z</time>
      </trkpt>
      <trkpt lat="59.9679103" lon="17.7575986">
        <ele>30.8995</ele>
        <time>2012-05-19T08:47:15Z</time>
      </trkpt>
      <trkpt lat="59.9674027" lon="17.7581359">
        <ele>31.3801</ele>
        <time>2012-05-19T08:47:22Z</time>
      </trkpt>
      <trkpt lat="59.9669533" lon="17.7585718">
        <ele>28.4962</ele>
        <time>2012-05-19T08:47:29Z</time>
      </trkpt>
      <trkpt lat="59.9664544" lon="17.7589837">
        <ele>28.4962</ele>
        <time>2012-05-19T08:47:36Z</time>
      </trkpt>
      <trkpt lat="59.9659962" lon="17.7596671">
        <ele>26.5736</ele>
        <time>2012-05-19T08:47:44Z</time>
      </trkpt>
      <trkpt lat="59.9655018" lon="17.7604255">
        <ele>27.5349</ele>
        <time>2012-05-19T08:47:53Z</time>
      </trkpt>
      <trkpt lat="59.9651694" lon="17.7610507">
        <ele>27.5349</ele>
        <time>2012-05-19T08:48:00Z</time>
      </trkpt>
      <trkpt lat="59.9648239" lon="17.7619737">
        <ele>26.5736</ele>
        <time>2012-05-19T08:48:09Z</time>
      </trkpt>
      <trkpt lat="59.96454" lon="17.76285">
        <ele>25.6123</ele>
        <time>2012-05-19T08:48:17Z</time>
      </trkpt>
      <trkpt lat="59.9643392" lon="17.7636778">
        <ele>26.5736</ele>
        <time>2012-05-19T08:48:24Z</time>
      </trkpt>
      <trkpt lat="59.9640853" lon="17.7645855">
        <ele>30.4188</ele>
        <time>2012-05-19T08:48:32Z</time>
      </trkpt>
      <trkpt lat="59.9640443" lon="17.7648077">
        <ele>30.4188</ele>
        <time>2012-05-19T08:48:34Z</time>
      </trkpt>
      <trkpt lat="59.9640102" lon="17.7652249">
        <ele>30.4188</ele>
        <time>2012-05-19T08:48:38Z</time>
      </trkpt>
      <trkpt lat="59.9639986" lon="17.7657113">
        <ele>28.9769</ele>
        <time>2012-05-19T08:48:43Z</time>
      </trkpt>
      <trkpt lat="59.9640004" lon="17.7659013">
        <ele>30.8995</ele>
        <time>2012-05-19T08:48:45Z</time>
      </trkpt>
      <trkpt lat="59.9640148" lon="17.7660753">
        <ele>31.3801</ele>
        <time>2012-05-19T08:48:47Z</time>
      </trkpt>
      <trkpt lat="59.964021" lon="17.7662359">
        <ele>30.4188</ele>
        <time>2012-05-19T08:48:49Z</time>
      </trkpt>
      <trkpt lat="59.964038" lon="17.7668788">
        <ele>33.3029</ele>
        <time>2012-05-19T08:48:55Z</time>
      </trkpt>
      <trkpt lat="59.9640138" lon="17.7671571">
        <ele>35.7061</ele>
        <time>2012-05-19T08:48:57Z</time>
      </trkpt>
      <trkpt lat="59.9638152" lon="17.7681451">
        <ele>34.7449</ele>
        <time>2012-05-19T08:49:05Z</time>
      </trkpt>
      <trkpt lat="59.9635709" lon="17.7690076">
        <ele>33.3029</ele>
        <time>2012-05-19T08:49:12Z</time>
      </trkpt>
      <trkpt lat="59.9634387" lon="17.7694529">
        <ele>31.3801</ele>
        <time>2012-05-19T08:49:16Z</time>
      </trkpt>
      <trkpt lat="59.9633968" lon="17.7699019">
        <ele>31.8607</ele>
        <time>2012-05-19T08:49:20Z</time>
      </trkpt>
      <trkpt lat="59.9634044" lon="17.7702722">
        <ele>33.7834</ele>
        <time>2012-05-19T08:49:23Z</time>
      </trkpt>
      <trkpt lat="59.9634953" lon="17.7709611">
        <ele>33.7834</ele>
        <time>2012-05-19T08:49:28Z</time>
      </trkpt>
      <trkpt lat="59.9637504" lon="17.7720771">
        <ele>32.8223</ele>
        <time>2012-05-19T08:49:36Z</time>
      </trkpt>
      <trkpt lat="59.9638504" lon="17.7726649">
        <ele>32.3416</ele>
        <time>2012-05-19T08:49:40Z</time>
      </trkpt>
      <trkpt lat="59.9638322" lon="17.7734025">
        <ele>33.3029</ele>
        <time>2012-05-19T08:49:45Z</time>
      </trkpt>
      <trkpt lat="59.9636901" lon="17.7742212">
        <ele>33.3029</ele>
        <time>2012-05-19T08:49:51Z</time>
      </trkpt>
      <trkpt lat="59.9635858" lon="17.7749008">
        <ele>32.8223</ele>
        <time>2012-05-19T08:49:56Z</time>
      </trkpt>
      <trkpt lat="59.9633752" lon="17.7756239">
        <ele>31.8607</ele>
        <time>2012-05-19T08:50:02Z</time>
      </trkpt>
      <trkpt lat="59.9631044" lon="17.7764842">
        <ele>30.8995</ele>
        <time>2012-05-19T08:50:10Z</time>
      </trkpt>
      <trkpt lat="59.9628731" lon="17.7771644">
        <ele>28.9769</ele>
        <time>2012-05-19T08:50:16Z</time>
      </trkpt>
      <trkpt lat="59.9624198" lon="17.7780588">
        <ele>23.6896</ele>
        <time>2012-05-19T08:50:25Z</time>
      </trkpt>
      <trkpt lat="59.9619574" lon="17.7790851">
        <ele>21.2864</ele>
        <time>2012-05-19T08:50:35Z</time>
      </trkpt>
      <trkpt lat="59.961617" lon="17.7798521">
        <ele>20.325</ele>
        <time>2012-05-19T08:50:43Z</time>
      </trkpt>
      <trkpt lat="59.9612579" lon="17.7805562">
        <ele>19.3638</ele>
        <time>2012-05-19T08:50:51Z</time>
      </trkpt>
      <trkpt lat="59.9608081" lon="17.7813583">
        <ele>19.3638</ele>
        <time>2012-05-19T08:51:01Z</time>
      </trkpt>
      <trkpt lat="59.9604522" lon="17.7820694">
        <ele>20.8057</ele>
        <time>2012-05-19T08:51:10Z</time>
      </trkpt>
      <trkpt lat="59.9602176" lon="17.782776">
        <ele>22.2476</ele>
        <time>2012-05-19T08:51:18Z</time>
      </trkpt>
      <trkpt lat="59.9599525" lon="17.7835748">
        <ele>22.7283</ele>
        <time>2012-05-19T08:51:26Z</time>
      </trkpt>
      <trkpt lat="59.9596581" lon="17.7842066">
        <ele>23.209</ele>
        <time>2012-05-19T08:51:33Z</time>
      </trkpt>
      <trkpt lat="59.9593179" lon="17.7847456">
        <ele>22.7283</ele>
        <time>2012-05-19T08:51:40Z</time>
      </trkpt>
      <trkpt lat="59.9590203" lon="17.7850789">
        <ele>21.767</ele>
        <time>2012-05-19T08:51:45Z</time>
      </trkpt>
      <trkpt lat="59.9585054" lon="17.7855183">
        <ele>21.767</ele>
        <time>2012-05-19T08:51:53Z</time>
      </trkpt>
      <trkpt lat="59.9580007" lon="17.7860706">
        <ele>19.3638</ele>
        <time>2012-05-19T08:52:01Z</time>
      </trkpt>
      <trkpt lat="59.9577087" lon="17.7864632">
        <ele>20.325</ele>
        <time>2012-05-19T08:52:06Z</time>
      </trkpt>
      <trkpt lat="59.9575457" lon="17.787039">
        <ele>21.2864</ele>
        <time>2012-05-19T08:52:11Z</time>
      </trkpt>
      <trkpt lat="59.9573371" lon="17.7879483">
        <ele>21.767</ele>
        <time>2012-05-19T08:52:18Z</time>
      </trkpt>
      <trkpt lat="59.9572672" lon="17.7881913">
        <ele>22.2476</ele>
        <time>2012-05-19T08:52:20Z</time>
      </trkpt>
      <trkpt lat="59.9570108" lon="17.7888683">
        <ele>22.7283</ele>
        <time>2012-05-19T08:52:26Z</time>
      </trkpt>
      <trkpt lat="59.9567171" lon="17.7893058">
        <ele>23.209</ele>
        <time>2012-05-19T08:52:31Z</time>
      </trkpt>
      <trkpt lat="59.9566006" lon="17.7894809">
        <ele>23.209</ele>
        <time>2012-05-19T08:52:33Z</time>
      </trkpt>
      <trkpt lat="59.9564607" lon="17.7899306">
        <ele>23.6896</ele>
        <time>2012-05-19T08:52:37Z</time>
      </trkpt>
      <trkpt lat="59.9565134" lon="17.7903286">
        <ele>26.5736</ele>
        <time>2012-05-19T08:52:40Z</time>
      </trkpt>
      <trkpt lat="59.9566533" lon="17.7909409">
        <ele>29.4575</ele>
        <time>2012-05-19T08:52:45Z</time>
      </trkpt>
      <trkpt lat="59.9566621" lon="17.7915369">
        <ele>30.4188</ele>
        <time>2012-05-19T08:52:50Z</time>
      </trkpt>
      <trkpt lat="59.9564952" lon="17.7926529">
        <ele>30.8995</ele>
        <time>2012-05-19T08:52:59Z</time>
      </trkpt>
      <trkpt lat="59.9562882" lon="17.7937034">
        <ele>30.4188</ele>
        <time>2012-05-19T08:53:07Z</time>
      </trkpt>
      <trkpt lat="59.9560178" lon="17.794871">
        <ele>29.9381</ele>
        <time>2012-05-19T08:53:16Z</time>
      </trkpt>
      <trkpt lat="59.9558136" lon="17.795848">
        <ele>29.4575</ele>
        <time>2012-05-19T08:53:24Z</time>
      </trkpt>
      <trkpt lat="59.9555482" lon="17.797149">
        <ele>27.5349</ele>
        <time>2012-05-19T08:53:34Z</time>
      </trkpt>
      <trkpt lat="59.9552721" lon="17.7980433">
        <ele>28.9769</ele>
        <time>2012-05-19T08:53:42Z</time>
      </trkpt>
      <trkpt lat="59.9550548" lon="17.7986443">
        <ele>28.0155</ele>
        <time>2012-05-19T08:53:48Z</time>
      </trkpt>
      <trkpt lat="59.9547725" lon="17.7991584">
        <ele>26.0929</ele>
        <time>2012-05-19T08:53:54Z</time>
      </trkpt>
      <trkpt lat="59.9544374" lon="17.7999076">
        <ele>26.0929</ele>
        <time>2012-05-19T08:54:01Z</time>
      </trkpt>
      <trkpt lat="59.9542085" lon="17.8003926">
        <ele>25.1317</ele>
        <time>2012-05-19T08:54:06Z</time>
      </trkpt>
      <trkpt lat="59.9540089" lon="17.8008761">
        <ele>24.651</ele>
        <time>2012-05-19T08:54:11Z</time>
      </trkpt>
      <trkpt lat="59.9537994" lon="17.8014264">
        <ele>26.5736</ele>
        <time>2012-05-19T08:54:17Z</time>
      </trkpt>
      <trkpt lat="59.9537046" lon="17.8017218">
        <ele>28.9769</ele>
        <time>2012-05-19T08:54:20Z</time>
      </trkpt>
      <trkpt lat="59.953592" lon="17.8022443">
        <ele>32.3416</ele>
        <time>2012-05-19T08:54:26Z</time>
      </trkpt>
      <trkpt lat="59.9534675" lon="17.8028841">
        <ele>34.7449</ele>
        <time>2012-05-19T08:54:33Z</time>
      </trkpt>
      <trkpt lat="59.9534267" lon="17.8030679">
        <ele>34.7449</ele>
        <time>2012-05-19T08:54:35Z</time>
      </trkpt>
      <trkpt lat="59.953346" lon="17.8033193">
        <ele>35.2255</ele>
        <time>2012-05-19T08:54:38Z</time>
      </trkpt>
      <trkpt lat="59.9530761" lon="17.8039088">
        <ele>31.8607</ele>
        <time>2012-05-19T08:54:45Z</time>
      </trkpt>
      <trkpt lat="59.9529763" lon="17.8041242">
        <ele>31.3801</ele>
        <time>2012-05-19T08:54:47Z</time>
      </trkpt>
      <trkpt lat="59.9528133" lon="17.8048021">
        <ele>30.8995</ele>
        <time>2012-05-19T08:54:52Z</time>
      </trkpt>
      <trkpt lat="59.9526507" lon="17.8059537">
        <ele>29.4575</ele>
        <time>2012-05-19T08:55:00Z</time>
      </trkpt>
      <trkpt lat="59.952471" lon="17.8067975">
        <ele>26.0929</ele>
        <time>2012-05-19T08:55:06Z</time>
      </trkpt>
      <trkpt lat="59.9521016" lon="17.8082028">
        <ele>22.7283</ele>
        <time>2012-05-19T08:55:15Z</time>
      </trkpt>
      <trkpt lat="59.951692" lon="17.8097311">
        <ele>19.8444</ele>
        <time>2012-05-19T08:55:25Z</time>
      </trkpt>
      <trkpt lat="59.9514247" lon="17.810954">
        <ele>18.4023</ele>
        <time>2012-05-19T08:55:33Z</time>
      </trkpt>
      <trkpt lat="59.9513058" lon="17.8121016">
        <ele>17.9218</ele>
        <time>2012-05-19T08:55:40Z</time>
      </trkpt>
      <trkpt lat="59.9512892" lon="17.8137969">
        <ele>17.9218</ele>
        <time>2012-05-19T08:55:50Z</time>
      </trkpt>
      <trkpt lat="59.9512519" lon="17.8156379">
        <ele>19.3638</ele>
        <time>2012-05-19T08:56:01Z</time>
      </trkpt>
      <trkpt lat="59.9511645" lon="17.8166988">
        <ele>19.8444</ele>
        <time>2012-05-19T08:56:08Z</time>
      </trkpt>
      <trkpt lat="59.9510372" lon="17.8179354">
        <ele>20.8057</ele>
        <time>2012-05-19T08:56:17Z</time>
      </trkpt>
      <trkpt lat="59.9509326" lon="17.8191109">
        <ele>20.8057</ele>
        <time>2012-05-19T08:56:26Z</time>
      </trkpt>
      <trkpt lat="59.9509117" lon="17.8201533">
        <ele>20.325</ele>
        <time>2012-05-19T08:56:33Z</time>
      </trkpt>
      <trkpt lat="59.9507993" lon="17.8216636">
        <ele>19.8444</ele>
        <time>2012-05-19T08:56:43Z</time>
      </trkpt>
      <trkpt lat="59.9506288" lon="17.8232388">
        <ele>19.8444</ele>
        <time>2012-05-19T08:56:54Z</time>
      </trkpt>
      <trkpt lat="59.9504973" lon="17.8240677">
        <ele>19.8444</ele>
        <time>2012-05-19T08:57:00Z</time>
      </trkpt>
      <trkpt lat="59.9502026" lon="17.8254495">
        <ele>18.8831</ele>
        <time>2012-05-19T08:57:10Z</time>
      </trkpt>
      <trkpt lat="59.9500053" lon="17.8265785">
        <ele>19.3638</ele>
        <time>2012-05-19T08:57:18Z</time>
      </trkpt>
      <trkpt lat="59.9499741" lon="17.8274336">
        <ele>19.3638</ele>
        <time>2012-05-19T08:57:24Z</time>
      </trkpt>
      <trkpt lat="59.949999" lon="17.8287852">
        <ele>18.8831</ele>
        <time>2012-05-19T08:57:34Z</time>
      </trkpt>
      <trkpt lat="59.9499827" lon="17.8292704">
        <ele>19.3638</ele>
        <time>2012-05-19T08:57:38Z</time>
      </trkpt>
      <trkpt lat="59.9499249" lon="17.8296056">
        <ele>19.3638</ele>
        <time>2012-05-19T08:57:42Z</time>
      </trkpt>
      <trkpt lat="59.9498856" lon="17.8299185">
        <ele>20.325</ele>
        <time>2012-05-19T08:57:47Z</time>
      </trkpt>
      <trkpt lat="59.9499782" lon="17.8302631">
        <ele>21.2864</ele>
        <time>2012-05-19T08:57:51Z</time>
      </trkpt>
      <trkpt lat="59.9500187" lon="17.8303514">
        <ele>21.767</ele>
        <time>2012-05-19T08:57:52Z</time>
      </trkpt>
      <trkpt lat="59.9503719" lon="17.8310938">
        <ele>26.0929</ele>
        <time>2012-05-19T08:58:00Z</time>
      </trkpt>
      <trkpt lat="59.9508076" lon="17.8320361">
        <ele>28.4962</ele>
        <time>2012-05-19T08:58:09Z</time>
      </trkpt>
      <trkpt lat="59.9514535" lon="17.8334751">
        <ele>30.4188</ele>
        <time>2012-05-19T08:58:22Z</time>
      </trkpt>
      <trkpt lat="59.9519229" lon="17.8345278">
        <ele>30.4188</ele>
        <time>2012-05-19T08:58:31Z</time>
      </trkpt>
      <trkpt lat="59.9524254" lon="17.8357778">
        <ele>29.9381</ele>
        <time>2012-05-19T08:58:41Z</time>
      </trkpt>
      <trkpt lat="59.9527834" lon="17.8369087">
        <ele>29.4575</ele>
        <time>2012-05-19T08:58:49Z</time>
      </trkpt>
      <trkpt lat="59.9531846" lon="17.8384442">
        <ele>28.9769</ele>
        <time>2012-05-19T08:58:59Z</time>
      </trkpt>
      <trkpt lat="59.9535417" lon="17.8400491">
        <ele>28.4962</ele>
        <time>2012-05-19T08:59:09Z</time>
      </trkpt>
      <trkpt lat="59.9538069" lon="17.841737">
        <ele>27.5349</ele>
        <time>2012-05-19T08:59:19Z</time>
      </trkpt>
      <trkpt lat="59.9539752" lon="17.8433721">
        <ele>26.0929</ele>
        <time>2012-05-19T08:59:28Z</time>
      </trkpt>
      <trkpt lat="59.9540696" lon="17.8450336">
        <ele>25.6123</ele>
        <time>2012-05-19T08:59:37Z</time>
      </trkpt>
      <trkpt lat="59.9540855" lon="17.8464027">
        <ele>25.6123</ele>
        <time>2012-05-19T08:59:45Z</time>
      </trkpt>
      <trkpt lat="59.9540245" lon="17.8481799">
        <ele>25.1317</ele>
        <time>2012-05-19T08:59:56Z</time>
      </trkpt>
      <trkpt lat="59.9539199" lon="17.8495422">
        <ele>26.0929</ele>
        <time>2012-05-19T09:00:05Z</time>
      </trkpt>
      <trkpt lat="59.9538041" lon="17.8507218">
        <ele>27.5349</ele>
        <time>2012-05-19T09:00:14Z</time>
      </trkpt>
      <trkpt lat="59.9536668" lon="17.8520874">
        <ele>28.4962</ele>
        <time>2012-05-19T09:00:25Z</time>
      </trkpt>
      <trkpt lat="59.9535355" lon="17.8532756">
        <ele>27.0543</ele>
        <time>2012-05-19T09:00:34Z</time>
      </trkpt>
      <trkpt lat="59.9533609" lon="17.8548797">
        <ele>25.6123</ele>
        <time>2012-05-19T09:00:45Z</time>
      </trkpt>
      <trkpt lat="59.9531817" lon="17.8566044">
        <ele>25.1317</ele>
        <time>2012-05-19T09:00:57Z</time>
      </trkpt>
      <trkpt lat="59.95302" lon="17.858223">
        <ele>23.6896</ele>
        <time>2012-05-19T09:01:08Z</time>
      </trkpt>
      <trkpt lat="59.9528366" lon="17.8600284">
        <ele>22.7283</ele>
        <time>2012-05-19T09:01:20Z</time>
      </trkpt>
      <trkpt lat="59.9526733" lon="17.8616325">
        <ele>23.209</ele>
        <time>2012-05-19T09:01:31Z</time>
      </trkpt>
      <trkpt lat="59.9524822" lon="17.8634353">
        <ele>23.209</ele>
        <time>2012-05-19T09:01:44Z</time>
      </trkpt>
      <trkpt lat="59.9523502" lon="17.8647273">
        <ele>23.6896</ele>
        <time>2012-05-19T09:01:54Z</time>
      </trkpt>
      <trkpt lat="59.9521829" lon="17.8663963">
        <ele>23.209</ele>
        <time>2012-05-19T09:02:07Z</time>
      </trkpt>
      <trkpt lat="59.9520825" lon="17.8676462">
        <ele>22.2476</ele>
        <time>2012-05-19T09:02:16Z</time>
      </trkpt>
      <trkpt lat="59.9521394" lon="17.8684103">
        <ele>20.8057</ele>
        <time>2012-05-19T09:02:21Z</time>
      </trkpt>
      <trkpt lat="59.9522354" lon="17.8690164">
        <ele>20.325</ele>
        <time>2012-05-19T09:02:25Z</time>
      </trkpt>
      <trkpt lat="59.9521937" lon="17.8695856">
        <ele>19.8444</ele>
        <time>2012-05-19T09:02:29Z</time>
      </trkpt>
      <trkpt lat="59.9520664" lon="17.8697106">
        <ele>19.8444</ele>
        <time>2012-05-19T09:02:31Z</time>
      </trkpt>
      <trkpt lat="59.9518141" lon="17.8698862">
        <ele>19.8444</ele>
        <time>2012-05-19T09:02:35Z</time>
      </trkpt>
      <trkpt lat="59.9517052" lon="17.870221">
        <ele>19.8444</ele>
        <time>2012-05-19T09:02:38Z</time>
      </trkpt>
      <trkpt lat="59.9516293" lon="17.8706268">
        <ele>19.8444</ele>
        <time>2012-05-19T09:02:41Z</time>
      </trkpt>
      <trkpt lat="59.9515941" lon="17.8715501">
        <ele>19.8444</ele>
        <time>2012-05-19T09:02:47Z</time>
      </trkpt>
      <trkpt lat="59.9515639" lon="17.8726839">
        <ele>20.8057</ele>
        <time>2012-05-19T09:02:54Z</time>
      </trkpt>
      <trkpt lat="59.9514344" lon="17.8739564">
        <ele>22.7283</ele>
        <time>2012-05-19T09:03:02Z</time>
      </trkpt>
      <trkpt lat="59.9513083" lon="17.8755343">
        <ele>24.651</ele>
        <time>2012-05-19T09:03:12Z</time>
      </trkpt>
      <trkpt lat="59.9512635" lon="17.8769179">
        <ele>26.0929</ele>
        <time>2012-05-19T09:03:21Z</time>
      </trkpt>
      <trkpt lat="59.9512656" lon="17.8773548">
        <ele>25.6123</ele>
        <time>2012-05-19T09:03:25Z</time>
      </trkpt>
      <trkpt lat="59.9512669" lon="17.8774367">
        <ele>25.6123</ele>
        <time>2012-05-19T09:03:26Z</time>
      </trkpt>
      <trkpt lat="59.9512599" lon="17.8775902">
        <ele>25.6123</ele>
        <time>2012-05-19T09:03:28Z</time>
      </trkpt>
      <trkpt lat="59.9512312" lon="17.8767545">
        <ele>20.325</ele>
        <time>2012-05-19T09:30:22Z</time>
      </trkpt>
      <trkpt lat="59.9511323" lon="17.876628">
        <ele>19.8444</ele>
        <time>2012-05-19T09:30:25Z</time>
      </trkpt>
      <trkpt lat="59.9511023" lon="17.8766444">
        <ele>20.325</ele>
        <time>2012-05-19T09:30:26Z</time>
      </trkpt>
      <trkpt lat="59.9508056" lon="17.8769186">
        <ele>23.209</ele>
        <time>2012-05-19T09:30:34Z</time>
      </trkpt>
      <trkpt lat="59.9507677" lon="17.8769642">
        <ele>23.209</ele>
        <time>2012-05-19T09:30:35Z</time>
      </trkpt>
      <trkpt lat="59.9507184" lon="17.8772961">
        <ele>24.1703</ele>
        <time>2012-05-19T09:30:39Z</time>
      </trkpt>
      <trkpt lat="59.9507346" lon="17.8774024">
        <ele>24.1703</ele>
        <time>2012-05-19T09:30:40Z</time>
      </trkpt>
      <trkpt lat="59.9507931" lon="17.8777355">
        <ele>23.6896</ele>
        <time>2012-05-19T09:30:43Z</time>
      </trkpt>
      <trkpt lat="59.9507598" lon="17.8781695">
        <ele>23.209</ele>
        <time>2012-05-19T09:30:47Z</time>
      </trkpt>
      <trkpt lat="59.9507211" lon="17.878252">
        <ele>23.209</ele>
        <time>2012-05-19T09:30:48Z</time>
      </trkpt>
      <trkpt lat="59.950399" lon="17.8790766">
        <ele>25.1317</ele>
        <time>2012-05-19T09:30:57Z</time>
      </trkpt>
      <trkpt lat="59.9502936" lon="17.8793585">
        <ele>26.0929</ele>
        <time>2012-05-19T09:31:00Z</time>
      </trkpt>
      <trkpt lat="59.950125" lon="17.8799379">
        <ele>26.5736</ele>
        <time>2012-05-19T09:31:06Z</time>
      </trkpt>
      <trkpt lat="59.9499092" lon="17.880352">
        <ele>25.6123</ele>
        <time>2012-05-19T09:31:11Z</time>
      </trkpt>
      <trkpt lat="59.9496648" lon="17.8804912">
        <ele>24.651</ele>
        <time>2012-05-19T09:31:15Z</time>
      </trkpt>
      <trkpt lat="59.9494203" lon="17.8804223">
        <ele>25.1317</ele>
        <time>2012-05-19T09:31:19Z</time>
      </trkpt>
      <trkpt lat="59.948893" lon="17.8800427">
        <ele>25.1317</ele>
        <time>2012-05-19T09:31:29Z</time>
      </trkpt>
      <trkpt lat="59.9484693" lon="17.8797464">
        <ele>25.1317</ele>
        <time>2012-05-19T09:31:37Z</time>
      </trkpt>
      <trkpt lat="59.9480223" lon="17.8795563">
        <ele>25.6123</ele>
        <time>2012-05-19T09:31:45Z</time>
      </trkpt>
      <trkpt lat="59.9475296" lon="17.8794501">
        <ele>27.0543</ele>
        <time>2012-05-19T09:31:53Z</time>
      </trkpt>
      <trkpt lat="59.9472046" lon="17.8793329">
        <ele>27.0543</ele>
        <time>2012-05-19T09:31:58Z</time>
      </trkpt>
      <trkpt lat="59.9466691" lon="17.8790166">
        <ele>28.0155</ele>
        <time>2012-05-19T09:32:06Z</time>
      </trkpt>
      <trkpt lat="59.9460259" lon="17.8786907">
        <ele>29.4575</ele>
        <time>2012-05-19T09:32:15Z</time>
      </trkpt>
      <trkpt lat="59.9451474" lon="17.8782849">
        <ele>28.4962</ele>
        <time>2012-05-19T09:32:27Z</time>
      </trkpt>
      <trkpt lat="59.9445929" lon="17.878026">
        <ele>28.4962</ele>
        <time>2012-05-19T09:32:35Z</time>
      </trkpt>
      <trkpt lat="59.9441451" lon="17.8778189">
        <ele>29.4575</ele>
        <time>2012-05-19T09:32:42Z</time>
      </trkpt>
      <trkpt lat="59.9437626" lon="17.8775294">
        <ele>29.9381</ele>
        <time>2012-05-19T09:32:49Z</time>
      </trkpt>
      <trkpt lat="59.9434463" lon="17.8771147">
        <ele>29.4575</ele>
        <time>2012-05-19T09:32:56Z</time>
      </trkpt>
      <trkpt lat="59.9430015" lon="17.876512">
        <ele>30.4188</ele>
        <time>2012-05-19T09:33:05Z</time>
      </trkpt>
      <trkpt lat="59.9424737" lon="17.8758017">
        <ele>30.4188</ele>
        <time>2012-05-19T09:33:15Z</time>
      </trkpt>
      <trkpt lat="59.9420745" lon="17.8753851">
        <ele>29.9381</ele>
        <time>2012-05-19T09:33:22Z</time>
      </trkpt>
      <trkpt lat="59.9416426" lon="17.8751551">
        <ele>28.9769</ele>
        <time>2012-05-19T09:33:29Z</time>
      </trkpt>
      <trkpt lat="59.9412016" lon="17.8750547">
        <ele>29.4575</ele>
        <time>2012-05-19T09:33:36Z</time>
      </trkpt>
      <trkpt lat="59.9408385" lon="17.8748574">
        <ele>29.4575</ele>
        <time>2012-05-19T09:33:42Z</time>
      </trkpt>
      <trkpt lat="59.9403822" lon="17.8743774">
        <ele>28.9769</ele>
        <time>2012-05-19T09:33:50Z</time>
      </trkpt>
      <trkpt lat="59.9399836" lon="17.8737647">
        <ele>28.4962</ele>
        <time>2012-05-19T09:33:58Z</time>
      </trkpt>
      <trkpt lat="59.9395083" lon="17.8729779">
        <ele>28.0155</ele>
        <time>2012-05-19T09:34:08Z</time>
      </trkpt>
      <trkpt lat="59.9391841" lon="17.8726244">
        <ele>27.5349</ele>
        <time>2012-05-19T09:34:14Z</time>
      </trkpt>
      <trkpt lat="59.9387492" lon="17.8724009">
        <ele>27.0543</ele>
        <time>2012-05-19T09:34:21Z</time>
      </trkpt>
      <trkpt lat="59.9383193" lon="17.8720431">
        <ele>27.5349</ele>
        <time>2012-05-19T09:34:28Z</time>
      </trkpt>
      <trkpt lat="59.9377895" lon="17.8714458">
        <ele>28.0155</ele>
        <time>2012-05-19T09:34:37Z</time>
      </trkpt>
      <trkpt lat="59.9376066" lon="17.8710968">
        <ele>28.4962</ele>
        <time>2012-05-19T09:34:41Z</time>
      </trkpt>
      <trkpt lat="59.9375507" lon="17.8709232">
        <ele>28.9769</ele>
        <time>2012-05-19T09:34:43Z</time>
      </trkpt>
      <trkpt lat="59.9372641" lon="17.8702165">
        <ele>28.4962</ele>
        <time>2012-05-19T09:34:51Z</time>
      </trkpt>
      <trkpt lat="59.9369343" lon="17.8697295">
        <ele>27.5349</ele>
        <time>2012-05-19T09:34:58Z</time>
      </trkpt>
      <trkpt lat="59.9365262" lon="17.8693603">
        <ele>28.9769</ele>
        <time>2012-05-19T09:35:05Z</time>
      </trkpt>
      <trkpt lat="59.936409" lon="17.8692434">
        <ele>28.9769</ele>
        <time>2012-05-19T09:35:07Z</time>
      </trkpt>
      <trkpt lat="59.9361812" lon="17.8687868">
        <ele>29.4575</ele>
        <time>2012-05-19T09:35:12Z</time>
      </trkpt>
      <trkpt lat="59.9361379" lon="17.8685557">
        <ele>29.4575</ele>
        <time>2012-05-19T09:35:14Z</time>
      </trkpt>
      <trkpt lat="59.935964" lon="17.8678511">
        <ele>29.4575</ele>
        <time>2012-05-19T09:35:20Z</time>
      </trkpt>
      <trkpt lat="59.9357873" lon="17.867185">
        <ele>29.4575</ele>
        <time>2012-05-19T09:35:25Z</time>
      </trkpt>
      <trkpt lat="59.9357553" lon="17.8670882">
        <ele>29.9381</ele>
        <time>2012-05-19T09:35:26Z</time>
      </trkpt>
      <trkpt lat="59.9356444" lon="17.8667524">
        <ele>29.9381</ele>
        <time>2012-05-19T09:35:29Z</time>
      </trkpt>
      <trkpt lat="59.9354513" lon="17.8664102">
        <ele>28.4962</ele>
        <time>2012-05-19T09:35:33Z</time>
      </trkpt>
      <trkpt lat="59.9349999" lon="17.8660751">
        <ele>26.0929</ele>
        <time>2012-05-19T09:35:40Z</time>
      </trkpt>
      <trkpt lat="59.9347348" lon="17.8659197">
        <ele>25.1317</ele>
        <time>2012-05-19T09:35:44Z</time>
      </trkpt>
      <trkpt lat="59.9344955" lon="17.8656063">
        <ele>25.1317</ele>
        <time>2012-05-19T09:35:48Z</time>
      </trkpt>
      <trkpt lat="59.9342169" lon="17.864797">
        <ele>25.6123</ele>
        <time>2012-05-19T09:35:55Z</time>
      </trkpt>
      <trkpt lat="59.9339462" lon="17.8640041">
        <ele>25.6123</ele>
        <time>2012-05-19T09:36:02Z</time>
      </trkpt>
      <trkpt lat="59.933703" lon="17.8633654">
        <ele>26.0929</ele>
        <time>2012-05-19T09:36:08Z</time>
      </trkpt>
      <trkpt lat="59.9336709" lon="17.8632517">
        <ele>26.0929</ele>
        <time>2012-05-19T09:36:09Z</time>
      </trkpt>
      <trkpt lat="59.9334658" lon="17.8626128">
        <ele>24.1703</ele>
        <time>2012-05-19T09:36:15Z</time>
      </trkpt>
      <trkpt lat="59.9331645" lon="17.8621065">
        <ele>24.651</ele>
        <time>2012-05-19T09:36:21Z</time>
      </trkpt>
      <trkpt lat="59.9327959" lon="17.861725">
        <ele>25.6123</ele>
        <time>2012-05-19T09:36:27Z</time>
      </trkpt>
      <trkpt lat="59.9323819" lon="17.8615045">
        <ele>25.6123</ele>
        <time>2012-05-19T09:36:33Z</time>
      </trkpt>
      <trkpt lat="59.9317517" lon="17.8612617">
        <ele>26.5736</ele>
        <time>2012-05-19T09:36:42Z</time>
      </trkpt>
      <trkpt lat="59.9312786" lon="17.8609474">
        <ele>27.0543</ele>
        <time>2012-05-19T09:36:49Z</time>
      </trkpt>
      <trkpt lat="59.9307894" lon="17.86072">
        <ele>27.5349</ele>
        <time>2012-05-19T09:36:56Z</time>
      </trkpt>
      <trkpt lat="59.9302188" lon="17.8604315">
        <ele>27.0543</ele>
        <time>2012-05-19T09:37:04Z</time>
      </trkpt>
      <trkpt lat="59.9297029" lon="17.8600771">
        <ele>28.0155</ele>
        <time>2012-05-19T09:37:11Z</time>
      </trkpt>
      <trkpt lat="59.9290978" lon="17.8595273">
        <ele>28.4962</ele>
        <time>2012-05-19T09:37:20Z</time>
      </trkpt>
      <trkpt lat="59.9285068" lon="17.8589106">
        <ele>28.9769</ele>
        <time>2012-05-19T09:37:30Z</time>
      </trkpt>
      <trkpt lat="59.9279302" lon="17.8582814">
        <ele>28.9769</ele>
        <time>2012-05-19T09:37:40Z</time>
      </trkpt>
      <trkpt lat="59.9274167" lon="17.857852">
        <ele>27.5349</ele>
        <time>2012-05-19T09:37:48Z</time>
      </trkpt>
      <trkpt lat="59.9268238" lon="17.8573828">
        <ele>27.5349</ele>
        <time>2012-05-19T09:37:57Z</time>
      </trkpt>
      <trkpt lat="59.9263663" lon="17.8568479">
        <ele>28.9769</ele>
        <time>2012-05-19T09:38:05Z</time>
      </trkpt>
      <trkpt lat="59.9260919" lon="17.8564433">
        <ele>28.0155</ele>
        <time>2012-05-19T09:38:10Z</time>
      </trkpt>
      <trkpt lat="59.9255815" lon="17.8556741">
        <ele>28.0155</ele>
        <time>2012-05-19T09:38:19Z</time>
      </trkpt>
      <trkpt lat="59.9254754" lon="17.8555072">
        <ele>28.0155</ele>
        <time>2012-05-19T09:38:21Z</time>
      </trkpt>
      <trkpt lat="59.9248345" lon="17.8547675">
        <ele>27.5349</ele>
        <time>2012-05-19T09:38:32Z</time>
      </trkpt>
      <trkpt lat="59.9240053" lon="17.8539392">
        <ele>27.0543</ele>
        <time>2012-05-19T09:38:46Z</time>
      </trkpt>
      <trkpt lat="59.9234317" lon="17.8534487">
        <ele>28.0155</ele>
        <time>2012-05-19T09:38:56Z</time>
      </trkpt>
      <trkpt lat="59.9228369" lon="17.8529988">
        <ele>28.9769</ele>
        <time>2012-05-19T09:39:06Z</time>
      </trkpt>
      <trkpt lat="59.9224195" lon="17.8526339">
        <ele>29.9381</ele>
        <time>2012-05-19T09:39:13Z</time>
      </trkpt>
      <trkpt lat="59.9219622" lon="17.8518717">
        <ele>28.4962</ele>
        <time>2012-05-19T09:39:22Z</time>
      </trkpt>
      <trkpt lat="59.9215718" lon="17.8510004">
        <ele>30.4188</ele>
        <time>2012-05-19T09:39:31Z</time>
      </trkpt>
      <trkpt lat="59.9211736" lon="17.8501452">
        <ele>29.9381</ele>
        <time>2012-05-19T09:39:40Z</time>
      </trkpt>
      <trkpt lat="59.9207973" lon="17.8493443">
        <ele>28.9769</ele>
        <time>2012-05-19T09:39:49Z</time>
      </trkpt>
      <trkpt lat="59.9206272" lon="17.8488673">
        <ele>27.5349</ele>
        <time>2012-05-19T09:39:54Z</time>
      </trkpt>
      <trkpt lat="59.9203418" lon="17.8482219">
        <ele>27.5349</ele>
        <time>2012-05-19T09:40:01Z</time>
      </trkpt>
      <trkpt lat="59.9199978" lon="17.8477923">
        <ele>28.0155</ele>
        <time>2012-05-19T09:40:08Z</time>
      </trkpt>
      <trkpt lat="59.9197118" lon="17.8473276">
        <ele>27.0543</ele>
        <time>2012-05-19T09:40:14Z</time>
      </trkpt>
      <trkpt lat="59.9195157" lon="17.8469805">
        <ele>28.0155</ele>
        <time>2012-05-19T09:40:18Z</time>
      </trkpt>
      <trkpt lat="59.9191435" lon="17.8464771">
        <ele>29.4575</ele>
        <time>2012-05-19T09:40:25Z</time>
      </trkpt>
      <trkpt lat="59.9186671" lon="17.8459826">
        <ele>28.4962</ele>
        <time>2012-05-19T09:40:33Z</time>
      </trkpt>
      <trkpt lat="59.9182885" lon="17.845594">
        <ele>27.5349</ele>
        <time>2012-05-19T09:40:39Z</time>
      </trkpt>
      <trkpt lat="59.9179073" lon="17.8451913">
        <ele>27.5349</ele>
        <time>2012-05-19T09:40:45Z</time>
      </trkpt>
      <trkpt lat="59.9176839" lon="17.8449154">
        <ele>29.4575</ele>
        <time>2012-05-19T09:40:49Z</time>
      </trkpt>
      <trkpt lat="59.9174859" lon="17.8445153">
        <ele>27.5349</ele>
        <time>2012-05-19T09:40:54Z</time>
      </trkpt>
      <trkpt lat="59.917356" lon="17.8440721">
        <ele>27.0543</ele>
        <time>2012-05-19T09:40:58Z</time>
      </trkpt>
      <trkpt lat="59.9170361" lon="17.8433635">
        <ele>25.1317</ele>
        <time>2012-05-19T09:41:04Z</time>
      </trkpt>
      <trkpt lat="59.9166157" lon="17.8425985">
        <ele>21.767</ele>
        <time>2012-05-19T09:41:11Z</time>
      </trkpt>
      <trkpt lat="59.9162144" lon="17.8419703">
        <ele>19.8444</ele>
        <time>2012-05-19T09:41:17Z</time>
      </trkpt>
      <trkpt lat="59.9159063" lon="17.8417711">
        <ele>19.8444</ele>
        <time>2012-05-19T09:41:21Z</time>
      </trkpt>
      <trkpt lat="59.9153628" lon="17.8417479">
        <ele>18.8831</ele>
        <time>2012-05-19T09:41:28Z</time>
      </trkpt>
      <trkpt lat="59.9149075" lon="17.8418505">
        <ele>18.4023</ele>
        <time>2012-05-19T09:41:34Z</time>
      </trkpt>
      <trkpt lat="59.9144661" lon="17.8422129">
        <ele>17.4412</ele>
        <time>2012-05-19T09:41:40Z</time>
      </trkpt>
      <trkpt lat="59.9139155" lon="17.8428335">
        <ele>16.9604</ele>
        <time>2012-05-19T09:41:48Z</time>
      </trkpt>
      <trkpt lat="59.9137057" lon="17.8430361">
        <ele>17.4412</ele>
        <time>2012-05-19T09:41:51Z</time>
      </trkpt>
      <trkpt lat="59.9132092" lon="17.8432779">
        <ele>18.4023</ele>
        <time>2012-05-19T09:41:58Z</time>
      </trkpt>
      <trkpt lat="59.9127784" lon="17.8434224">
        <ele>20.325</ele>
        <time>2012-05-19T09:42:05Z</time>
      </trkpt>
      <trkpt lat="59.9124537" lon="17.8436769">
        <ele>20.325</ele>
        <time>2012-05-19T09:42:11Z</time>
      </trkpt>
      <trkpt lat="59.9120424" lon="17.8440963">
        <ele>19.3638</ele>
        <time>2012-05-19T09:42:18Z</time>
      </trkpt>
      <trkpt lat="59.9116808" lon="17.8442695">
        <ele>19.3638</ele>
        <time>2012-05-19T09:42:23Z</time>
      </trkpt>
      <trkpt lat="59.9111528" lon="17.8442679">
        <ele>18.8831</ele>
        <time>2012-05-19T09:42:30Z</time>
      </trkpt>
      <trkpt lat="59.9110778" lon="17.8442482">
        <ele>18.8831</ele>
        <time>2012-05-19T09:42:31Z</time>
      </trkpt>
      <trkpt lat="59.9106906" lon="17.8439458">
        <ele>18.4023</ele>
        <time>2012-05-19T09:42:37Z</time>
      </trkpt>
      <trkpt lat="59.9103022" lon="17.8436529">
        <ele>20.325</ele>
        <time>2012-05-19T09:42:44Z</time>
      </trkpt>
      <trkpt lat="59.9100214" lon="17.8434023">
        <ele>21.767</ele>
        <time>2012-05-19T09:42:50Z</time>
      </trkpt>
      <trkpt lat="59.9098454" lon="17.8432235">
        <ele>21.767</ele>
        <time>2012-05-19T09:42:54Z</time>
      </trkpt>
      <trkpt lat="59.9097197" lon="17.8430619">
        <ele>21.2864</ele>
        <time>2012-05-19T09:42:57Z</time>
      </trkpt>
      <trkpt lat="59.9095976" lon="17.8426859">
        <ele>18.4023</ele>
        <time>2012-05-19T09:43:01Z</time>
      </trkpt>
      <trkpt lat="59.9096082" lon="17.8424555">
        <ele>17.9218</ele>
        <time>2012-05-19T09:43:03Z</time>
      </trkpt>
      <trkpt lat="59.9096543" lon="17.8416819">
        <ele>15.5184</ele>
        <time>2012-05-19T09:43:09Z</time>
      </trkpt>
      <trkpt lat="59.9096247" lon="17.8412478">
        <ele>14.0764</ele>
        <time>2012-05-19T09:43:12Z</time>
      </trkpt>
      <trkpt lat="59.9094974" lon="17.8406889">
        <ele>13.1151</ele>
        <time>2012-05-19T09:43:16Z</time>
      </trkpt>
      <trkpt lat="59.9091475" lon="17.8397587">
        <ele>15.0377</ele>
        <time>2012-05-19T09:43:24Z</time>
      </trkpt>
      <trkpt lat="59.909044" lon="17.8394841">
        <ele>15.5184</ele>
        <time>2012-05-19T09:43:27Z</time>
      </trkpt>
      <trkpt lat="59.9089862" lon="17.8393199">
        <ele>16.4797</ele>
        <time>2012-05-19T09:43:29Z</time>
      </trkpt>
      <trkpt lat="59.9088623" lon="17.8390578">
        <ele>17.4412</ele>
        <time>2012-05-19T09:43:33Z</time>
      </trkpt>
      <trkpt lat="59.9087286" lon="17.838845">
        <ele>17.9218</ele>
        <time>2012-05-19T09:43:37Z</time>
      </trkpt>
      <trkpt lat="59.9085551" lon="17.8386887">
        <ele>18.4023</ele>
        <time>2012-05-19T09:43:42Z</time>
      </trkpt>
      <trkpt lat="59.9083095" lon="17.8386548">
        <ele>20.8057</ele>
        <time>2012-05-19T09:43:49Z</time>
      </trkpt>
      <trkpt lat="59.9080422" lon="17.8387551">
        <ele>21.2864</ele>
        <time>2012-05-19T09:43:56Z</time>
      </trkpt>
      <trkpt lat="59.9078576" lon="17.8389645">
        <ele>22.7283</ele>
        <time>2012-05-19T09:44:01Z</time>
      </trkpt>
      <trkpt lat="59.9076276" lon="17.8392791">
        <ele>23.6896</ele>
        <time>2012-05-19T09:44:08Z</time>
      </trkpt>
      <trkpt lat="59.907452" lon="17.839502">
        <ele>26.0929</ele>
        <time>2012-05-19T09:44:13Z</time>
      </trkpt>
      <trkpt lat="59.9071026" lon="17.8398015">
        <ele>25.6123</ele>
        <time>2012-05-19T09:44:19Z</time>
      </trkpt>
      <trkpt lat="59.9066478" lon="17.8401984">
        <ele>27.5349</ele>
        <time>2012-05-19T09:44:25Z</time>
      </trkpt>
      <trkpt lat="59.9064101" lon="17.8404108">
        <ele>26.5736</ele>
        <time>2012-05-19T09:44:28Z</time>
      </trkpt>
      <trkpt lat="59.9059674" lon="17.8410274">
        <ele>22.2476</ele>
        <time>2012-05-19T09:44:34Z</time>
      </trkpt>
      <trkpt lat="59.9055567" lon="17.8412835">
        <ele>22.2476</ele>
        <time>2012-05-19T09:44:39Z</time>
      </trkpt>
      <trkpt lat="59.9051467" lon="17.8414104">
        <ele>23.209</ele>
        <time>2012-05-19T09:44:45Z</time>
      </trkpt>
      <trkpt lat="59.904969" lon="17.841496">
        <ele>24.1703</ele>
        <time>2012-05-19T09:44:49Z</time>
      </trkpt>
      <trkpt lat="59.9048093" lon="17.8415924">
        <ele>24.651</ele>
        <time>2012-05-19T09:44:53Z</time>
      </trkpt>
      <trkpt lat="59.904727" lon="17.8416722">
        <ele>27.0543</ele>
        <time>2012-05-19T09:44:55Z</time>
      </trkpt>
      <trkpt lat="59.9046346" lon="17.8417346">
        <ele>28.4962</ele>
        <time>2012-05-19T09:44:57Z</time>
      </trkpt>
      <trkpt lat="59.9043091" lon="17.8419468">
        <ele>28.0155</ele>
        <time>2012-05-19T09:45:04Z</time>
      </trkpt>
      <trkpt lat="59.9042616" lon="17.8419753">
        <ele>28.0155</ele>
        <time>2012-05-19T09:45:05Z</time>
      </trkpt>
      <trkpt lat="59.9040705" lon="17.8420358">
        <ele>28.9769</ele>
        <time>2012-05-19T09:45:08Z</time>
      </trkpt>
      <trkpt lat="59.9038553" lon="17.841976">
        <ele>29.4575</ele>
        <time>2012-05-19T09:45:12Z</time>
      </trkpt>
      <trkpt lat="59.9036318" lon="17.8417686">
        <ele>31.8607</ele>
        <time>2012-05-19T09:45:17Z</time>
      </trkpt>
      <trkpt lat="59.9033743" lon="17.8414136">
        <ele>27.5349</ele>
        <time>2012-05-19T09:45:24Z</time>
      </trkpt>
      <trkpt lat="59.9030837" lon="17.8412649">
        <ele>30.8995</ele>
        <time>2012-05-19T09:45:30Z</time>
      </trkpt>
      <trkpt lat="59.9026502" lon="17.8414458">
        <ele>35.7061</ele>
        <time>2012-05-19T09:45:38Z</time>
      </trkpt>
      <trkpt lat="59.9025481" lon="17.8414919">
        <ele>36.1868</ele>
        <time>2012-05-19T09:45:40Z</time>
      </trkpt>
      <trkpt lat="59.9022896" lon="17.8415932">
        <ele>34.7449</ele>
        <time>2012-05-19T09:45:46Z</time>
      </trkpt>
      <trkpt lat="59.9019624" lon="17.8416126">
        <ele>39.0707</ele>
        <time>2012-05-19T09:45:54Z</time>
      </trkpt>
      <trkpt lat="59.9018135" lon="17.8416207">
        <ele>40.9934</ele>
        <time>2012-05-19T09:45:57Z</time>
      </trkpt>
      <trkpt lat="59.9013583" lon="17.8415406">
        <ele>42.916</ele>
        <time>2012-05-19T09:46:05Z</time>
      </trkpt>
      <trkpt lat="59.9012984" lon="17.8415153">
        <ele>42.4354</ele>
        <time>2012-05-19T09:46:06Z</time>
      </trkpt>
      <trkpt lat="59.9011263" lon="17.8414637">
        <ele>41.9547</ele>
        <time>2012-05-19T09:46:09Z</time>
      </trkpt>
      <trkpt lat="59.9007076" lon="17.8414089">
        <ele>42.4354</ele>
        <time>2012-05-19T09:46:17Z</time>
      </trkpt>
      <trkpt lat="59.900612" lon="17.8413982">
        <ele>42.916</ele>
        <time>2012-05-19T09:46:19Z</time>
      </trkpt>
      <trkpt lat="59.900297" lon="17.8413557">
        <ele>45.3192</ele>
        <time>2012-05-19T09:46:26Z</time>
      </trkpt>
      <trkpt lat="59.9000555" lon="17.8413598">
        <ele>47.2418</ele>
        <time>2012-05-19T09:46:32Z</time>
      </trkpt>
      <trkpt lat="59.8998102" lon="17.8414146">
        <ele>49.1646</ele>
        <time>2012-05-19T09:46:39Z</time>
      </trkpt>
      <trkpt lat="59.8996287" lon="17.8414467">
        <ele>49.6453</ele>
        <time>2012-05-19T09:46:45Z</time>
      </trkpt>
      <trkpt lat="59.8994681" lon="17.8415638">
        <ele>51.0872</ele>
        <time>2012-05-19T09:46:51Z</time>
      </trkpt>
      <trkpt lat="59.899319" lon="17.8417531">
        <ele>53.9712</ele>
        <time>2012-05-19T09:46:56Z</time>
      </trkpt>
      <trkpt lat="59.899109" lon="17.8419458">
        <ele>53.0098</ele>
        <time>2012-05-19T09:47:02Z</time>
      </trkpt>
      <trkpt lat="59.8988289" lon="17.8421143">
        <ele>52.0486</ele>
        <time>2012-05-19T09:47:07Z</time>
      </trkpt>
      <trkpt lat="59.8984066" lon="17.8422972">
        <ele>52.0486</ele>
        <time>2012-05-19T09:47:13Z</time>
      </trkpt>
      <trkpt lat="59.8979551" lon="17.8423119">
        <ele>53.4905</ele>
        <time>2012-05-19T09:47:19Z</time>
      </trkpt>
      <trkpt lat="59.8976462" lon="17.8423622">
        <ele>54.4518</ele>
        <time>2012-05-19T09:47:23Z</time>
      </trkpt>
      <trkpt lat="59.8973626" lon="17.84252">
        <ele>50.6066</ele>
        <time>2012-05-19T09:47:27Z</time>
      </trkpt>
      <trkpt lat="59.8970138" lon="17.842809">
        <ele>46.7612</ele>
        <time>2012-05-19T09:47:32Z</time>
      </trkpt>
      <trkpt lat="59.8966445" lon="17.8429036">
        <ele>41.9547</ele>
        <time>2012-05-19T09:47:36Z</time>
      </trkpt>
      <trkpt lat="59.8965274" lon="17.8428813">
        <ele>41.9547</ele>
        <time>2012-05-19T09:47:37Z</time>
      </trkpt>
      <trkpt lat="59.8959605" lon="17.8427487">
        <ele>40.9934</ele>
        <time>2012-05-19T09:47:42Z</time>
      </trkpt>
      <trkpt lat="59.8954852" lon="17.8429517">
        <ele>39.0707</ele>
        <time>2012-05-19T09:47:47Z</time>
      </trkpt>
      <trkpt lat="59.8949224" lon="17.8431838">
        <ele>39.5513</ele>
        <time>2012-05-19T09:47:53Z</time>
      </trkpt>
      <trkpt lat="59.8944842" lon="17.843176">
        <ele>45.7999</ele>
        <time>2012-05-19T09:47:58Z</time>
      </trkpt>
      <trkpt lat="59.8939239" lon="17.8430936">
        <ele>44.8386</ele>
        <time>2012-05-19T09:48:05Z</time>
      </trkpt>
      <trkpt lat="59.8933665" lon="17.8429801">
        <ele>44.8386</ele>
        <time>2012-05-19T09:48:12Z</time>
      </trkpt>
      <trkpt lat="59.8929577" lon="17.8427613">
        <ele>43.3966</ele>
        <time>2012-05-19T09:48:18Z</time>
      </trkpt>
      <trkpt lat="59.892601" lon="17.8426173">
        <ele>46.7612</ele>
        <time>2012-05-19T09:48:24Z</time>
      </trkpt>
      <trkpt lat="59.8921452" lon="17.842414">
        <ele>51.0872</ele>
        <time>2012-05-19T09:48:32Z</time>
      </trkpt>
      <trkpt lat="59.891767" lon="17.8423026">
        <ele>53.0098</ele>
        <time>2012-05-19T09:48:39Z</time>
      </trkpt>
      <trkpt lat="59.8915075" lon="17.8422456">
        <ele>54.4518</ele>
        <time>2012-05-19T09:48:44Z</time>
      </trkpt>
      <trkpt lat="59.8911991" lon="17.842076">
        <ele>53.4905</ele>
        <time>2012-05-19T09:48:50Z</time>
      </trkpt>
      <trkpt lat="59.8908261" lon="17.8417036">
        <ele>51.0872</ele>
        <time>2012-05-19T09:48:57Z</time>
      </trkpt>
      <trkpt lat="59.8905054" lon="17.8412275">
        <ele>49.1646</ele>
        <time>2012-05-19T09:49:03Z</time>
      </trkpt>
      <trkpt lat="59.8903932" lon="17.8410526">
        <ele>48.2034</ele>
        <time>2012-05-19T09:49:05Z</time>
      </trkpt>
      <trkpt lat="59.8901378" lon="17.8408553">
        <ele>47.7225</ele>
        <time>2012-05-19T09:49:09Z</time>
      </trkpt>
      <trkpt lat="59.889958" lon="17.8410397">
        <ele>47.7225</ele>
        <time>2012-05-19T09:49:12Z</time>
      </trkpt>
      <trkpt lat="59.8898249" lon="17.8415352">
        <ele>46.2806</ele>
        <time>2012-05-19T09:49:16Z</time>
      </trkpt>
      <trkpt lat="59.8897953" lon="17.8418115">
        <ele>44.358</ele>
        <time>2012-05-19T09:49:18Z</time>
      </trkpt>
      <trkpt lat="59.889783" lon="17.8420979">
        <ele>42.916</ele>
        <time>2012-05-19T09:49:20Z</time>
      </trkpt>
      <trkpt lat="59.8897278" lon="17.8431117">
        <ele>39.5513</ele>
        <time>2012-05-19T09:49:26Z</time>
      </trkpt>
      <trkpt lat="59.8895161" lon="17.8434116">
        <ele>37.1481</ele>
        <time>2012-05-19T09:49:29Z</time>
      </trkpt>
      <trkpt lat="59.8893166" lon="17.8433853">
        <ele>36.6675</ele>
        <time>2012-05-19T09:49:31Z</time>
      </trkpt>
      <trkpt lat="59.8890033" lon="17.8431723">
        <ele>36.6675</ele>
        <time>2012-05-19T09:49:35Z</time>
      </trkpt>
      <trkpt lat="59.8889199" lon="17.8431514">
        <ele>37.1481</ele>
        <time>2012-05-19T09:49:36Z</time>
      </trkpt>
      <trkpt lat="59.888363" lon="17.8430217">
        <ele>39.5513</ele>
        <time>2012-05-19T09:49:43Z</time>
      </trkpt>
      <trkpt lat="59.8879911" lon="17.842688">
        <ele>36.1868</ele>
        <time>2012-05-19T09:49:48Z</time>
      </trkpt>
      <trkpt lat="59.8875838" lon="17.842146">
        <ele>34.2642</ele>
        <time>2012-05-19T09:49:54Z</time>
      </trkpt>
      <trkpt lat="59.8873828" lon="17.8417072">
        <ele>34.2642</ele>
        <time>2012-05-19T09:49:58Z</time>
      </trkpt>
      <trkpt lat="59.8872938" lon="17.8414762">
        <ele>33.7834</ele>
        <time>2012-05-19T09:50:00Z</time>
      </trkpt>
      <trkpt lat="59.8870463" lon="17.8411246">
        <ele>33.7834</ele>
        <time>2012-05-19T09:50:04Z</time>
      </trkpt>
      <trkpt lat="59.8867465" lon="17.8410421">
        <ele>35.2255</ele>
        <time>2012-05-19T09:50:08Z</time>
      </trkpt>
      <trkpt lat="59.8866729" lon="17.8410644">
        <ele>35.7061</ele>
        <time>2012-05-19T09:50:09Z</time>
      </trkpt>
      <trkpt lat="59.8860839" lon="17.8413359">
        <ele>36.6675</ele>
        <time>2012-05-19T09:50:18Z</time>
      </trkpt>
      <trkpt lat="59.8856045" lon="17.8414106">
        <ele>36.6675</ele>
        <time>2012-05-19T09:50:25Z</time>
      </trkpt>
      <trkpt lat="59.8850821" lon="17.8414696">
        <ele>35.2255</ele>
        <time>2012-05-19T09:50:33Z</time>
      </trkpt>
      <trkpt lat="59.8846691" lon="17.8413702">
        <ele>34.7449</ele>
        <time>2012-05-19T09:50:39Z</time>
      </trkpt>
      <trkpt lat="59.8843024" lon="17.8410468">
        <ele>34.2642</ele>
        <time>2012-05-19T09:50:45Z</time>
      </trkpt>
      <trkpt lat="59.8839095" lon="17.8405442">
        <ele>34.2642</ele>
        <time>2012-05-19T09:50:52Z</time>
      </trkpt>
      <trkpt lat="59.883562" lon="17.8400905">
        <ele>35.7061</ele>
        <time>2012-05-19T09:50:59Z</time>
      </trkpt>
      <trkpt lat="59.8831939" lon="17.8395664">
        <ele>36.6675</ele>
        <time>2012-05-19T09:51:08Z</time>
      </trkpt>
      <trkpt lat="59.8828787" lon="17.8391681">
        <ele>38.1094</ele>
        <time>2012-05-19T09:51:17Z</time>
      </trkpt>
      <trkpt lat="59.8828104" lon="17.8390949">
        <ele>38.1094</ele>
        <time>2012-05-19T09:51:19Z</time>
      </trkpt>
      <trkpt lat="59.882585" lon="17.8389851">
        <ele>38.1094</ele>
        <time>2012-05-19T09:51:24Z</time>
      </trkpt>
      <trkpt lat="59.8822428" lon="17.8389101">
        <ele>38.1094</ele>
        <time>2012-05-19T09:51:29Z</time>
      </trkpt>
      <trkpt lat="59.8821688" lon="17.8388645">
        <ele>37.6287</ele>
        <time>2012-05-19T09:51:30Z</time>
      </trkpt>
      <trkpt lat="59.881833" lon="17.8384414">
        <ele>35.2255</ele>
        <time>2012-05-19T09:51:35Z</time>
      </trkpt>
      <trkpt lat="59.8813335" lon="17.8377129">
        <ele>33.7834</ele>
        <time>2012-05-19T09:51:43Z</time>
      </trkpt>
      <trkpt lat="59.8808826" lon="17.8370145">
        <ele>34.7449</ele>
        <time>2012-05-19T09:51:51Z</time>
      </trkpt>
      <trkpt lat="59.8804179" lon="17.8363106">
        <ele>34.2642</ele>
        <time>2012-05-19T09:51:59Z</time>
      </trkpt>
      <trkpt lat="59.8799847" lon="17.835864">
        <ele>36.1868</ele>
        <time>2012-05-19T09:52:06Z</time>
      </trkpt>
      <trkpt lat="59.8796775" lon="17.8357784">
        <ele>35.2255</ele>
        <time>2012-05-19T09:52:11Z</time>
      </trkpt>
      <trkpt lat="59.8792092" lon="17.8357527">
        <ele>33.3029</ele>
        <time>2012-05-19T09:52:17Z</time>
      </trkpt>
      <trkpt lat="59.8787913" lon="17.8356104">
        <ele>33.3029</ele>
        <time>2012-05-19T09:52:23Z</time>
      </trkpt>
      <trkpt lat="59.8783708" lon="17.8352973">
        <ele>33.3029</ele>
        <time>2012-05-19T09:52:29Z</time>
      </trkpt>
      <trkpt lat="59.8778723" lon="17.8347687">
        <ele>34.2642</ele>
        <time>2012-05-19T09:52:37Z</time>
      </trkpt>
      <trkpt lat="59.8774138" lon="17.8341807">
        <ele>33.7834</ele>
        <time>2012-05-19T09:52:45Z</time>
      </trkpt>
      <trkpt lat="59.8769854" lon="17.8337021">
        <ele>34.7449</ele>
        <time>2012-05-19T09:52:52Z</time>
      </trkpt>
      <trkpt lat="59.8766425" lon="17.83347">
        <ele>35.7061</ele>
        <time>2012-05-19T09:52:58Z</time>
      </trkpt>
      <trkpt lat="59.8762406" lon="17.8332246">
        <ele>35.7061</ele>
        <time>2012-05-19T09:53:05Z</time>
      </trkpt>
      <trkpt lat="59.8758319" lon="17.8328769">
        <ele>35.2255</ele>
        <time>2012-05-19T09:53:11Z</time>
      </trkpt>
      <trkpt lat="59.875379" lon="17.8324819">
        <ele>34.7449</ele>
        <time>2012-05-19T09:53:18Z</time>
      </trkpt>
      <trkpt lat="59.8749267" lon="17.8323283">
        <ele>34.2642</ele>
        <time>2012-05-19T09:53:24Z</time>
      </trkpt>
      <trkpt lat="59.874441" lon="17.8321746">
        <ele>36.1868</ele>
        <time>2012-05-19T09:53:31Z</time>
      </trkpt>
      <trkpt lat="59.874174" lon="17.8319191">
        <ele>36.6675</ele>
        <time>2012-05-19T09:53:36Z</time>
      </trkpt>
      <trkpt lat="59.8737044" lon="17.8313177">
        <ele>34.2642</ele>
        <time>2012-05-19T09:53:45Z</time>
      </trkpt>
      <trkpt lat="59.8733217" lon="17.8309262">
        <ele>32.3416</ele>
        <time>2012-05-19T09:53:51Z</time>
      </trkpt>
      <trkpt lat="59.8727782" lon="17.830583">
        <ele>30.4188</ele>
        <time>2012-05-19T09:53:59Z</time>
      </trkpt>
      <trkpt lat="59.8723368" lon="17.8303013">
        <ele>25.1317</ele>
        <time>2012-05-19T09:54:05Z</time>
      </trkpt>
      <trkpt lat="59.8720179" lon="17.8302359">
        <ele>24.1703</ele>
        <time>2012-05-19T09:54:09Z</time>
      </trkpt>
      <trkpt lat="59.8719489" lon="17.8303096">
        <ele>24.1703</ele>
        <time>2012-05-19T09:54:10Z</time>
      </trkpt>
      <trkpt lat="59.8715304" lon="17.8307395">
        <ele>22.2476</ele>
        <time>2012-05-19T09:54:16Z</time>
      </trkpt>
      <trkpt lat="59.8709025" lon="17.8312708">
        <ele>20.325</ele>
        <time>2012-05-19T09:54:24Z</time>
      </trkpt>
      <trkpt lat="59.8703113" lon="17.831975">
        <ele>19.8444</ele>
        <time>2012-05-19T09:54:32Z</time>
      </trkpt>
      <trkpt lat="59.8699657" lon="17.8326629">
        <ele>19.3638</ele>
        <time>2012-05-19T09:54:38Z</time>
      </trkpt>
      <trkpt lat="59.8694754" lon="17.8337283">
        <ele>18.8831</ele>
        <time>2012-05-19T09:54:47Z</time>
      </trkpt>
      <trkpt lat="59.868994" lon="17.8348504">
        <ele>19.3638</ele>
        <time>2012-05-19T09:54:57Z</time>
      </trkpt>
      <trkpt lat="59.8687" lon="17.8355639">
        <ele>20.8057</ele>
        <time>2012-05-19T09:55:04Z</time>
      </trkpt>
      <trkpt lat="59.8685348" lon="17.8359452">
        <ele>22.2476</ele>
        <time>2012-05-19T09:55:09Z</time>
      </trkpt>
      <trkpt lat="59.8684583" lon="17.8361306">
        <ele>23.209</ele>
        <time>2012-05-19T09:55:12Z</time>
      </trkpt>
      <trkpt lat="59.8683502" lon="17.8364601">
        <ele>23.6896</ele>
        <time>2012-05-19T09:55:18Z</time>
      </trkpt>
      <trkpt lat="59.8683311" lon="17.8365206">
        <ele>23.209</ele>
        <time>2012-05-19T09:55:19Z</time>
      </trkpt>
      <trkpt lat="59.8681862" lon="17.8369623">
        <ele>23.6896</ele>
        <time>2012-05-19T09:55:25Z</time>
      </trkpt>
      <trkpt lat="59.8680006" lon="17.8372271">
        <ele>24.651</ele>
        <time>2012-05-19T09:55:29Z</time>
      </trkpt>
      <trkpt lat="59.8675705" lon="17.837455">
        <ele>26.0929</ele>
        <time>2012-05-19T09:55:36Z</time>
      </trkpt>
      <trkpt lat="59.8675106" lon="17.8374799">
        <ele>26.0929</ele>
        <time>2012-05-19T09:55:37Z</time>
      </trkpt>
      <trkpt lat="59.8672053" lon="17.8377808">
        <ele>25.6123</ele>
        <time>2012-05-19T09:55:42Z</time>
      </trkpt>
      <trkpt lat="59.8670319" lon="17.8382979">
        <ele>25.1317</ele>
        <time>2012-05-19T09:55:46Z</time>
      </trkpt>
      <trkpt lat="59.866973" lon="17.8385962">
        <ele>24.651</ele>
        <time>2012-05-19T09:55:48Z</time>
      </trkpt>
      <trkpt lat="59.8668237" lon="17.8391578">
        <ele>24.1703</ele>
        <time>2012-05-19T09:55:52Z</time>
      </trkpt>
      <trkpt lat="59.8666687" lon="17.8395023">
        <ele>23.6896</ele>
        <time>2012-05-19T09:55:55Z</time>
      </trkpt>
      <trkpt lat="59.8663277" lon="17.8398716">
        <ele>21.767</ele>
        <time>2012-05-19T09:56:00Z</time>
      </trkpt>
      <trkpt lat="59.8661627" lon="17.8399206">
        <ele>21.2864</ele>
        <time>2012-05-19T09:56:02Z</time>
      </trkpt>
      <trkpt lat="59.8655008" lon="17.8398576">
        <ele>20.8057</ele>
        <time>2012-05-19T09:56:10Z</time>
      </trkpt>
      <trkpt lat="59.8654221" lon="17.8398477">
        <ele>20.8057</ele>
        <time>2012-05-19T09:56:11Z</time>
      </trkpt>
      <trkpt lat="59.8651291" lon="17.8399416">
        <ele>20.8057</ele>
        <time>2012-05-19T09:56:15Z</time>
      </trkpt>
      <trkpt lat="59.8646847" lon="17.8405439">
        <ele>19.8444</ele>
        <time>2012-05-19T09:56:22Z</time>
      </trkpt>
      <trkpt lat="59.8644108" lon="17.8412607">
        <ele>20.325</ele>
        <time>2012-05-19T09:56:28Z</time>
      </trkpt>
      <trkpt lat="59.8640842" lon="17.8423646">
        <ele>18.4023</ele>
        <time>2012-05-19T09:56:36Z</time>
      </trkpt>
      <trkpt lat="59.8638591" lon="17.8434054">
        <ele>17.4412</ele>
        <time>2012-05-19T09:56:43Z</time>
      </trkpt>
      <trkpt lat="59.8637006" lon="17.8444565">
        <ele>16.4797</ele>
        <time>2012-05-19T09:56:50Z</time>
      </trkpt>
      <trkpt lat="59.8634663" lon="17.8456505">
        <ele>16.4797</ele>
        <time>2012-05-19T09:56:58Z</time>
      </trkpt>
      <trkpt lat="59.8632583" lon="17.8468256">
        <ele>15.999</ele>
        <time>2012-05-19T09:57:06Z</time>
      </trkpt>
      <trkpt lat="59.8629835" lon="17.8479563">
        <ele>15.999</ele>
        <time>2012-05-19T09:57:14Z</time>
      </trkpt>
      <trkpt lat="59.8626439" lon="17.8492979">
        <ele>16.4797</ele>
        <time>2012-05-19T09:57:24Z</time>
      </trkpt>
      <trkpt lat="59.8624465" lon="17.8501267">
        <ele>16.4797</ele>
        <time>2012-05-19T09:57:30Z</time>
      </trkpt>
      <trkpt lat="59.8622329" lon="17.850519">
        <ele>15.999</ele>
        <time>2012-05-19T09:57:34Z</time>
      </trkpt>
      <trkpt lat="59.8620907" lon="17.8505522">
        <ele>15.999</ele>
        <time>2012-05-19T09:57:36Z</time>
      </trkpt>
      <trkpt lat="59.8615966" lon="17.8505365">
        <ele>15.5184</ele>
        <time>2012-05-19T09:57:43Z</time>
      </trkpt>
      <trkpt lat="59.8609889" lon="17.8503927">
        <ele>15.0377</ele>
        <time>2012-05-19T09:57:51Z</time>
      </trkpt>
      <trkpt lat="59.8602564" lon="17.8502707">
        <ele>14.557</ele>
        <time>2012-05-19T09:58:01Z</time>
      </trkpt>
      <trkpt lat="59.8597029" lon="17.8503025">
        <ele>15.0377</ele>
        <time>2012-05-19T09:58:09Z</time>
      </trkpt>
      <trkpt lat="59.8591499" lon="17.8503991">
        <ele>13.5958</ele>
        <time>2012-05-19T09:58:17Z</time>
      </trkpt>
      <trkpt lat="59.8586268" lon="17.8505292">
        <ele>13.1151</ele>
        <time>2012-05-19T09:58:25Z</time>
      </trkpt>
      <trkpt lat="59.8581553" lon="17.8507716">
        <ele>13.1151</ele>
        <time>2012-05-19T09:58:32Z</time>
      </trkpt>
      <trkpt lat="59.8575566" lon="17.8512921">
        <ele>12.6344</ele>
        <time>2012-05-19T09:58:41Z</time>
      </trkpt>
      <trkpt lat="59.8570633" lon="17.8517366">
        <ele>12.6344</ele>
        <time>2012-05-19T09:58:49Z</time>
      </trkpt>
      <trkpt lat="59.8568525" lon="17.8519509">
        <ele>13.1151</ele>
        <time>2012-05-19T09:58:53Z</time>
      </trkpt>
      <trkpt lat="59.8566764" lon="17.8522893">
        <ele>13.1151</ele>
        <time>2012-05-19T09:58:58Z</time>
      </trkpt>
      <trkpt lat="59.8566074" lon="17.8525277">
        <ele>13.1151</ele>
        <time>2012-05-19T09:59:01Z</time>
      </trkpt>
      <trkpt lat="59.8564885" lon="17.8533647">
        <ele>14.0764</ele>
        <time>2012-05-19T09:59:10Z</time>
      </trkpt>
      <trkpt lat="59.8564723" lon="17.8534641">
        <ele>14.0764</ele>
        <time>2012-05-19T09:59:11Z</time>
      </trkpt>
      <trkpt lat="59.8562941" lon="17.8536993">
        <ele>14.557</ele>
        <time>2012-05-19T09:59:15Z</time>
      </trkpt>
      <trkpt lat="59.8562324" lon="17.8536987">
        <ele>14.557</ele>
        <time>2012-05-19T09:59:16Z</time>
      </trkpt>
      <trkpt lat="59.8556769" lon="17.8536589">
        <ele>13.5958</ele>
        <time>2012-05-19T09:59:25Z</time>
      </trkpt>
      <trkpt lat="59.8554591" lon="17.853819">
        <ele>13.5958</ele>
        <time>2012-05-19T09:59:29Z</time>
      </trkpt>
      <trkpt lat="59.8553846" lon="17.8541711">
        <ele>13.5958</ele>
        <time>2012-05-19T09:59:32Z</time>
      </trkpt>
      <trkpt lat="59.8553596" lon="17.8545806">
        <ele>13.1151</ele>
        <time>2012-05-19T09:59:35Z</time>
      </trkpt>
      <trkpt lat="59.8552592" lon="17.8559584">
        <ele>11.6732</ele>
        <time>2012-05-19T09:59:44Z</time>
      </trkpt>
      <trkpt lat="59.8551456" lon="17.8574032">
        <ele>12.6344</ele>
        <time>2012-05-19T09:59:53Z</time>
      </trkpt>
      <trkpt lat="59.8550613" lon="17.8583947">
        <ele>13.1151</ele>
        <time>2012-05-19T10:00:00Z</time>
      </trkpt>
      <trkpt lat="59.8549898" lon="17.8592524">
        <ele>15.0377</ele>
        <time>2012-05-19T10:00:07Z</time>
      </trkpt>
      <trkpt lat="59.8548634" lon="17.8595889">
        <ele>15.5184</ele>
        <time>2012-05-19T10:00:11Z</time>
      </trkpt>
      <trkpt lat="59.8547634" lon="17.8595952">
        <ele>15.999</ele>
        <time>2012-05-19T10:00:13Z</time>
      </trkpt>
      <trkpt lat="59.8544199" lon="17.859458">
        <ele>17.4412</ele>
        <time>2012-05-19T10:00:20Z</time>
      </trkpt>
      <trkpt lat="59.8540972" lon="17.8591597">
        <ele>15.0377</ele>
        <time>2012-05-19T10:00:26Z</time>
      </trkpt>
      <trkpt lat="59.8537139" lon="17.8587217">
        <ele>14.557</ele>
        <time>2012-05-19T10:00:32Z</time>
      </trkpt>
      <trkpt lat="59.8530895" lon="17.8579688">
        <ele>16.9604</ele>
        <time>2012-05-19T10:00:42Z</time>
      </trkpt>
      <trkpt lat="59.85277" lon="17.8576795">
        <ele>15.5184</ele>
        <time>2012-05-19T10:00:47Z</time>
      </trkpt>
      <trkpt lat="59.8523904" lon="17.8575283">
        <ele>12.6344</ele>
        <time>2012-05-19T10:00:52Z</time>
      </trkpt>
      <trkpt lat="59.8520216" lon="17.8576039">
        <ele>13.1151</ele>
        <time>2012-05-19T10:00:57Z</time>
      </trkpt>
      <trkpt lat="59.8516067" lon="17.8577839">
        <ele>12.6344</ele>
        <time>2012-05-19T10:01:03Z</time>
      </trkpt>
      <trkpt lat="59.8509441" lon="17.8580527">
        <ele>7.82788</ele>
        <time>2012-05-19T10:01:13Z</time>
      </trkpt>
      <trkpt lat="59.8502992" lon="17.8584136">
        <ele>9.2699</ele>
        <time>2012-05-19T10:01:24Z</time>
      </trkpt>
      <trkpt lat="59.8496689" lon="17.8589016">
        <ele>8.78918</ele>
        <time>2012-05-19T10:01:34Z</time>
      </trkpt>
      <trkpt lat="59.8492797" lon="17.8591445">
        <ele>8.30859</ele>
        <time>2012-05-19T10:01:40Z</time>
      </trkpt>
      <trkpt lat="59.848768" lon="17.8594115">
        <ele>7.34717</ele>
        <time>2012-05-19T10:01:48Z</time>
      </trkpt>
      <trkpt lat="59.8481337" lon="17.8597156">
        <ele>7.34717</ele>
        <time>2012-05-19T10:01:58Z</time>
      </trkpt>
      <trkpt lat="59.8475929" lon="17.859965">
        <ele>8.30859</ele>
        <time>2012-05-19T10:02:07Z</time>
      </trkpt>
      <trkpt lat="59.847118" lon="17.8601833">
        <ele>9.2699</ele>
        <time>2012-05-19T10:02:15Z</time>
      </trkpt>
      <trkpt lat="59.8466976" lon="17.8603749">
        <ele>9.75061</ele>
        <time>2012-05-19T10:02:23Z</time>
      </trkpt>
      <trkpt lat="59.8462094" lon="17.8605982">
        <ele>12.1538</ele>
        <time>2012-05-19T10:02:33Z</time>
      </trkpt>
      <trkpt lat="59.8458882" lon="17.8607364">
        <ele>13.1151</ele>
        <time>2012-05-19T10:02:40Z</time>
      </trkpt>
      <trkpt lat="59.8454869" lon="17.860908">
        <ele>13.5958</ele>
        <time>2012-05-19T10:02:49Z</time>
      </trkpt>
      <trkpt lat="59.8450269" lon="17.8611305">
        <ele>13.1151</ele>
        <time>2012-05-19T10:02:58Z</time>
      </trkpt>
      <trkpt lat="59.8444824" lon="17.8613769">
        <ele>12.6344</ele>
        <time>2012-05-19T10:03:07Z</time>
      </trkpt>
      <trkpt lat="59.8438779" lon="17.8616469">
        <ele>13.1151</ele>
        <time>2012-05-19T10:03:17Z</time>
      </trkpt>
      <trkpt lat="59.8433944" lon="17.861859">
        <ele>14.557</ele>
        <time>2012-05-19T10:03:26Z</time>
      </trkpt>
      <trkpt lat="59.8430636" lon="17.8619837">
        <ele>15.0377</ele>
        <time>2012-05-19T10:03:33Z</time>
      </trkpt>
      <trkpt lat="59.8426596" lon="17.862099">
        <ele>15.999</ele>
        <time>2012-05-19T10:03:41Z</time>
      </trkpt>
      <trkpt lat="59.8423346" lon="17.8620365">
        <ele>16.9604</ele>
        <time>2012-05-19T10:03:47Z</time>
      </trkpt>
      <trkpt lat="59.842013" lon="17.8617617">
        <ele>16.4797</ele>
        <time>2012-05-19T10:03:53Z</time>
      </trkpt>
      <trkpt lat="59.8417002" lon="17.8614104">
        <ele>13.5958</ele>
        <time>2012-05-19T10:03:58Z</time>
      </trkpt>
      <trkpt lat="59.8412566" lon="17.860956">
        <ele>15.0377</ele>
        <time>2012-05-19T10:04:05Z</time>
      </trkpt>
      <trkpt lat="59.8408759" lon="17.8606933">
        <ele>16.9604</ele>
        <time>2012-05-19T10:04:11Z</time>
      </trkpt>
      <trkpt lat="59.8403523" lon="17.8603825">
        <ele>14.557</ele>
        <time>2012-05-19T10:04:20Z</time>
      </trkpt>
      <trkpt lat="59.8396187" lon="17.859852">
        <ele>10.2312</ele>
        <time>2012-05-19T10:04:32Z</time>
      </trkpt>
      <trkpt lat="59.8391459" lon="17.8592571">
        <ele>9.2699</ele>
        <time>2012-05-19T10:04:40Z</time>
      </trkpt>
      <trkpt lat="59.8387843" lon="17.8586509">
        <ele>12.1538</ele>
        <time>2012-05-19T10:04:47Z</time>
      </trkpt>
      <trkpt lat="59.8383496" lon="17.8578055">
        <ele>14.557</ele>
        <time>2012-05-19T10:04:56Z</time>
      </trkpt>
      <trkpt lat="59.838024" lon="17.8570421">
        <ele>16.4797</ele>
        <time>2012-05-19T10:05:04Z</time>
      </trkpt>
      <trkpt lat="59.83778" lon="17.8565743">
        <ele>15.0377</ele>
        <time>2012-05-19T10:05:10Z</time>
      </trkpt>
      <trkpt lat="59.8376937" lon="17.8564637">
        <ele>15.999</ele>
        <time>2012-05-19T10:05:12Z</time>
      </trkpt>
      <trkpt lat="59.8375276" lon="17.8562757">
        <ele>16.4797</ele>
        <time>2012-05-19T10:05:16Z</time>
      </trkpt>
      <trkpt lat="59.8371415" lon="17.8558864">
        <ele>15.999</ele>
        <time>2012-05-19T10:05:24Z</time>
      </trkpt>
      <trkpt lat="59.8368335" lon="17.8553319">
        <ele>15.0377</ele>
        <time>2012-05-19T10:05:31Z</time>
      </trkpt>
      <trkpt lat="59.8367578" lon="17.8551697">
        <ele>14.557</ele>
        <time>2012-05-19T10:05:33Z</time>
      </trkpt>
      <trkpt lat="59.8364953" lon="17.8547975">
        <ele>15.999</ele>
        <time>2012-05-19T10:05:39Z</time>
      </trkpt>
      <trkpt lat="59.8361213" lon="17.8543135">
        <ele>13.5958</ele>
        <time>2012-05-19T10:05:47Z</time>
      </trkpt>
      <trkpt lat="59.8357762" lon="17.8538474">
        <ele>17.9218</ele>
        <time>2012-05-19T10:05:54Z</time>
      </trkpt>
      <trkpt lat="59.8354573" lon="17.853423">
        <ele>16.9604</ele>
        <time>2012-05-19T10:06:00Z</time>
      </trkpt>
      <trkpt lat="59.8354042" lon="17.8533621">
        <ele>17.9218</ele>
        <time>2012-05-19T10:06:01Z</time>
      </trkpt>
      <trkpt lat="59.8351204" lon="17.8528498">
        <ele>15.999</ele>
        <time>2012-05-19T10:06:07Z</time>
      </trkpt>
      <trkpt lat="59.8348459" lon="17.8521563">
        <ele>15.999</ele>
        <time>2012-05-19T10:06:14Z</time>
      </trkpt>
      <trkpt lat="59.8345843" lon="17.8516921">
        <ele>11.6732</ele>
        <time>2012-05-19T10:06:19Z</time>
      </trkpt>
      <trkpt lat="59.8345237" lon="17.8515958">
        <ele>11.1925</ele>
        <time>2012-05-19T10:06:20Z</time>
      </trkpt>
      <trkpt lat="59.8340015" lon="17.8511023">
        <ele>6.38586</ele>
        <time>2012-05-19T10:06:27Z</time>
      </trkpt>
      <trkpt lat="59.8336426" lon="17.8506423">
        <ele>4.46326</ele>
        <time>2012-05-19T10:06:32Z</time>
      </trkpt>
      <trkpt lat="59.8334158" lon="17.8501235">
        <ele>2.54065</ele>
        <time>2012-05-19T10:06:36Z</time>
      </trkpt>
      <trkpt lat="59.833123" lon="17.8495497">
        <ele>3.02124</ele>
        <time>2012-05-19T10:06:41Z</time>
      </trkpt>
      <trkpt lat="59.8328811" lon="17.8490994">
        <ele>5.90527</ele>
        <time>2012-05-19T10:06:46Z</time>
      </trkpt>
      <trkpt lat="59.832596" lon="17.8485098">
        <ele>7.82788</ele>
        <time>2012-05-19T10:06:53Z</time>
      </trkpt>
      <trkpt lat="59.8325602" lon="17.8484141">
        <ele>8.78918</ele>
        <time>2012-05-19T10:06:54Z</time>
      </trkpt>
      <trkpt lat="59.8323391" lon="17.8476776">
        <ele>8.78918</ele>
        <time>2012-05-19T10:07:01Z</time>
      </trkpt>
      <trkpt lat="59.8322036" lon="17.8472475">
        <ele>5.42456</ele>
        <time>2012-05-19T10:07:05Z</time>
      </trkpt>
      <trkpt lat="59.831993" lon="17.8468032">
        <ele>9.75061</ele>
        <time>2012-05-19T10:07:10Z</time>
      </trkpt>
      <trkpt lat="59.8319464" lon="17.8467461">
        <ele>10.2312</ele>
        <time>2012-05-19T10:07:11Z</time>
      </trkpt>
      <trkpt lat="59.831632" lon="17.8465797">
        <ele>12.6344</ele>
        <time>2012-05-19T10:07:17Z</time>
      </trkpt>
      <trkpt lat="59.8314597" lon="17.8464917">
        <ele>13.5958</ele>
        <time>2012-05-19T10:07:20Z</time>
      </trkpt>
      <trkpt lat="59.8313466" lon="17.8463964">
        <ele>14.0764</ele>
        <time>2012-05-19T10:07:22Z</time>
      </trkpt>
      <trkpt lat="59.8311157" lon="17.8461517">
        <ele>13.5958</ele>
        <time>2012-05-19T10:07:26Z</time>
      </trkpt>
      <trkpt lat="59.8306682" lon="17.8458059">
        <ele>12.6344</ele>
        <time>2012-05-19T10:07:33Z</time>
      </trkpt>
      <trkpt lat="59.8305993" lon="17.8457499">
        <ele>12.6344</ele>
        <time>2012-05-19T10:07:34Z</time>
      </trkpt>
      <trkpt lat="59.8304688" lon="17.8456188">
        <ele>13.5958</ele>
        <time>2012-05-19T10:07:36Z</time>
      </trkpt>
      <trkpt lat="59.8302338" lon="17.845298">
        <ele>11.1925</ele>
        <time>2012-05-19T10:07:40Z</time>
      </trkpt>
      <trkpt lat="59.8299398" lon="17.8445368">
        <ele>7.82788</ele>
        <time>2012-05-19T10:07:46Z</time>
      </trkpt>
      <trkpt lat="59.8297887" lon="17.8441596">
        <ele>7.82788</ele>
        <time>2012-05-19T10:07:49Z</time>
      </trkpt>
      <trkpt lat="59.8294761" lon="17.843611">
        <ele>8.30859</ele>
        <time>2012-05-19T10:07:55Z</time>
      </trkpt>
      <trkpt lat="59.8292089" lon="17.8430252">
        <ele>10.2312</ele>
        <time>2012-05-19T10:08:01Z</time>
      </trkpt>
      <trkpt lat="59.829153" lon="17.842946">
        <ele>10.2312</ele>
        <time>2012-05-19T10:08:02Z</time>
      </trkpt>
      <trkpt lat="59.82888" lon="17.8426982">
        <ele>12.6344</ele>
        <time>2012-05-19T10:08:07Z</time>
      </trkpt>
      <trkpt lat="59.8287352" lon="17.8426423">
        <ele>13.1151</ele>
        <time>2012-05-19T10:08:10Z</time>
      </trkpt>
      <trkpt lat="59.8285484" lon="17.8426564">
        <ele>14.0764</ele>
        <time>2012-05-19T10:08:15Z</time>
      </trkpt>
      <trkpt lat="59.8283051" lon="17.842616">
        <ele>16.9604</ele>
        <time>2012-05-19T10:08:22Z</time>
      </trkpt>
      <trkpt lat="59.8281784" lon="17.8424585">
        <ele>16.4797</ele>
        <time>2012-05-19T10:08:26Z</time>
      </trkpt>
      <trkpt lat="59.8280727" lon="17.8422021">
        <ele>18.8831</ele>
        <time>2012-05-19T10:08:32Z</time>
      </trkpt>
      <trkpt lat="59.827938" lon="17.8420058">
        <ele>24.651</ele>
        <time>2012-05-19T10:08:39Z</time>
      </trkpt>
      <trkpt lat="59.827829" lon="17.8419509">
        <ele>28.9769</ele>
        <time>2012-05-19T10:08:44Z</time>
      </trkpt>
      <trkpt lat="59.8277244" lon="17.8418647">
        <ele>30.4188</ele>
        <time>2012-05-19T10:08:48Z</time>
      </trkpt>
      <trkpt lat="59.8275337" lon="17.8417544">
        <ele>30.8995</ele>
        <time>2012-05-19T10:08:54Z</time>
      </trkpt>
      <trkpt lat="59.8273161" lon="17.8415949">
        <ele>28.0155</ele>
        <time>2012-05-19T10:09:00Z</time>
      </trkpt>
      <trkpt lat="59.8270618" lon="17.841386">
        <ele>27.0543</ele>
        <time>2012-05-19T10:09:07Z</time>
      </trkpt>
      <trkpt lat="59.8268565" lon="17.8412289">
        <ele>29.9381</ele>
        <time>2012-05-19T10:09:14Z</time>
      </trkpt>
      <trkpt lat="59.8267215" lon="17.8411382">
        <ele>30.8995</ele>
        <time>2012-05-19T10:09:19Z</time>
      </trkpt>
      <trkpt lat="59.8265515" lon="17.84115">
        <ele>28.0155</ele>
        <time>2012-05-19T10:09:25Z</time>
      </trkpt>
      <trkpt lat="59.826335" lon="17.8413316">
        <ele>28.0155</ele>
        <time>2012-05-19T10:09:32Z</time>
      </trkpt>
      <trkpt lat="59.8261459" lon="17.8415742">
        <ele>31.3801</ele>
        <time>2012-05-19T10:09:39Z</time>
      </trkpt>
      <trkpt lat="59.8259017" lon="17.8417953">
        <ele>34.2642</ele>
        <time>2012-05-19T10:09:47Z</time>
      </trkpt>
      <trkpt lat="59.8256195" lon="17.8420766">
        <ele>35.7061</ele>
        <time>2012-05-19T10:09:55Z</time>
      </trkpt>
      <trkpt lat="59.8253061" lon="17.8423167">
        <ele>35.2255</ele>
        <time>2012-05-19T10:10:03Z</time>
      </trkpt>
      <trkpt lat="59.8250447" lon="17.8424436">
        <ele>34.7449</ele>
        <time>2012-05-19T10:10:09Z</time>
      </trkpt>
      <trkpt lat="59.8249207" lon="17.8424606">
        <ele>33.3029</ele>
        <time>2012-05-19T10:10:12Z</time>
      </trkpt>
      <trkpt lat="59.8247126" lon="17.8424094">
        <ele>34.7449</ele>
        <time>2012-05-19T10:10:18Z</time>
      </trkpt>
      <trkpt lat="59.8245086" lon="17.8424221">
        <ele>36.6675</ele>
        <time>2012-05-19T10:10:23Z</time>
      </trkpt>
      <trkpt lat="59.8241851" lon="17.8424093">
        <ele>39.0707</ele>
        <time>2012-05-19T10:10:29Z</time>
      </trkpt>
      <trkpt lat="59.8237558" lon="17.8423978">
        <ele>40.0321</ele>
        <time>2012-05-19T10:10:37Z</time>
      </trkpt>
      <trkpt lat="59.8237025" lon="17.8424216">
        <ele>40.5128</ele>
        <time>2012-05-19T10:10:38Z</time>
      </trkpt>
      <trkpt lat="59.8234285" lon="17.8427171">
        <ele>41.474</ele>
        <time>2012-05-19T10:10:44Z</time>
      </trkpt>
      <trkpt lat="59.8232104" lon="17.8430272">
        <ele>42.916</ele>
        <time>2012-05-19T10:10:50Z</time>
      </trkpt>
      <trkpt lat="59.8230009" lon="17.8431481">
        <ele>41.474</ele>
        <time>2012-05-19T10:10:56Z</time>
      </trkpt>
      <trkpt lat="59.8227784" lon="17.843175">
        <ele>41.474</ele>
        <time>2012-05-19T10:11:03Z</time>
      </trkpt>
      <trkpt lat="59.8225017" lon="17.8431331">
        <ele>42.4354</ele>
        <time>2012-05-19T10:11:10Z</time>
      </trkpt>
      <trkpt lat="59.8221402" lon="17.8430261">
        <ele>43.3966</ele>
        <time>2012-05-19T10:11:19Z</time>
      </trkpt>
      <trkpt lat="59.8218495" lon="17.8430002">
        <ele>44.8386</ele>
        <time>2012-05-19T10:11:26Z</time>
      </trkpt>
      <trkpt lat="59.8215662" lon="17.842937">
        <ele>46.2806</ele>
        <time>2012-05-19T10:11:32Z</time>
      </trkpt>
      <trkpt lat="59.8212695" lon="17.8429064">
        <ele>48.684</ele>
        <time>2012-05-19T10:11:37Z</time>
      </trkpt>
      <trkpt lat="59.8207876" lon="17.8427401">
        <ele>47.7225</ele>
        <time>2012-05-19T10:11:44Z</time>
      </trkpt>
      <trkpt lat="59.8204365" lon="17.8425257">
        <ele>44.8386</ele>
        <time>2012-05-19T10:11:49Z</time>
      </trkpt>
      <trkpt lat="59.8201127" lon="17.8424894">
        <ele>42.916</ele>
        <time>2012-05-19T10:11:54Z</time>
      </trkpt>
      <trkpt lat="59.8198806" lon="17.8424066">
        <ele>42.916</ele>
        <time>2012-05-19T10:11:58Z</time>
      </trkpt>
      <trkpt lat="59.8193503" lon="17.8419481">
        <ele>38.5901</ele>
        <time>2012-05-19T10:12:06Z</time>
      </trkpt>
      <trkpt lat="59.8189963" lon="17.8417539">
        <ele>37.6287</ele>
        <time>2012-05-19T10:12:11Z</time>
      </trkpt>
      <trkpt lat="59.8186128" lon="17.8417018">
        <ele>38.5901</ele>
        <time>2012-05-19T10:12:16Z</time>
      </trkpt>
      <trkpt lat="59.8181803" lon="17.8418343">
        <ele>37.6287</ele>
        <time>2012-05-19T10:12:22Z</time>
      </trkpt>
      <trkpt lat="59.817906" lon="17.8418726">
        <ele>38.5901</ele>
        <time>2012-05-19T10:12:26Z</time>
      </trkpt>
      <trkpt lat="59.8175787" lon="17.8416148">
        <ele>36.6675</ele>
        <time>2012-05-19T10:12:30Z</time>
      </trkpt>
      <trkpt lat="59.8175263" lon="17.8414534">
        <ele>36.1868</ele>
        <time>2012-05-19T10:12:31Z</time>
      </trkpt>
      <trkpt lat="59.8171525" lon="17.8410013">
        <ele>36.6675</ele>
        <time>2012-05-19T10:12:36Z</time>
      </trkpt>
      <trkpt lat="59.8169594" lon="17.8411002">
        <ele>35.2255</ele>
        <time>2012-05-19T10:12:38Z</time>
      </trkpt>
      <trkpt lat="59.816284" lon="17.8413614">
        <ele>29.9381</ele>
        <time>2012-05-19T10:12:45Z</time>
      </trkpt>
      <trkpt lat="59.8160797" lon="17.8413602">
        <ele>28.0155</ele>
        <time>2012-05-19T10:12:47Z</time>
      </trkpt>
      <trkpt lat="59.8156589" lon="17.8411727">
        <ele>23.209</ele>
        <time>2012-05-19T10:12:51Z</time>
      </trkpt>
      <trkpt lat="59.8151637" lon="17.8411333">
        <ele>22.7283</ele>
        <time>2012-05-19T10:12:56Z</time>
      </trkpt>
      <trkpt lat="59.8148681" lon="17.8411926">
        <ele>24.1703</ele>
        <time>2012-05-19T10:13:00Z</time>
      </trkpt>
      <trkpt lat="59.8146938" lon="17.8412805">
        <ele>26.0929</ele>
        <time>2012-05-19T10:13:03Z</time>
      </trkpt>
      <trkpt lat="59.8145843" lon="17.8413389">
        <ele>27.5349</ele>
        <time>2012-05-19T10:13:05Z</time>
      </trkpt>
      <trkpt lat="59.8143069" lon="17.8414281">
        <ele>32.8223</ele>
        <time>2012-05-19T10:13:10Z</time>
      </trkpt>
      <trkpt lat="59.8140882" lon="17.8413923">
        <ele>34.7449</ele>
        <time>2012-05-19T10:13:14Z</time>
      </trkpt>
      <trkpt lat="59.8137042" lon="17.8411987">
        <ele>40.0321</ele>
        <time>2012-05-19T10:13:21Z</time>
      </trkpt>
      <trkpt lat="59.8133262" lon="17.8409996">
        <ele>45.3192</ele>
        <time>2012-05-19T10:13:28Z</time>
      </trkpt>
      <trkpt lat="59.8129233" lon="17.8408667">
        <ele>40.5128</ele>
        <time>2012-05-19T10:13:35Z</time>
      </trkpt>
      <trkpt lat="59.8127754" lon="17.8407853">
        <ele>39.0707</ele>
        <time>2012-05-19T10:13:38Z</time>
      </trkpt>
      <trkpt lat="59.8124725" lon="17.8404736">
        <ele>38.1094</ele>
        <time>2012-05-19T10:13:45Z</time>
      </trkpt>
      <trkpt lat="59.8121249" lon="17.8402652">
        <ele>36.6675</ele>
        <time>2012-05-19T10:13:52Z</time>
      </trkpt>
      <trkpt lat="59.8118033" lon="17.8401443">
        <ele>37.1481</ele>
        <time>2012-05-19T10:13:57Z</time>
      </trkpt>
      <trkpt lat="59.8114562" lon="17.8401737">
        <ele>36.6675</ele>
        <time>2012-05-19T10:14:02Z</time>
      </trkpt>
      <trkpt lat="59.8110412" lon="17.8401978">
        <ele>35.2255</ele>
        <time>2012-05-19T10:14:08Z</time>
      </trkpt>
      <trkpt lat="59.8108209" lon="17.8402293">
        <ele>34.2642</ele>
        <time>2012-05-19T10:14:11Z</time>
      </trkpt>
      <trkpt lat="59.8105071" lon="17.8404482">
        <ele>30.4188</ele>
        <time>2012-05-19T10:14:15Z</time>
      </trkpt>
      <trkpt lat="59.8103083" lon="17.8406875">
        <ele>28.0155</ele>
        <time>2012-05-19T10:14:18Z</time>
      </trkpt>
      <trkpt lat="59.809953" lon="17.8409323">
        <ele>27.5349</ele>
        <time>2012-05-19T10:14:23Z</time>
      </trkpt>
      <trkpt lat="59.8098097" lon="17.8409823">
        <ele>27.0543</ele>
        <time>2012-05-19T10:14:25Z</time>
      </trkpt>
      <trkpt lat="59.8095837" lon="17.8411221">
        <ele>25.1317</ele>
        <time>2012-05-19T10:14:28Z</time>
      </trkpt>
      <trkpt lat="59.8093432" lon="17.8412273">
        <ele>24.1703</ele>
        <time>2012-05-19T10:14:31Z</time>
      </trkpt>
      <trkpt lat="59.808981" lon="17.8415344">
        <ele>23.209</ele>
        <time>2012-05-19T10:14:36Z</time>
      </trkpt>
      <trkpt lat="59.8085546" lon="17.8420035">
        <ele>22.7283</ele>
        <time>2012-05-19T10:14:42Z</time>
      </trkpt>
      <trkpt lat="59.8081135" lon="17.8425513">
        <ele>22.2476</ele>
        <time>2012-05-19T10:14:49Z</time>
      </trkpt>
      <trkpt lat="59.8077669" lon="17.8430512">
        <ele>21.767</ele>
        <time>2012-05-19T10:14:55Z</time>
      </trkpt>
      <trkpt lat="59.807443" lon="17.8434941">
        <ele>19.8444</ele>
        <time>2012-05-19T10:15:00Z</time>
      </trkpt>
      <trkpt lat="59.8069899" lon="17.8440934">
        <ele>20.8057</ele>
        <time>2012-05-19T10:15:07Z</time>
      </trkpt>
      <trkpt lat="59.8064895" lon="17.8446687">
        <ele>18.8831</ele>
        <time>2012-05-19T10:15:14Z</time>
      </trkpt>
      <trkpt lat="59.8059736" lon="17.8451639">
        <ele>17.9218</ele>
        <time>2012-05-19T10:15:21Z</time>
      </trkpt>
      <trkpt lat="59.8056099" lon="17.8456033">
        <ele>19.8444</ele>
        <time>2012-05-19T10:15:27Z</time>
      </trkpt>
      <trkpt lat="59.8055597" lon="17.8456886">
        <ele>20.325</ele>
        <time>2012-05-19T10:15:28Z</time>
      </trkpt>
      <trkpt lat="59.8052996" lon="17.8458603">
        <ele>19.3638</ele>
        <time>2012-05-19T10:15:32Z</time>
      </trkpt>
      <trkpt lat="59.8050987" lon="17.8456219">
        <ele>18.4023</ele>
        <time>2012-05-19T10:15:35Z</time>
      </trkpt>
      <trkpt lat="59.8050518" lon="17.8454907">
        <ele>17.9218</ele>
        <time>2012-05-19T10:15:36Z</time>
      </trkpt>
      <trkpt lat="59.8046204" lon="17.8444969">
        <ele>16.4797</ele>
        <time>2012-05-19T10:15:44Z</time>
      </trkpt>
      <trkpt lat="59.804143" lon="17.8437924">
        <ele>15.5184</ele>
        <time>2012-05-19T10:15:51Z</time>
      </trkpt>
      <trkpt lat="59.8034167" lon="17.8429687">
        <ele>12.1538</ele>
        <time>2012-05-19T10:16:01Z</time>
      </trkpt>
      <trkpt lat="59.8031181" lon="17.8424267">
        <ele>12.6344</ele>
        <time>2012-05-19T10:16:06Z</time>
      </trkpt>
      <trkpt lat="59.802635" lon="17.841423">
        <ele>15.0377</ele>
        <time>2012-05-19T10:16:15Z</time>
      </trkpt>
      <trkpt lat="59.8021482" lon="17.840327">
        <ele>15.999</ele>
        <time>2012-05-19T10:16:25Z</time>
      </trkpt>
      <trkpt lat="59.8019688" lon="17.8395737">
        <ele>14.557</ele>
        <time>2012-05-19T10:16:31Z</time>
      </trkpt>
      <trkpt lat="59.8019391" lon="17.839459">
        <ele>13.5958</ele>
        <time>2012-05-19T10:16:32Z</time>
      </trkpt>
      <trkpt lat="59.8017139" lon="17.8387143">
        <ele>8.30859</ele>
        <time>2012-05-19T10:16:39Z</time>
      </trkpt>
      <trkpt lat="59.8014801" lon="17.8381027">
        <ele>7.82788</ele>
        <time>2012-05-19T10:16:46Z</time>
      </trkpt>
      <trkpt lat="59.8012265" lon="17.8374385">
        <ele>11.1925</ele>
        <time>2012-05-19T10:16:54Z</time>
      </trkpt>
      <trkpt lat="59.8010704" lon="17.8369189">
        <ele>16.4797</ele>
        <time>2012-05-19T10:17:01Z</time>
      </trkpt>
      <trkpt lat="59.8010044" lon="17.8367095">
        <ele>15.999</ele>
        <time>2012-05-19T10:17:04Z</time>
      </trkpt>
      <trkpt lat="59.8008617" lon="17.836218">
        <ele>15.0377</ele>
        <time>2012-05-19T10:17:11Z</time>
      </trkpt>
      <trkpt lat="59.8007277" lon="17.8357689">
        <ele>15.5184</ele>
        <time>2012-05-19T10:17:17Z</time>
      </trkpt>
      <trkpt lat="59.8006897" lon="17.8356419">
        <ele>14.557</ele>
        <time>2012-05-19T10:17:19Z</time>
      </trkpt>
      <trkpt lat="59.8005104" lon="17.8351793">
        <ele>13.5958</ele>
        <time>2012-05-19T10:17:27Z</time>
      </trkpt>
      <trkpt lat="59.8002924" lon="17.8349368">
        <ele>16.4797</ele>
        <time>2012-05-19T10:17:34Z</time>
      </trkpt>
      <trkpt lat="59.8001065" lon="17.8349594">
        <ele>15.5184</ele>
        <time>2012-05-19T10:17:39Z</time>
      </trkpt>
      <trkpt lat="59.799902" lon="17.8351525">
        <ele>17.9218</ele>
        <time>2012-05-19T10:17:45Z</time>
      </trkpt>
      <trkpt lat="59.799714" lon="17.835326">
        <ele>21.2864</ele>
        <time>2012-05-19T10:17:50Z</time>
      </trkpt>
      <trkpt lat="59.799415" lon="17.8355995">
        <ele>22.7283</ele>
        <time>2012-05-19T10:17:56Z</time>
      </trkpt>
      <trkpt lat="59.7990251" lon="17.8360148">
        <ele>21.767</ele>
        <time>2012-05-19T10:18:03Z</time>
      </trkpt>
      <trkpt lat="59.7989136" lon="17.836132">
        <ele>20.8057</ele>
        <time>2012-05-19T10:18:05Z</time>
      </trkpt>
      <trkpt lat="59.7987257" lon="17.836062">
        <ele>20.325</ele>
        <time>2012-05-19T10:18:09Z</time>
      </trkpt>
      <trkpt lat="59.798726" lon="17.8358359">
        <ele>19.8444</ele>
        <time>2012-05-19T10:18:11Z</time>
      </trkpt>
      <trkpt lat="59.7987354" lon="17.8355809">
        <ele>18.8831</ele>
        <time>2012-05-19T10:18:13Z</time>
      </trkpt>
      <trkpt lat="59.7986604" lon="17.8347726">
        <ele>15.0377</ele>
        <time>2012-05-19T10:18:19Z</time>
      </trkpt>
      <trkpt lat="59.7985609" lon="17.8339901">
        <ele>13.5958</ele>
        <time>2012-05-19T10:18:25Z</time>
      </trkpt>
      <trkpt lat="59.7985446" lon="17.8332224">
        <ele>13.1151</ele>
        <time>2012-05-19T10:18:31Z</time>
      </trkpt>
      <trkpt lat="59.7985126" lon="17.8324016">
        <ele>11.6732</ele>
        <time>2012-05-19T10:18:37Z</time>
      </trkpt>
      <trkpt lat="59.7984923" lon="17.8313824">
        <ele>7.34717</ele>
        <time>2012-05-19T10:18:44Z</time>
      </trkpt>
      <trkpt lat="59.798499" lon="17.8312259">
        <ele>6.86646</ele>
        <time>2012-05-19T10:18:45Z</time>
      </trkpt>
      <trkpt lat="59.7984641" lon="17.8305835">
        <ele>5.42456</ele>
        <time>2012-05-19T10:18:49Z</time>
      </trkpt>
      <trkpt lat="59.7982402" lon="17.8294689">
        <ele>8.78918</ele>
        <time>2012-05-19T10:18:56Z</time>
      </trkpt>
      <trkpt lat="59.7980447" lon="17.8284919">
        <ele>10.7118</ele>
        <time>2012-05-19T10:19:03Z</time>
      </trkpt>
      <trkpt lat="59.7978864" lon="17.8274197">
        <ele>13.5958</ele>
        <time>2012-05-19T10:19:11Z</time>
      </trkpt>
      <trkpt lat="59.7978059" lon="17.8264006">
        <ele>10.7118</ele>
        <time>2012-05-19T10:19:19Z</time>
      </trkpt>
      <trkpt lat="59.7977382" lon="17.8256139">
        <ele>10.2312</ele>
        <time>2012-05-19T10:19:26Z</time>
      </trkpt>
      <trkpt lat="59.7976419" lon="17.8249035">
        <ele>11.1925</ele>
        <time>2012-05-19T10:19:33Z</time>
      </trkpt>
      <trkpt lat="59.7975334" lon="17.8240184">
        <ele>13.1151</ele>
        <time>2012-05-19T10:19:42Z</time>
      </trkpt>
      <trkpt lat="59.7974544" lon="17.8232921">
        <ele>13.5958</ele>
        <time>2012-05-19T10:19:50Z</time>
      </trkpt>
      <trkpt lat="59.7974135" lon="17.8224232">
        <ele>13.1151</ele>
        <time>2012-05-19T10:19:59Z</time>
      </trkpt>
      <trkpt lat="59.797416" lon="17.8215361">
        <ele>11.6732</ele>
        <time>2012-05-19T10:20:08Z</time>
      </trkpt>
      <trkpt lat="59.7974563" lon="17.8205452">
        <ele>10.7118</ele>
        <time>2012-05-19T10:20:18Z</time>
      </trkpt>
      <trkpt lat="59.7975099" lon="17.8194794">
        <ele>11.1925</ele>
        <time>2012-05-19T10:20:29Z</time>
      </trkpt>
      <trkpt lat="59.7975606" lon="17.8186351">
        <ele>13.5958</ele>
        <time>2012-05-19T10:20:39Z</time>
      </trkpt>
      <trkpt lat="59.7976731" lon="17.8179344">
        <ele>15.5184</ele>
        <time>2012-05-19T10:20:48Z</time>
      </trkpt>
      <trkpt lat="59.797818" lon="17.8173864">
        <ele>17.4412</ele>
        <time>2012-05-19T10:20:56Z</time>
      </trkpt>
      <trkpt lat="59.7979505" lon="17.8169951">
        <ele>20.8057</ele>
        <time>2012-05-19T10:21:03Z</time>
      </trkpt>
      <trkpt lat="59.7981143" lon="17.8166122">
        <ele>22.2476</ele>
        <time>2012-05-19T10:21:09Z</time>
      </trkpt>
      <trkpt lat="59.7981802" lon="17.8164785">
        <ele>22.2476</ele>
        <time>2012-05-19T10:21:11Z</time>
      </trkpt>
      <trkpt lat="59.7984915" lon="17.8160295">
        <ele>23.6896</ele>
        <time>2012-05-19T10:21:18Z</time>
      </trkpt>
      <trkpt lat="59.7987194" lon="17.8158578">
        <ele>23.209</ele>
        <time>2012-05-19T10:21:22Z</time>
      </trkpt>
      <trkpt lat="59.7991586" lon="17.8157222">
        <ele>22.7283</ele>
        <time>2012-05-19T10:21:30Z</time>
      </trkpt>
      <trkpt lat="59.79943" lon="17.8154898">
        <ele>24.1703</ele>
        <time>2012-05-19T10:21:35Z</time>
      </trkpt>
      <trkpt lat="59.7996667" lon="17.8150604">
        <ele>23.6896</ele>
        <time>2012-05-19T10:21:40Z</time>
      </trkpt>
      <trkpt lat="59.7999385" lon="17.814347">
        <ele>22.2476</ele>
        <time>2012-05-19T10:21:46Z</time>
      </trkpt>
      <trkpt lat="59.8003008" lon="17.8133602">
        <ele>18.8831</ele>
        <time>2012-05-19T10:21:53Z</time>
      </trkpt>
      <trkpt lat="59.8004889" lon="17.8127734">
        <ele>16.9604</ele>
        <time>2012-05-19T10:21:57Z</time>
      </trkpt>
      <trkpt lat="59.8005698" lon="17.8121363">
        <ele>15.5184</ele>
        <time>2012-05-19T10:22:01Z</time>
      </trkpt>
      <trkpt lat="59.8006014" lon="17.8114687">
        <ele>14.557</ele>
        <time>2012-05-19T10:22:05Z</time>
      </trkpt>
      <trkpt lat="59.8007458" lon="17.8108828">
        <ele>15.0377</ele>
        <time>2012-05-19T10:22:09Z</time>
      </trkpt>
      <trkpt lat="59.8008748" lon="17.8107029">
        <ele>15.5184</ele>
        <time>2012-05-19T10:22:11Z</time>
      </trkpt>
      <trkpt lat="59.8011251" lon="17.8101606">
        <ele>15.999</ele>
        <time>2012-05-19T10:22:16Z</time>
      </trkpt>
      <trkpt lat="59.8011478" lon="17.8098737">
        <ele>16.4797</ele>
        <time>2012-05-19T10:22:18Z</time>
      </trkpt>
      <trkpt lat="59.8011938" lon="17.8093437">
        <ele>16.4797</ele>
        <time>2012-05-19T10:22:22Z</time>
      </trkpt>
      <trkpt lat="59.8012701" lon="17.8089917">
        <ele>16.4797</ele>
        <time>2012-05-19T10:22:25Z</time>
      </trkpt>
      <trkpt lat="59.8014848" lon="17.8084215">
        <ele>17.4412</ele>
        <time>2012-05-19T10:22:31Z</time>
      </trkpt>
      <trkpt lat="59.8015237" lon="17.8083273">
        <ele>17.4412</ele>
        <time>2012-05-19T10:22:34Z</time>
      </trkpt>
      <trkpt lat="59.8015279" lon="17.8083149">
        <ele>17.4412</ele>
        <time>2012-05-19T10:22:35Z</time>
      </trkpt>
      <trkpt lat="59.8015475" lon="17.8081964">
        <ele>15.999</ele>
        <time>2012-05-19T10:22:40Z</time>
      </trkpt>
      <trkpt lat="59.8016358" lon="17.8078636">
        <ele>15.5184</ele>
        <time>2012-05-19T10:22:44Z</time>
      </trkpt>
      <trkpt lat="59.8016575" lon="17.8074429">
        <ele>15.0377</ele>
        <time>2012-05-19T10:22:47Z</time>
      </trkpt>
      <trkpt lat="59.8015978" lon="17.8068138">
        <ele>10.7118</ele>
        <time>2012-05-19T10:22:51Z</time>
      </trkpt>
      <trkpt lat="59.8013255" lon="17.8054919">
        <ele>3.98267</ele>
        <time>2012-05-19T10:22:59Z</time>
      </trkpt>
      <trkpt lat="59.8009679" lon="17.8038642">
        <ele>6.86646</ele>
        <time>2012-05-19T10:23:09Z</time>
      </trkpt>
      <trkpt lat="59.8006855" lon="17.8025348">
        <ele>5.90527</ele>
        <time>2012-05-19T10:23:18Z</time>
      </trkpt>
      <trkpt lat="59.8004315" lon="17.8013423">
        <ele>2.54065</ele>
        <time>2012-05-19T10:23:27Z</time>
      </trkpt>
      <trkpt lat="59.8003235" lon="17.8008344">
        <ele>2.06006</ele>
        <time>2012-05-19T10:23:31Z</time>
      </trkpt>
      <trkpt lat="59.8002088" lon="17.7998766">
        <ele>1.09863</ele>
        <time>2012-05-19T10:23:38Z</time>
      </trkpt>
      <trkpt lat="59.8001406" lon="17.798785">
        <ele>3.02124</ele>
        <time>2012-05-19T10:23:46Z</time>
      </trkpt>
      <trkpt lat="59.8000744" lon="17.7977096">
        <ele>2.54065</ele>
        <time>2012-05-19T10:23:54Z</time>
      </trkpt>
      <trkpt lat="59.7999034" lon="17.796948">
        <ele>3.50195</ele>
        <time>2012-05-19T10:24:00Z</time>
      </trkpt>
      <trkpt lat="59.7996019" lon="17.7962545">
        <ele>4.94385</ele>
        <time>2012-05-19T10:24:07Z</time>
      </trkpt>
      <trkpt lat="59.7992434" lon="17.7957366">
        <ele>4.46326</ele>
        <time>2012-05-19T10:24:14Z</time>
      </trkpt>
      <trkpt lat="59.7987961" lon="17.7950941">
        <ele>4.94385</ele>
        <time>2012-05-19T10:24:23Z</time>
      </trkpt>
      <trkpt lat="59.7984629" lon="17.7946178">
        <ele>4.46326</ele>
        <time>2012-05-19T10:24:30Z</time>
      </trkpt>
      <trkpt lat="59.7979587" lon="17.7938665">
        <ele>3.50195</ele>
        <time>2012-05-19T10:24:41Z</time>
      </trkpt>
      <trkpt lat="59.7976129" lon="17.793366">
        <ele>4.46326</ele>
        <time>2012-05-19T10:24:48Z</time>
      </trkpt>
      <trkpt lat="59.7970969" lon="17.7926099">
        <ele>3.02124</ele>
        <time>2012-05-19T10:24:58Z</time>
      </trkpt>
      <trkpt lat="59.7965779" lon="17.7918525">
        <ele>1.09863</ele>
        <time>2012-05-19T10:25:08Z</time>
      </trkpt>
      <trkpt lat="59.7961628" lon="17.7912563">
        <ele>0</ele>
        <time>2012-05-19T10:25:16Z</time>
      </trkpt>
      <trkpt lat="59.7957046" lon="17.790607">
        <ele>0</ele>
        <time>2012-05-19T10:25:25Z</time>
      </trkpt>
      <trkpt lat="59.7952853" lon="17.7899826">
        <ele>0</ele>
        <time>2012-05-19T10:25:34Z</time>
      </trkpt>
      <trkpt lat="59.794754" lon="17.7892081">
        <ele>3.50195</ele>
        <time>2012-05-19T10:25:46Z</time>
      </trkpt>
      <trkpt lat="59.7946471" lon="17.7890486">
        <ele>4.94385</ele>
        <time>2012-05-19T10:25:49Z</time>
      </trkpt>
      <trkpt lat="59.794581" lon="17.7887937">
        <ele>5.90527</ele>
        <time>2012-05-19T10:25:53Z</time>
      </trkpt>
      <trkpt lat="59.7946168" lon="17.7886288">
        <ele>5.90527</ele>
        <time>2012-05-19T10:25:55Z</time>
      </trkpt>
      <trkpt lat="59.7948468" lon="17.7879923">
        <ele>4.46326</ele>
        <time>2012-05-19T10:26:02Z</time>
      </trkpt>
      <trkpt lat="59.7952554" lon="17.7871825">
        <ele>5.42456</ele>
        <time>2012-05-19T10:26:11Z</time>
      </trkpt>
      <trkpt lat="59.7957852" lon="17.7862138">
        <ele>5.42456</ele>
        <time>2012-05-19T10:26:22Z</time>
      </trkpt>
      <trkpt lat="59.7960397" lon="17.7856223">
        <ele>6.38586</ele>
        <time>2012-05-19T10:26:28Z</time>
      </trkpt>
      <trkpt lat="59.7963034" lon="17.7845511">
        <ele>7.82788</ele>
        <time>2012-05-19T10:26:37Z</time>
      </trkpt>
      <trkpt lat="59.7965853" lon="17.7835966">
        <ele>9.75061</ele>
        <time>2012-05-19T10:26:45Z</time>
      </trkpt>
      <trkpt lat="59.7969151" lon="17.7827561">
        <ele>11.1925</ele>
        <time>2012-05-19T10:26:53Z</time>
      </trkpt>
      <trkpt lat="59.7973679" lon="17.7815158">
        <ele>12.6344</ele>
        <time>2012-05-19T10:27:04Z</time>
      </trkpt>
      <trkpt lat="59.7976429" lon="17.780722">
        <ele>13.5958</ele>
        <time>2012-05-19T10:27:11Z</time>
      </trkpt>
      <trkpt lat="59.7980129" lon="17.7796224">
        <ele>10.7118</ele>
        <time>2012-05-19T10:27:21Z</time>
      </trkpt>
      <trkpt lat="59.7983534" lon="17.7789493">
        <ele>11.6732</ele>
        <time>2012-05-19T10:27:28Z</time>
      </trkpt>
      <trkpt lat="59.7987608" lon="17.7783599">
        <ele>10.7118</ele>
        <time>2012-05-19T10:27:35Z</time>
      </trkpt>
      <trkpt lat="59.7992807" lon="17.777627">
        <ele>10.7118</ele>
        <time>2012-05-19T10:27:44Z</time>
      </trkpt>
      <trkpt lat="59.7997014" lon="17.7768899">
        <ele>8.78918</ele>
        <time>2012-05-19T10:27:51Z</time>
      </trkpt>
      <trkpt lat="59.8001015" lon="17.7761455">
        <ele>7.82788</ele>
        <time>2012-05-19T10:27:58Z</time>
      </trkpt>
      <trkpt lat="59.8005748" lon="17.7753193">
        <ele>7.34717</ele>
        <time>2012-05-19T10:28:06Z</time>
      </trkpt>
      <trkpt lat="59.8011188" lon="17.7742353">
        <ele>6.86646</ele>
        <time>2012-05-19T10:28:16Z</time>
      </trkpt>
      <trkpt lat="59.8017777" lon="17.7728808">
        <ele>4.46326</ele>
        <time>2012-05-19T10:28:28Z</time>
      </trkpt>
      <trkpt lat="59.8024212" lon="17.7715467">
        <ele>1.57935</ele>
        <time>2012-05-19T10:28:40Z</time>
      </trkpt>
      <trkpt lat="59.8030511" lon="17.7702716">
        <ele>3.02124</ele>
        <time>2012-05-19T10:28:52Z</time>
      </trkpt>
      <trkpt lat="59.803303" lon="17.7697518">
        <ele>3.02124</ele>
        <time>2012-05-19T10:28:57Z</time>
      </trkpt>
      <trkpt lat="59.8035343" lon="17.7697352">
        <ele>3.98267</ele>
        <time>2012-05-19T10:29:01Z</time>
      </trkpt>
      <trkpt lat="59.8035845" lon="17.7698318">
        <ele>4.46326</ele>
        <time>2012-05-19T10:29:02Z</time>
      </trkpt>
      <trkpt lat="59.80416" lon="17.7707932">
        <ele>9.75061</ele>
        <time>2012-05-19T10:29:12Z</time>
      </trkpt>
      <trkpt lat="59.8046366" lon="17.7715589">
        <ele>10.7118</ele>
        <time>2012-05-19T10:29:20Z</time>
      </trkpt>
      <trkpt lat="59.8050976" lon="17.7721568">
        <ele>11.1925</ele>
        <time>2012-05-19T10:29:27Z</time>
      </trkpt>
      <trkpt lat="59.8055322" lon="17.7725474">
        <ele>12.1538</ele>
        <time>2012-05-19T10:29:33Z</time>
      </trkpt>
      <trkpt lat="59.8060668" lon="17.7728675">
        <ele>13.1151</ele>
        <time>2012-05-19T10:29:40Z</time>
      </trkpt>
      <trkpt lat="59.8067464" lon="17.7732234">
        <ele>13.1151</ele>
        <time>2012-05-19T10:29:49Z</time>
      </trkpt>
      <trkpt lat="59.8073291" lon="17.7735301">
        <ele>11.6732</ele>
        <time>2012-05-19T10:29:57Z</time>
      </trkpt>
      <trkpt lat="59.808057" lon="17.7739178">
        <ele>9.2699</ele>
        <time>2012-05-19T10:30:07Z</time>
      </trkpt>
      <trkpt lat="59.8087403" lon="17.7743019">
        <ele>11.1925</ele>
        <time>2012-05-19T10:30:17Z</time>
      </trkpt>
      <trkpt lat="59.8092578" lon="17.7745946">
        <ele>13.1151</ele>
        <time>2012-05-19T10:30:25Z</time>
      </trkpt>
      <trkpt lat="59.8097605" lon="17.7749507">
        <ele>15.0377</ele>
        <time>2012-05-19T10:30:33Z</time>
      </trkpt>
      <trkpt lat="59.810229" lon="17.7753732">
        <ele>15.999</ele>
        <time>2012-05-19T10:30:41Z</time>
      </trkpt>
      <trkpt lat="59.8106517" lon="17.7759389">
        <ele>16.9604</ele>
        <time>2012-05-19T10:30:49Z</time>
      </trkpt>
      <trkpt lat="59.8109827" lon="17.7762952">
        <ele>16.9604</ele>
        <time>2012-05-19T10:30:55Z</time>
      </trkpt>
      <trkpt lat="59.8112231" lon="17.7763132">
        <ele>15.999</ele>
        <time>2012-05-19T10:30:59Z</time>
      </trkpt>
      <trkpt lat="59.8113406" lon="17.7762286">
        <ele>15.999</ele>
        <time>2012-05-19T10:31:01Z</time>
      </trkpt>
      <trkpt lat="59.811709" lon="17.7759129">
        <ele>13.1151</ele>
        <time>2012-05-19T10:31:08Z</time>
      </trkpt>
      <trkpt lat="59.8118188" lon="17.775814">
        <ele>12.6344</ele>
        <time>2012-05-19T10:31:10Z</time>
      </trkpt>
      <trkpt lat="59.8120643" lon="17.7753736">
        <ele>14.0764</ele>
        <time>2012-05-19T10:31:15Z</time>
      </trkpt>
      <trkpt lat="59.8121359" lon="17.775128">
        <ele>14.0764</ele>
        <time>2012-05-19T10:31:17Z</time>
      </trkpt>
      <trkpt lat="59.8125036" lon="17.7746974">
        <ele>11.1925</ele>
        <time>2012-05-19T10:31:23Z</time>
      </trkpt>
      <trkpt lat="59.8131193" lon="17.7741542">
        <ele>8.78918</ele>
        <time>2012-05-19T10:31:32Z</time>
      </trkpt>
      <trkpt lat="59.8135882" lon="17.7737942">
        <ele>9.75061</ele>
        <time>2012-05-19T10:31:39Z</time>
      </trkpt>
      <trkpt lat="59.8138712" lon="17.7738087">
        <ele>10.7118</ele>
        <time>2012-05-19T10:31:43Z</time>
      </trkpt>
      <trkpt lat="59.8139349" lon="17.7738543">
        <ele>10.7118</ele>
        <time>2012-05-19T10:31:44Z</time>
      </trkpt>
      <trkpt lat="59.8145109" lon="17.7742776">
        <ele>11.1925</ele>
        <time>2012-05-19T10:31:53Z</time>
      </trkpt>
      <trkpt lat="59.8151315" lon="17.774701">
        <ele>12.6344</ele>
        <time>2012-05-19T10:32:03Z</time>
      </trkpt>
      <trkpt lat="59.815678" lon="17.7750653">
        <ele>15.0377</ele>
        <time>2012-05-19T10:32:13Z</time>
      </trkpt>
      <trkpt lat="59.8160878" lon="17.7753555">
        <ele>15.5184</ele>
        <time>2012-05-19T10:32:21Z</time>
      </trkpt>
      <trkpt lat="59.8164912" lon="17.775689">
        <ele>16.9604</ele>
        <time>2012-05-19T10:32:30Z</time>
      </trkpt>
      <trkpt lat="59.8166338" lon="17.7758419">
        <ele>17.9218</ele>
        <time>2012-05-19T10:32:34Z</time>
      </trkpt>
      <trkpt lat="59.8166939" lon="17.77593">
        <ele>18.4023</ele>
        <time>2012-05-19T10:32:36Z</time>
      </trkpt>
      <trkpt lat="59.8168507" lon="17.7763256">
        <ele>18.8831</ele>
        <time>2012-05-19T10:32:42Z</time>
      </trkpt>
      <trkpt lat="59.8170087" lon="17.7769594">
        <ele>19.8444</ele>
        <time>2012-05-19T10:32:48Z</time>
      </trkpt>
      <trkpt lat="59.817063" lon="17.7773755">
        <ele>19.3638</ele>
        <time>2012-05-19T10:32:51Z</time>
      </trkpt>
      <trkpt lat="59.817218" lon="17.7778853">
        <ele>19.3638</ele>
        <time>2012-05-19T10:32:55Z</time>
      </trkpt>
      <trkpt lat="59.8174423" lon="17.7779909">
        <ele>16.4797</ele>
        <time>2012-05-19T10:32:58Z</time>
      </trkpt>
      <trkpt lat="59.8175173" lon="17.778">
        <ele>16.4797</ele>
        <time>2012-05-19T10:32:59Z</time>
      </trkpt>
      <trkpt lat="59.8179827" lon="17.7779897">
        <ele>19.8444</ele>
        <time>2012-05-19T10:33:06Z</time>
      </trkpt>
      <trkpt lat="59.8182831" lon="17.7779481">
        <ele>22.7283</ele>
        <time>2012-05-19T10:33:12Z</time>
      </trkpt>
      <trkpt lat="59.8184171" lon="17.7779588">
        <ele>22.2476</ele>
        <time>2012-05-19T10:33:15Z</time>
      </trkpt>
      <trkpt lat="59.8185809" lon="17.7781104">
        <ele>21.767</ele>
        <time>2012-05-19T10:33:19Z</time>
      </trkpt>
      <trkpt lat="59.8188408" lon="17.7786226">
        <ele>20.8057</ele>
        <time>2012-05-19T10:33:27Z</time>
      </trkpt>
      <trkpt lat="59.8190031" lon="17.7789281">
        <ele>22.7283</ele>
        <time>2012-05-19T10:33:32Z</time>
      </trkpt>
      <trkpt lat="59.8190875" lon="17.7791865">
        <ele>25.1317</ele>
        <time>2012-05-19T10:33:36Z</time>
      </trkpt>
      <trkpt lat="59.819186" lon="17.7797202">
        <ele>30.8995</ele>
        <time>2012-05-19T10:33:42Z</time>
      </trkpt>
      <trkpt lat="59.8193323" lon="17.7803691">
        <ele>33.7834</ele>
        <time>2012-05-19T10:33:48Z</time>
      </trkpt>
      <trkpt lat="59.8194325" lon="17.7808691">
        <ele>34.7449</ele>
        <time>2012-05-19T10:33:52Z</time>
      </trkpt>
      <trkpt lat="59.8194579" lon="17.7817668">
        <ele>24.1703</ele>
        <time>2012-05-19T10:33:58Z</time>
      </trkpt>
      <trkpt lat="59.8194743" lon="17.7820527">
        <ele>23.6896</ele>
        <time>2012-05-19T10:34:00Z</time>
      </trkpt>
      <trkpt lat="59.8196001" lon="17.7825295">
        <ele>19.3638</ele>
        <time>2012-05-19T10:34:04Z</time>
      </trkpt>
      <trkpt lat="59.8196813" lon="17.7825494">
        <ele>19.3638</ele>
        <time>2012-05-19T10:34:05Z</time>
      </trkpt>
      <trkpt lat="59.8200737" lon="17.7829157">
        <ele>23.6896</ele>
        <time>2012-05-19T10:34:10Z</time>
      </trkpt>
      <trkpt lat="59.8201547" lon="17.7830364">
        <ele>22.2476</ele>
        <time>2012-05-19T10:34:11Z</time>
      </trkpt>
      <trkpt lat="59.8205326" lon="17.7831879">
        <ele>20.325</ele>
        <time>2012-05-19T10:34:15Z</time>
      </trkpt>
      <trkpt lat="59.8212418" lon="17.7831059">
        <ele>21.2864</ele>
        <time>2012-05-19T10:34:22Z</time>
      </trkpt>
      <trkpt lat="59.8218497" lon="17.7828051">
        <ele>22.2476</ele>
        <time>2012-05-19T10:34:29Z</time>
      </trkpt>
      <trkpt lat="59.822549" lon="17.7824018">
        <ele>18.4023</ele>
        <time>2012-05-19T10:34:37Z</time>
      </trkpt>
      <trkpt lat="59.8229634" lon="17.7819767">
        <ele>17.9218</ele>
        <time>2012-05-19T10:34:42Z</time>
      </trkpt>
      <trkpt lat="59.8233767" lon="17.7814089">
        <ele>15.5184</ele>
        <time>2012-05-19T10:34:48Z</time>
      </trkpt>
      <trkpt lat="59.8238817" lon="17.7806584">
        <ele>10.7118</ele>
        <time>2012-05-19T10:34:56Z</time>
      </trkpt>
      <trkpt lat="59.8243054" lon="17.7799772">
        <ele>8.78918</ele>
        <time>2012-05-19T10:35:03Z</time>
      </trkpt>
      <trkpt lat="59.8246541" lon="17.779195">
        <ele>5.90527</ele>
        <time>2012-05-19T10:35:10Z</time>
      </trkpt>
      <trkpt lat="59.8248999" lon="17.7788672">
        <ele>4.94385</ele>
        <time>2012-05-19T10:35:14Z</time>
      </trkpt>
      <trkpt lat="59.8254009" lon="17.7785687">
        <ele>6.86646</ele>
        <time>2012-05-19T10:35:21Z</time>
      </trkpt>
      <trkpt lat="59.8261542" lon="17.7781616">
        <ele>8.78918</ele>
        <time>2012-05-19T10:35:31Z</time>
      </trkpt>
      <trkpt lat="59.8268183" lon="17.7777962">
        <ele>10.2312</ele>
        <time>2012-05-19T10:35:40Z</time>
      </trkpt>
      <trkpt lat="59.8268836" lon="17.7777596">
        <ele>10.7118</ele>
        <time>2012-05-19T10:35:41Z</time>
      </trkpt>
      <trkpt lat="59.8270346" lon="17.7773971">
        <ele>12.6344</ele>
        <time>2012-05-19T10:35:45Z</time>
      </trkpt>
      <trkpt lat="59.8270232" lon="17.777141">
        <ele>10.7118</ele>
        <time>2012-05-19T10:35:47Z</time>
      </trkpt>
      <trkpt lat="59.8270131" lon="17.7764037">
        <ele>7.82788</ele>
        <time>2012-05-19T10:35:53Z</time>
      </trkpt>
      <trkpt lat="59.8270743" lon="17.7752891">
        <ele>5.42456</ele>
        <time>2012-05-19T10:36:02Z</time>
      </trkpt>
      <trkpt lat="59.8270294" lon="17.7742304">
        <ele>5.42456</ele>
        <time>2012-05-19T10:36:10Z</time>
      </trkpt>
      <trkpt lat="59.8269637" lon="17.7729277">
        <ele>5.42456</ele>
        <time>2012-05-19T10:36:20Z</time>
      </trkpt>
      <trkpt lat="59.8269245" lon="17.7716072">
        <ele>6.38586</ele>
        <time>2012-05-19T10:36:30Z</time>
      </trkpt>
      <trkpt lat="59.8268592" lon="17.770582">
        <ele>6.86646</ele>
        <time>2012-05-19T10:36:38Z</time>
      </trkpt>
      <trkpt lat="59.8268333" lon="17.7694154">
        <ele>6.86646</ele>
        <time>2012-05-19T10:36:47Z</time>
      </trkpt>
      <trkpt lat="59.8268395" lon="17.7692879">
        <ele>6.86646</ele>
        <time>2012-05-19T10:36:48Z</time>
      </trkpt>
      <trkpt lat="59.8269839" lon="17.7683241">
        <ele>6.38586</ele>
        <time>2012-05-19T10:36:56Z</time>
      </trkpt>
      <trkpt lat="59.8272455" lon="17.7673858">
        <ele>6.38586</ele>
        <time>2012-05-19T10:37:05Z</time>
      </trkpt>
      <trkpt lat="59.8276006" lon="17.7662047">
        <ele>8.30859</ele>
        <time>2012-05-19T10:37:17Z</time>
      </trkpt>
      <trkpt lat="59.8278648" lon="17.7653249">
        <ele>10.2312</ele>
        <time>2012-05-19T10:37:27Z</time>
      </trkpt>
      <trkpt lat="59.8280315" lon="17.7647311">
        <ele>13.5958</ele>
        <time>2012-05-19T10:37:35Z</time>
      </trkpt>
      <trkpt lat="59.8281442" lon="17.7641958">
        <ele>15.999</ele>
        <time>2012-05-19T10:37:43Z</time>
      </trkpt>
      <trkpt lat="59.8282448" lon="17.7636339">
        <ele>17.4412</ele>
        <time>2012-05-19T10:37:51Z</time>
      </trkpt>
      <trkpt lat="59.8283369" lon="17.7630652">
        <ele>18.4023</ele>
        <time>2012-05-19T10:37:58Z</time>
      </trkpt>
      <trkpt lat="59.8284702" lon="17.7624047">
        <ele>20.8057</ele>
        <time>2012-05-19T10:38:06Z</time>
      </trkpt>
      <trkpt lat="59.8286536" lon="17.7618126">
        <ele>23.6896</ele>
        <time>2012-05-19T10:38:13Z</time>
      </trkpt>
      <trkpt lat="59.8288379" lon="17.7612468">
        <ele>23.6896</ele>
        <time>2012-05-19T10:38:19Z</time>
      </trkpt>
      <trkpt lat="59.8289945" lon="17.7605088">
        <ele>23.209</ele>
        <time>2012-05-19T10:38:25Z</time>
      </trkpt>
      <trkpt lat="59.8290461" lon="17.7599048">
        <ele>22.2476</ele>
        <time>2012-05-19T10:38:30Z</time>
      </trkpt>
      <trkpt lat="59.8290493" lon="17.7590402">
        <ele>20.325</ele>
        <time>2012-05-19T10:38:38Z</time>
      </trkpt>
      <trkpt lat="59.8290613" lon="17.7583659">
        <ele>17.9218</ele>
        <time>2012-05-19T10:38:44Z</time>
      </trkpt>
      <trkpt lat="59.8291063" lon="17.7571913">
        <ele>15.5184</ele>
        <time>2012-05-19T10:38:53Z</time>
      </trkpt>
      <trkpt lat="59.8292044" lon="17.7561918">
        <ele>12.6344</ele>
        <time>2012-05-19T10:39:00Z</time>
      </trkpt>
      <trkpt lat="59.8293535" lon="17.7551003">
        <ele>11.1925</ele>
        <time>2012-05-19T10:39:08Z</time>
      </trkpt>
      <trkpt lat="59.8295653" lon="17.7541337">
        <ele>12.1538</ele>
        <time>2012-05-19T10:39:16Z</time>
      </trkpt>
      <trkpt lat="59.8296257" lon="17.7539221">
        <ele>12.6344</ele>
        <time>2012-05-19T10:39:18Z</time>
      </trkpt>
      <trkpt lat="59.8299004" lon="17.7533296">
        <ele>13.5958</ele>
        <time>2012-05-19T10:39:25Z</time>
      </trkpt>
      <trkpt lat="59.8301909" lon="17.7527434">
        <ele>15.5184</ele>
        <time>2012-05-19T10:39:33Z</time>
      </trkpt>
      <trkpt lat="59.8303408" lon="17.7522484">
        <ele>16.4797</ele>
        <time>2012-05-19T10:39:39Z</time>
      </trkpt>
      <trkpt lat="59.8304646" lon="17.751565">
        <ele>19.3638</ele>
        <time>2012-05-19T10:39:45Z</time>
      </trkpt>
      <trkpt lat="59.8306465" lon="17.7508686">
        <ele>20.8057</ele>
        <time>2012-05-19T10:39:52Z</time>
      </trkpt>
      <trkpt lat="59.8308316" lon="17.7501874">
        <ele>21.2864</ele>
        <time>2012-05-19T10:39:58Z</time>
      </trkpt>
      <trkpt lat="59.8310689" lon="17.7493044">
        <ele>20.8057</ele>
        <time>2012-05-19T10:40:05Z</time>
      </trkpt>
      <trkpt lat="59.8312328" lon="17.7486608">
        <ele>19.8444</ele>
        <time>2012-05-19T10:40:11Z</time>
      </trkpt>
      <trkpt lat="59.8313596" lon="17.7479579">
        <ele>19.8444</ele>
        <time>2012-05-19T10:40:17Z</time>
      </trkpt>
      <trkpt lat="59.8314653" lon="17.7468353">
        <ele>16.4797</ele>
        <time>2012-05-19T10:40:25Z</time>
      </trkpt>
      <trkpt lat="59.8315331" lon="17.7462018">
        <ele>16.4797</ele>
        <time>2012-05-19T10:40:30Z</time>
      </trkpt>
      <trkpt lat="59.8315825" lon="17.7459081">
        <ele>16.4797</ele>
        <time>2012-05-19T10:40:33Z</time>
      </trkpt>
      <trkpt lat="59.8317342" lon="17.7455668">
        <ele>18.8831</ele>
        <time>2012-05-19T10:40:38Z</time>
      </trkpt>
      <trkpt lat="59.8319289" lon="17.7453105">
        <ele>19.8444</ele>
        <time>2012-05-19T10:40:43Z</time>
      </trkpt>
      <trkpt lat="59.8320994" lon="17.7451617">
        <ele>24.1703</ele>
        <time>2012-05-19T10:40:47Z</time>
      </trkpt>
      <trkpt lat="59.8321878" lon="17.7451155">
        <ele>25.6123</ele>
        <time>2012-05-19T10:40:49Z</time>
      </trkpt>
      <trkpt lat="59.8322782" lon="17.7450363">
        <ele>28.0155</ele>
        <time>2012-05-19T10:40:51Z</time>
      </trkpt>
      <trkpt lat="59.8324036" lon="17.7446894">
        <ele>25.1317</ele>
        <time>2012-05-19T10:40:55Z</time>
      </trkpt>
      <trkpt lat="59.8324087" lon="17.7445638">
        <ele>24.1703</ele>
        <time>2012-05-19T10:40:56Z</time>
      </trkpt>
      <trkpt lat="59.8324899" lon="17.7438308">
        <ele>21.767</ele>
        <time>2012-05-19T10:41:01Z</time>
      </trkpt>
      <trkpt lat="59.8326712" lon="17.7435874">
        <ele>21.767</ele>
        <time>2012-05-19T10:41:04Z</time>
      </trkpt>
      <trkpt lat="59.8328113" lon="17.7436578">
        <ele>20.8057</ele>
        <time>2012-05-19T10:41:06Z</time>
      </trkpt>
      <trkpt lat="59.8328748" lon="17.7437237">
        <ele>20.8057</ele>
        <time>2012-05-19T10:41:07Z</time>
      </trkpt>
      <trkpt lat="59.8333198" lon="17.7441115">
        <ele>22.2476</ele>
        <time>2012-05-19T10:41:14Z</time>
      </trkpt>
      <trkpt lat="59.8337737" lon="17.7443138">
        <ele>24.651</ele>
        <time>2012-05-19T10:41:20Z</time>
      </trkpt>
      <trkpt lat="59.8342462" lon="17.744508">
        <ele>25.1317</ele>
        <time>2012-05-19T10:41:26Z</time>
      </trkpt>
      <trkpt lat="59.8348205" lon="17.744692">
        <ele>25.1317</ele>
        <time>2012-05-19T10:41:34Z</time>
      </trkpt>
      <trkpt lat="59.8352617" lon="17.7446083">
        <ele>25.6123</ele>
        <time>2012-05-19T10:41:40Z</time>
      </trkpt>
      <trkpt lat="59.8356938" lon="17.7443261">
        <ele>26.5736</ele>
        <time>2012-05-19T10:41:46Z</time>
      </trkpt>
      <trkpt lat="59.8362902" lon="17.7438608">
        <ele>27.5349</ele>
        <time>2012-05-19T10:41:55Z</time>
      </trkpt>
      <trkpt lat="59.8366025" lon="17.7435916">
        <ele>27.5349</ele>
        <time>2012-05-19T10:42:00Z</time>
      </trkpt>
      <trkpt lat="59.8372151" lon="17.7431276">
        <ele>27.5349</ele>
        <time>2012-05-19T10:42:10Z</time>
      </trkpt>
      <trkpt lat="59.8377351" lon="17.7428605">
        <ele>27.0543</ele>
        <time>2012-05-19T10:42:18Z</time>
      </trkpt>
      <trkpt lat="59.8383719" lon="17.7425635">
        <ele>27.5349</ele>
        <time>2012-05-19T10:42:27Z</time>
      </trkpt>
      <trkpt lat="59.8391814" lon="17.7422078">
        <ele>26.5736</ele>
        <time>2012-05-19T10:42:38Z</time>
      </trkpt>
      <trkpt lat="59.8397862" lon="17.7420785">
        <ele>25.6123</ele>
        <time>2012-05-19T10:42:46Z</time>
      </trkpt>
      <trkpt lat="59.8405368" lon="17.7419376">
        <ele>25.6123</ele>
        <time>2012-05-19T10:42:56Z</time>
      </trkpt>
      <trkpt lat="59.8413128" lon="17.7418003">
        <ele>25.6123</ele>
        <time>2012-05-19T10:43:07Z</time>
      </trkpt>
      <trkpt lat="59.8420802" lon="17.7416217">
        <ele>27.0543</ele>
        <time>2012-05-19T10:43:18Z</time>
      </trkpt>
      <trkpt lat="59.8424664" lon="17.7414698">
        <ele>25.6123</ele>
        <time>2012-05-19T10:43:24Z</time>
      </trkpt>
      <trkpt lat="59.842965" lon="17.7412394">
        <ele>26.5736</ele>
        <time>2012-05-19T10:43:32Z</time>
      </trkpt>
      <trkpt lat="59.8433866" lon="17.7409648">
        <ele>27.0543</ele>
        <time>2012-05-19T10:43:39Z</time>
      </trkpt>
      <trkpt lat="59.8439241" lon="17.740666">
        <ele>26.0929</ele>
        <time>2012-05-19T10:43:48Z</time>
      </trkpt>
      <trkpt lat="59.8440301" lon="17.7406503">
        <ele>25.6123</ele>
        <time>2012-05-19T10:43:50Z</time>
      </trkpt>
      <trkpt lat="59.8440761" lon="17.7406522">
        <ele>25.6123</ele>
        <time>2012-05-19T10:43:51Z</time>
      </trkpt>
      <trkpt lat="59.8442662" lon="17.7407597">
        <ele>20.325</ele>
        <time>2012-05-19T10:44:08Z</time>
      </trkpt>
      <trkpt lat="59.8442975" lon="17.7407572">
        <ele>20.8057</ele>
        <time>2012-05-19T10:44:09Z</time>
      </trkpt>
      <trkpt lat="59.8443709" lon="17.7407146">
        <ele>20.8057</ele>
        <time>2012-05-19T10:44:10Z</time>
      </trkpt>
      <trkpt lat="59.8446149" lon="17.7405103">
        <ele>20.8057</ele>
        <time>2012-05-19T10:44:15Z</time>
      </trkpt>
      <trkpt lat="59.8448295" lon="17.7402375">
        <ele>20.325</ele>
        <time>2012-05-19T10:44:19Z</time>
      </trkpt>
      <trkpt lat="59.8452262" lon="17.7399517">
        <ele>20.8057</ele>
        <time>2012-05-19T10:44:25Z</time>
      </trkpt>
      <trkpt lat="59.845921" lon="17.739608">
        <ele>21.2864</ele>
        <time>2012-05-19T10:44:34Z</time>
      </trkpt>
      <trkpt lat="59.846623" lon="17.7393531">
        <ele>21.2864</ele>
        <time>2012-05-19T10:44:43Z</time>
      </trkpt>
      <trkpt lat="59.8470697" lon="17.7391534">
        <ele>20.8057</ele>
        <time>2012-05-19T10:44:49Z</time>
      </trkpt>
      <trkpt lat="59.8477172" lon="17.7389509">
        <ele>21.767</ele>
        <time>2012-05-19T10:44:58Z</time>
      </trkpt>
      <trkpt lat="59.8483738" lon="17.7387105">
        <ele>21.767</ele>
        <time>2012-05-19T10:45:07Z</time>
      </trkpt>
      <trkpt lat="59.8491849" lon="17.7382994">
        <ele>21.767</ele>
        <time>2012-05-19T10:45:18Z</time>
      </trkpt>
      <trkpt lat="59.8499437" lon="17.7380002">
        <ele>21.767</ele>
        <time>2012-05-19T10:45:28Z</time>
      </trkpt>
      <trkpt lat="59.8503986" lon="17.7377672">
        <ele>21.2864</ele>
        <time>2012-05-19T10:45:34Z</time>
      </trkpt>
      <trkpt lat="59.8511526" lon="17.737193">
        <ele>20.8057</ele>
        <time>2012-05-19T10:45:44Z</time>
      </trkpt>
      <trkpt lat="59.8516247" lon="17.7367105">
        <ele>20.8057</ele>
        <time>2012-05-19T10:45:51Z</time>
      </trkpt>
      <trkpt lat="59.8519833" lon="17.7361292">
        <ele>20.325</ele>
        <time>2012-05-19T10:45:57Z</time>
      </trkpt>
      <trkpt lat="59.8523703" lon="17.7355942">
        <ele>20.325</ele>
        <time>2012-05-19T10:46:03Z</time>
      </trkpt>
      <trkpt lat="59.8530286" lon="17.7348101">
        <ele>21.2864</ele>
        <time>2012-05-19T10:46:13Z</time>
      </trkpt>
      <trkpt lat="59.8535345" lon="17.7341255">
        <ele>20.8057</ele>
        <time>2012-05-19T10:46:21Z</time>
      </trkpt>
      <trkpt lat="59.8537341" lon="17.733613">
        <ele>17.9218</ele>
        <time>2012-05-19T10:46:25Z</time>
      </trkpt>
      <trkpt lat="59.8538879" lon="17.7328486">
        <ele>15.0377</ele>
        <time>2012-05-19T10:46:30Z</time>
      </trkpt>
      <trkpt lat="59.8539494" lon="17.7323032">
        <ele>13.5958</ele>
        <time>2012-05-19T10:46:34Z</time>
      </trkpt>
      <trkpt lat="59.8540183" lon="17.7313121">
        <ele>11.6732</ele>
        <time>2012-05-19T10:46:41Z</time>
      </trkpt>
      <trkpt lat="59.8541323" lon="17.7305694">
        <ele>13.1151</ele>
        <time>2012-05-19T10:46:48Z</time>
      </trkpt>
      <trkpt lat="59.8542988" lon="17.7299908">
        <ele>14.557</ele>
        <time>2012-05-19T10:46:55Z</time>
      </trkpt>
      <trkpt lat="59.8545194" lon="17.7294132">
        <ele>14.0764</ele>
        <time>2012-05-19T10:47:03Z</time>
      </trkpt>
      <trkpt lat="59.8547529" lon="17.7288235">
        <ele>14.557</ele>
        <time>2012-05-19T10:47:11Z</time>
      </trkpt>
      <trkpt lat="59.8550488" lon="17.7280632">
        <ele>13.1151</ele>
        <time>2012-05-19T10:47:21Z</time>
      </trkpt>
      <trkpt lat="59.8553794" lon="17.7271708">
        <ele>12.6344</ele>
        <time>2012-05-19T10:47:31Z</time>
      </trkpt>
      <trkpt lat="59.8556823" lon="17.7262845">
        <ele>12.6344</ele>
        <time>2012-05-19T10:47:40Z</time>
      </trkpt>
      <trkpt lat="59.8560708" lon="17.7252448">
        <ele>12.6344</ele>
        <time>2012-05-19T10:47:51Z</time>
      </trkpt>
      <trkpt lat="59.856362" lon="17.7245496">
        <ele>13.1151</ele>
        <time>2012-05-19T10:47:59Z</time>
      </trkpt>
      <trkpt lat="59.8567334" lon="17.7237264">
        <ele>13.1151</ele>
        <time>2012-05-19T10:48:09Z</time>
      </trkpt>
      <trkpt lat="59.857014" lon="17.7231769">
        <ele>15.5184</ele>
        <time>2012-05-19T10:48:17Z</time>
      </trkpt>
      <trkpt lat="59.8572667" lon="17.7227726">
        <ele>16.4797</ele>
        <time>2012-05-19T10:48:24Z</time>
      </trkpt>
      <trkpt lat="59.8575486" lon="17.7222456">
        <ele>16.9604</ele>
        <time>2012-05-19T10:48:32Z</time>
      </trkpt>
      <trkpt lat="59.8577027" lon="17.7216954">
        <ele>15.5184</ele>
        <time>2012-05-19T10:48:38Z</time>
      </trkpt>
      <trkpt lat="59.8577342" lon="17.7213545">
        <ele>15.5184</ele>
        <time>2012-05-19T10:48:41Z</time>
      </trkpt>
      <trkpt lat="59.8577403" lon="17.7205107">
        <ele>12.6344</ele>
        <time>2012-05-19T10:48:48Z</time>
      </trkpt>
      <trkpt lat="59.8577176" lon="17.7196459">
        <ele>11.6732</ele>
        <time>2012-05-19T10:48:54Z</time>
      </trkpt>
      <trkpt lat="59.8576896" lon="17.7186791">
        <ele>12.1538</ele>
        <time>2012-05-19T10:49:01Z</time>
      </trkpt>
      <trkpt lat="59.8577073" lon="17.7176865">
        <ele>13.5958</ele>
        <time>2012-05-19T10:49:09Z</time>
      </trkpt>
      <trkpt lat="59.8576761" lon="17.7165883">
        <ele>14.557</ele>
        <time>2012-05-19T10:49:18Z</time>
      </trkpt>
      <trkpt lat="59.8576913" lon="17.7157061">
        <ele>15.0377</ele>
        <time>2012-05-19T10:49:25Z</time>
      </trkpt>
      <trkpt lat="59.8578141" lon="17.7150017">
        <ele>15.5184</ele>
        <time>2012-05-19T10:49:31Z</time>
      </trkpt>
      <trkpt lat="59.8579938" lon="17.7143687">
        <ele>15.999</ele>
        <time>2012-05-19T10:49:37Z</time>
      </trkpt>
      <trkpt lat="59.8581714" lon="17.7138542">
        <ele>15.999</ele>
        <time>2012-05-19T10:49:42Z</time>
      </trkpt>
      <trkpt lat="59.8582774" lon="17.7130922">
        <ele>15.5184</ele>
        <time>2012-05-19T10:49:48Z</time>
      </trkpt>
      <trkpt lat="59.8583946" lon="17.7122545">
        <ele>15.0377</ele>
        <time>2012-05-19T10:49:55Z</time>
      </trkpt>
      <trkpt lat="59.8585442" lon="17.7115067">
        <ele>14.557</ele>
        <time>2012-05-19T10:50:02Z</time>
      </trkpt>
      <trkpt lat="59.8585641" lon="17.7112697">
        <ele>14.0764</ele>
        <time>2012-05-19T10:50:04Z</time>
      </trkpt>
      <trkpt lat="59.8585434" lon="17.7108057">
        <ele>14.0764</ele>
        <time>2012-05-19T10:50:08Z</time>
      </trkpt>
      <trkpt lat="59.8584108" lon="17.7099861">
        <ele>15.999</ele>
        <time>2012-05-19T10:50:15Z</time>
      </trkpt>
      <trkpt lat="59.8583468" lon="17.7094832">
        <ele>16.9604</ele>
        <time>2012-05-19T10:50:19Z</time>
      </trkpt>
      <trkpt lat="59.8583491" lon="17.7089482">
        <ele>16.4797</ele>
        <time>2012-05-19T10:50:23Z</time>
      </trkpt>
      <trkpt lat="59.8584739" lon="17.7077869">
        <ele>17.4412</ele>
        <time>2012-05-19T10:50:31Z</time>
      </trkpt>
      <trkpt lat="59.858579" lon="17.7067668">
        <ele>16.4797</ele>
        <time>2012-05-19T10:50:38Z</time>
      </trkpt>
      <trkpt lat="59.8586873" lon="17.7057209">
        <ele>17.9218</ele>
        <time>2012-05-19T10:50:45Z</time>
      </trkpt>
      <trkpt lat="59.8588059" lon="17.7050734">
        <ele>20.325</ele>
        <time>2012-05-19T10:50:50Z</time>
      </trkpt>
      <trkpt lat="59.8590001" lon="17.7047466">
        <ele>18.8831</ele>
        <time>2012-05-19T10:50:54Z</time>
      </trkpt>
      <trkpt lat="59.8591162" lon="17.7045978">
        <ele>18.4023</ele>
        <time>2012-05-19T10:50:56Z</time>
      </trkpt>
      <trkpt lat="59.859258" lon="17.7044498">
        <ele>18.8831</ele>
        <time>2012-05-19T10:50:58Z</time>
      </trkpt>
      <trkpt lat="59.8596882" lon="17.7042626">
        <ele>19.8444</ele>
        <time>2012-05-19T10:51:04Z</time>
      </trkpt>
      <trkpt lat="59.8602542" lon="17.7040416">
        <ele>19.8444</ele>
        <time>2012-05-19T10:51:12Z</time>
      </trkpt>
      <trkpt lat="59.8608002" lon="17.7037457">
        <ele>20.8057</ele>
        <time>2012-05-19T10:51:20Z</time>
      </trkpt>
      <trkpt lat="59.8608705" lon="17.7037239">
        <ele>20.8057</ele>
        <time>2012-05-19T10:51:21Z</time>
      </trkpt>
      <trkpt lat="59.8612772" lon="17.7037614">
        <ele>21.767</ele>
        <time>2012-05-19T10:51:27Z</time>
      </trkpt>
      <trkpt lat="59.8619247" lon="17.7039896">
        <ele>23.209</ele>
        <time>2012-05-19T10:51:37Z</time>
      </trkpt>
      <trkpt lat="59.8619828" lon="17.7040119">
        <ele>24.1703</ele>
        <time>2012-05-19T10:51:38Z</time>
      </trkpt>
      <trkpt lat="59.862128" lon="17.7037765">
        <ele>23.209</ele>
        <time>2012-05-19T10:51:42Z</time>
      </trkpt>
      <trkpt lat="59.8621295" lon="17.7036456">
        <ele>21.2864</ele>
        <time>2012-05-19T10:51:43Z</time>
      </trkpt>
      <trkpt lat="59.8621324" lon="17.7031014">
        <ele>17.9218</ele>
        <time>2012-05-19T10:51:47Z</time>
      </trkpt>
      <trkpt lat="59.8620695" lon="17.7026113">
        <ele>15.0377</ele>
        <time>2012-05-19T10:51:51Z</time>
      </trkpt>
      <trkpt lat="59.8618729" lon="17.7017292">
        <ele>13.5958</ele>
        <time>2012-05-19T10:51:59Z</time>
      </trkpt>
      <trkpt lat="59.8617207" lon="17.7009366">
        <ele>13.1151</ele>
        <time>2012-05-19T10:52:06Z</time>
      </trkpt>
      <trkpt lat="59.8616892" lon="17.7002017">
        <ele>12.6344</ele>
        <time>2012-05-19T10:52:12Z</time>
      </trkpt>
      <trkpt lat="59.861627" lon="17.6994818">
        <ele>10.7118</ele>
        <time>2012-05-19T10:52:18Z</time>
      </trkpt>
      <trkpt lat="59.8615488" lon="17.698998">
        <ele>9.75061</ele>
        <time>2012-05-19T10:52:22Z</time>
      </trkpt>
      <trkpt lat="59.8613561" lon="17.6985104">
        <ele>9.75061</ele>
        <time>2012-05-19T10:52:27Z</time>
      </trkpt>
      <trkpt lat="59.8611747" lon="17.6979508">
        <ele>10.2312</ele>
        <time>2012-05-19T10:52:32Z</time>
      </trkpt>
      <trkpt lat="59.8610178" lon="17.6974603">
        <ele>11.1925</ele>
        <time>2012-05-19T10:52:36Z</time>
      </trkpt>
      <trkpt lat="59.8609394" lon="17.6970914">
        <ele>12.1538</ele>
        <time>2012-05-19T10:52:39Z</time>
      </trkpt>
      <trkpt lat="59.860896" lon="17.6964233">
        <ele>13.5958</ele>
        <time>2012-05-19T10:52:44Z</time>
      </trkpt>
      <trkpt lat="59.8608938" lon="17.6962854">
        <ele>13.5958</ele>
        <time>2012-05-19T10:52:45Z</time>
      </trkpt>
      <trkpt lat="59.8608236" lon="17.6957841">
        <ele>14.557</ele>
        <time>2012-05-19T10:52:49Z</time>
      </trkpt>
      <trkpt lat="59.8607894" lon="17.6956603">
        <ele>14.557</ele>
        <time>2012-05-19T10:52:50Z</time>
      </trkpt>
      <trkpt lat="59.8606055" lon="17.6946314">
        <ele>12.6344</ele>
        <time>2012-05-19T10:52:58Z</time>
      </trkpt>
      <trkpt lat="59.8605367" lon="17.6938342">
        <ele>13.1151</ele>
        <time>2012-05-19T10:53:04Z</time>
      </trkpt>
      <trkpt lat="59.8605247" lon="17.6935673">
        <ele>13.1151</ele>
        <time>2012-05-19T10:53:06Z</time>
      </trkpt>
      <trkpt lat="59.8604007" lon="17.6929577">
        <ele>13.5958</ele>
        <time>2012-05-19T10:53:11Z</time>
      </trkpt>
      <trkpt lat="59.8603475" lon="17.6928733">
        <ele>13.5958</ele>
        <time>2012-05-19T10:53:12Z</time>
      </trkpt>
      <trkpt lat="59.860233" lon="17.6927092">
        <ele>14.0764</ele>
        <time>2012-05-19T10:53:14Z</time>
      </trkpt>
      <trkpt lat="59.8600952" lon="17.692251">
        <ele>15.5184</ele>
        <time>2012-05-19T10:53:18Z</time>
      </trkpt>
      <trkpt lat="59.860076" lon="17.6921211">
        <ele>15.999</ele>
        <time>2012-05-19T10:53:19Z</time>
      </trkpt>
      <trkpt lat="59.8599196" lon="17.6912053">
        <ele>15.999</ele>
        <time>2012-05-19T10:53:26Z</time>
      </trkpt>
      <trkpt lat="59.859843" lon="17.6908229">
        <ele>15.5184</ele>
        <time>2012-05-19T10:53:29Z</time>
      </trkpt>
      <trkpt lat="59.8596472" lon="17.6897808">
        <ele>16.9604</ele>
        <time>2012-05-19T10:53:37Z</time>
      </trkpt>
      <trkpt lat="59.8595945" lon="17.6893685">
        <ele>18.4023</ele>
        <time>2012-05-19T10:53:40Z</time>
      </trkpt>
      <trkpt lat="59.8594161" lon="17.6884158">
        <ele>17.9218</ele>
        <time>2012-05-19T10:53:48Z</time>
      </trkpt>
      <trkpt lat="59.8593587" lon="17.6880844">
        <ele>16.9604</ele>
        <time>2012-05-19T10:53:51Z</time>
      </trkpt>
      <trkpt lat="59.8591255" lon="17.6873554">
        <ele>14.0764</ele>
        <time>2012-05-19T10:53:57Z</time>
      </trkpt>
      <trkpt lat="59.8589757" lon="17.6868854">
        <ele>13.5958</ele>
        <time>2012-05-19T10:54:01Z</time>
      </trkpt>
      <trkpt lat="59.8590231" lon="17.6866767">
        <ele>15.999</ele>
        <time>2012-05-19T10:54:05Z</time>
      </trkpt>
      <trkpt lat="59.8590601" lon="17.6866668">
        <ele>16.4797</ele>
        <time>2012-05-19T10:54:06Z</time>
      </trkpt>
      <trkpt lat="59.8592007" lon="17.686681">
        <ele>18.8831</ele>
        <time>2012-05-19T10:54:11Z</time>
      </trkpt>
      <trkpt lat="59.8592555" lon="17.6866642">
        <ele>17.9218</ele>
        <time>2012-05-19T10:54:16Z</time>
      </trkpt>
      <trkpt lat="59.859288" lon="17.6866663">
        <ele>17.9218</ele>
        <time>2012-05-19T10:54:18Z</time>
      </trkpt>
      <trkpt lat="59.8594685" lon="17.6865365">
        <ele>17.9218</ele>
        <time>2012-05-19T10:54:23Z</time>
      </trkpt>
      <trkpt lat="59.8595809" lon="17.6862494">
        <ele>17.4412</ele>
        <time>2012-05-19T10:54:26Z</time>
      </trkpt>
      <trkpt lat="59.8597514" lon="17.6858749">
        <ele>15.999</ele>
        <time>2012-05-19T10:54:30Z</time>
      </trkpt>
      <trkpt lat="59.8602645" lon="17.6852471">
        <ele>15.0377</ele>
        <time>2012-05-19T10:54:38Z</time>
      </trkpt>
      <trkpt lat="59.8608945" lon="17.6845826">
        <ele>13.5958</ele>
        <time>2012-05-19T10:54:47Z</time>
      </trkpt>
      <trkpt lat="59.8615483" lon="17.6840459">
        <ele>13.5958</ele>
        <time>2012-05-19T10:54:56Z</time>
      </trkpt>
      <trkpt lat="59.8623698" lon="17.6834482">
        <ele>14.0764</ele>
        <time>2012-05-19T10:55:07Z</time>
      </trkpt>
      <trkpt lat="59.8630603" lon="17.6829487">
        <ele>14.0764</ele>
        <time>2012-05-19T10:55:16Z</time>
      </trkpt>
      <trkpt lat="59.8633468" lon="17.6827172">
        <ele>14.557</ele>
        <time>2012-05-19T10:55:20Z</time>
      </trkpt>
      <trkpt lat="59.8637498" lon="17.6824571">
        <ele>14.0764</ele>
        <time>2012-05-19T10:55:26Z</time>
      </trkpt>
      <trkpt lat="59.86437" lon="17.6820099">
        <ele>13.5958</ele>
        <time>2012-05-19T10:55:35Z</time>
      </trkpt>
      <trkpt lat="59.8647636" lon="17.6816448">
        <ele>13.5958</ele>
        <time>2012-05-19T10:55:41Z</time>
      </trkpt>
      <trkpt lat="59.8649318" lon="17.6813522">
        <ele>13.1151</ele>
        <time>2012-05-19T10:55:44Z</time>
      </trkpt>
      <trkpt lat="59.8651151" lon="17.6809338">
        <ele>13.1151</ele>
        <time>2012-05-19T10:55:48Z</time>
      </trkpt>
      <trkpt lat="59.8651521" lon="17.6805168">
        <ele>13.1151</ele>
        <time>2012-05-19T10:55:51Z</time>
      </trkpt>
      <trkpt lat="59.8652783" lon="17.6803902">
        <ele>13.1151</ele>
        <time>2012-05-19T10:55:53Z</time>
      </trkpt>
      <trkpt lat="59.8654264" lon="17.6802987">
        <ele>13.1151</ele>
        <time>2012-05-19T10:55:55Z</time>
      </trkpt>
      <trkpt lat="59.8659942" lon="17.6799185">
        <ele>15.5184</ele>
        <time>2012-05-19T10:56:03Z</time>
      </trkpt>
      <trkpt lat="59.8666983" lon="17.6795885">
        <ele>18.8831</ele>
        <time>2012-05-19T10:56:13Z</time>
      </trkpt>
      <trkpt lat="59.8673635" lon="17.6792847">
        <ele>20.8057</ele>
        <time>2012-05-19T10:56:23Z</time>
      </trkpt>
      <trkpt lat="59.868011" lon="17.6790367">
        <ele>22.2476</ele>
        <time>2012-05-19T10:56:33Z</time>
      </trkpt>
      <trkpt lat="59.8687513" lon="17.6786978">
        <ele>24.1703</ele>
        <time>2012-05-19T10:56:45Z</time>
      </trkpt>
      <trkpt lat="59.8693042" lon="17.6784243">
        <ele>26.0929</ele>
        <time>2012-05-19T10:56:54Z</time>
      </trkpt>
      <trkpt lat="59.8699012" lon="17.6781379">
        <ele>27.0543</ele>
        <time>2012-05-19T10:57:04Z</time>
      </trkpt>
      <trkpt lat="59.8703838" lon="17.6779052">
        <ele>28.9769</ele>
        <time>2012-05-19T10:57:12Z</time>
      </trkpt>
      <trkpt lat="59.870627" lon="17.677807">
        <ele>29.4575</ele>
        <time>2012-05-19T10:57:16Z</time>
      </trkpt>
      <trkpt lat="59.8708642" lon="17.6776022">
        <ele>28.0155</ele>
        <time>2012-05-19T10:57:21Z</time>
      </trkpt>
      <trkpt lat="59.8709575" lon="17.6775562">
        <ele>28.0155</ele>
        <time>2012-05-19T10:57:23Z</time>
      </trkpt>
      <trkpt lat="59.8711996" lon="17.6774905">
        <ele>25.6123</ele>
        <time>2012-05-19T10:57:29Z</time>
      </trkpt>
      <trkpt lat="59.8713848" lon="17.6774645">
        <ele>24.651</ele>
        <time>2012-05-19T10:57:34Z</time>
      </trkpt>
      <trkpt lat="59.8715521" lon="17.6775267">
        <ele>25.1317</ele>
        <time>2012-05-19T10:57:38Z</time>
      </trkpt>
      <trkpt lat="59.8717506" lon="17.6775651">
        <ele>24.651</ele>
        <time>2012-05-19T10:57:42Z</time>
      </trkpt>
      <trkpt lat="59.8722233" lon="17.6774079">
        <ele>26.5736</ele>
        <time>2012-05-19T10:57:50Z</time>
      </trkpt>
      <trkpt lat="59.8726969" lon="17.6771942">
        <ele>30.8995</ele>
        <time>2012-05-19T10:57:58Z</time>
      </trkpt>
      <trkpt lat="59.8731033" lon="17.6770165">
        <ele>31.3801</ele>
        <time>2012-05-19T10:58:05Z</time>
      </trkpt>
      <trkpt lat="59.8735903" lon="17.6767818">
        <ele>31.8607</ele>
        <time>2012-05-19T10:58:13Z</time>
      </trkpt>
      <trkpt lat="59.8740032" lon="17.6765641">
        <ele>31.8607</ele>
        <time>2012-05-19T10:58:20Z</time>
      </trkpt>
      <trkpt lat="59.8743157" lon="17.6763623">
        <ele>31.8607</ele>
        <time>2012-05-19T10:58:26Z</time>
      </trkpt>
      <trkpt lat="59.8745026" lon="17.6760784">
        <ele>30.8995</ele>
        <time>2012-05-19T10:58:30Z</time>
      </trkpt>
      <trkpt lat="59.8745238" lon="17.6759569">
        <ele>30.8995</ele>
        <time>2012-05-19T10:58:31Z</time>
      </trkpt>
      <trkpt lat="59.8747337" lon="17.6753676">
        <ele>29.9381</ele>
        <time>2012-05-19T10:58:37Z</time>
      </trkpt>
      <trkpt lat="59.8748519" lon="17.6752521">
        <ele>28.9769</ele>
        <time>2012-05-19T10:58:39Z</time>
      </trkpt>
      <trkpt lat="59.875353" lon="17.6748674">
        <ele>25.6123</ele>
        <time>2012-05-19T10:58:46Z</time>
      </trkpt>
      <trkpt lat="59.8754838" lon="17.6747559">
        <ele>26.0929</ele>
        <time>2012-05-19T10:58:48Z</time>
      </trkpt>
      <trkpt lat="59.8756832" lon="17.6743499">
        <ele>25.1317</ele>
        <time>2012-05-19T10:58:53Z</time>
      </trkpt>
      <trkpt lat="59.8757532" lon="17.6742068">
        <ele>25.6123</ele>
        <time>2012-05-19T10:58:55Z</time>
      </trkpt>
      <trkpt lat="59.8758593" lon="17.6741876">
        <ele>25.1317</ele>
        <time>2012-05-19T10:58:58Z</time>
      </trkpt>
      <trkpt lat="59.8759131" lon="17.6744549">
        <ele>25.1317</ele>
        <time>2012-05-19T10:59:01Z</time>
      </trkpt>
      <trkpt lat="59.8760535" lon="17.6755214">
        <ele>25.6123</ele>
        <time>2012-05-19T10:59:10Z</time>
      </trkpt>
      <trkpt lat="59.876148" lon="17.6760665">
        <ele>26.0929</ele>
        <time>2012-05-19T10:59:15Z</time>
      </trkpt>
      <trkpt lat="59.876272" lon="17.6763721">
        <ele>26.0929</ele>
        <time>2012-05-19T10:59:19Z</time>
      </trkpt>
      <trkpt lat="59.8764028" lon="17.6763271">
        <ele>26.0929</ele>
        <time>2012-05-19T10:59:22Z</time>
      </trkpt>
      <trkpt lat="59.8765321" lon="17.6764208">
        <ele>28.0155</ele>
        <time>2012-05-19T10:59:25Z</time>
      </trkpt>
      <trkpt lat="59.8765724" lon="17.6766092">
        <ele>28.9769</ele>
        <time>2012-05-19T10:59:27Z</time>
      </trkpt>
      <trkpt lat="59.8766317" lon="17.6771002">
        <ele>29.4575</ele>
        <time>2012-05-19T10:59:31Z</time>
      </trkpt>
      <trkpt lat="59.8767976" lon="17.6772913">
        <ele>29.4575</ele>
        <time>2012-05-19T10:59:35Z</time>
      </trkpt>
      <trkpt lat="59.8768576" lon="17.6772678">
        <ele>29.9381</ele>
        <time>2012-05-19T10:59:36Z</time>
      </trkpt>
      <trkpt lat="59.8774117" lon="17.6769377">
        <ele>30.4188</ele>
        <time>2012-05-19T10:59:45Z</time>
      </trkpt>
      <trkpt lat="59.8778195" lon="17.6765979">
        <ele>29.4575</ele>
        <time>2012-05-19T10:59:52Z</time>
      </trkpt>
      <trkpt lat="59.8783178" lon="17.6760903">
        <ele>28.4962</ele>
        <time>2012-05-19T11:00:01Z</time>
      </trkpt>
      <trkpt lat="59.8783965" lon="17.675709">
        <ele>28.4962</ele>
        <time>2012-05-19T11:00:05Z</time>
      </trkpt>
      <trkpt lat="59.8783562" lon="17.675274">
        <ele>26.0929</ele>
        <time>2012-05-19T11:00:09Z</time>
      </trkpt>
      <trkpt lat="59.878397" lon="17.6748924">
        <ele>26.5736</ele>
        <time>2012-05-19T11:00:14Z</time>
      </trkpt>
      <trkpt lat="59.8784546" lon="17.6747874">
        <ele>26.0929</ele>
        <time>2012-05-19T11:00:16Z</time>
      </trkpt>
      <trkpt lat="59.8786057" lon="17.6746078">
        <ele>27.5349</ele>
        <time>2012-05-19T11:00:20Z</time>
      </trkpt>
      <trkpt lat="59.8788343" lon="17.6745656">
        <ele>29.9381</ele>
        <time>2012-05-19T11:00:25Z</time>
      </trkpt>
      <trkpt lat="59.8789382" lon="17.6747774">
        <ele>31.3801</ele>
        <time>2012-05-19T11:00:28Z</time>
      </trkpt>
      <trkpt lat="59.8789943" lon="17.6752086">
        <ele>31.8607</ele>
        <time>2012-05-19T11:00:32Z</time>
      </trkpt>
      <trkpt lat="59.8791187" lon="17.6756541">
        <ele>31.8607</ele>
        <time>2012-05-19T11:00:37Z</time>
      </trkpt>
      <trkpt lat="59.879243" lon="17.6754614">
        <ele>29.9381</ele>
        <time>2012-05-19T11:00:40Z</time>
      </trkpt>
      <trkpt lat="59.8796119" lon="17.6749112">
        <ele>28.9769</ele>
        <time>2012-05-19T11:00:47Z</time>
      </trkpt>
      <trkpt lat="59.8802841" lon="17.6742126">
        <ele>28.9769</ele>
        <time>2012-05-19T11:00:58Z</time>
      </trkpt>
      <trkpt lat="59.8808802" lon="17.6736545">
        <ele>28.4962</ele>
        <time>2012-05-19T11:01:07Z</time>
      </trkpt>
      <trkpt lat="59.8814438" lon="17.6731727">
        <ele>27.5349</ele>
        <time>2012-05-19T11:01:15Z</time>
      </trkpt>
      <trkpt lat="59.8821305" lon="17.6725941">
        <ele>27.0543</ele>
        <time>2012-05-19T11:01:25Z</time>
      </trkpt>
      <trkpt lat="59.8828441" lon="17.6719944">
        <ele>26.0929</ele>
        <time>2012-05-19T11:01:36Z</time>
      </trkpt>
      <trkpt lat="59.8834186" lon="17.6714402">
        <ele>25.6123</ele>
        <time>2012-05-19T11:01:45Z</time>
      </trkpt>
      <trkpt lat="59.8836013" lon="17.6712151">
        <ele>25.1317</ele>
        <time>2012-05-19T11:01:48Z</time>
      </trkpt>
      <trkpt lat="59.8839308" lon="17.6710231">
        <ele>24.651</ele>
        <time>2012-05-19T11:01:53Z</time>
      </trkpt>
      <trkpt lat="59.8840577" lon="17.6707159">
        <ele>24.651</ele>
        <time>2012-05-19T11:01:56Z</time>
      </trkpt>
      <trkpt lat="59.8841066" lon="17.6704619">
        <ele>24.1703</ele>
        <time>2012-05-19T11:01:58Z</time>
      </trkpt>
      <trkpt lat="59.8843227" lon="17.6699506">
        <ele>23.6896</ele>
        <time>2012-05-19T11:02:03Z</time>
      </trkpt>
      <trkpt lat="59.884705" lon="17.6690008">
        <ele>22.7283</ele>
        <time>2012-05-19T11:02:12Z</time>
      </trkpt>
      <trkpt lat="59.8849433" lon="17.6681667">
        <ele>22.2476</ele>
        <time>2012-05-19T11:02:19Z</time>
      </trkpt>
      <trkpt lat="59.8850975" lon="17.6678633">
        <ele>22.2476</ele>
        <time>2012-05-19T11:02:22Z</time>
      </trkpt>
      <trkpt lat="59.8851909" lon="17.6673761">
        <ele>21.767</ele>
        <time>2012-05-19T11:02:26Z</time>
      </trkpt>
      <trkpt lat="59.8851778" lon="17.6672466">
        <ele>21.2864</ele>
        <time>2012-05-19T11:02:27Z</time>
      </trkpt>
      <trkpt lat="59.8852168" lon="17.6662113">
        <ele>19.8444</ele>
        <time>2012-05-19T11:02:35Z</time>
      </trkpt>
      <trkpt lat="59.8853016" lon="17.6654944">
        <ele>18.4023</ele>
        <time>2012-05-19T11:02:41Z</time>
      </trkpt>
      <trkpt lat="59.8854896" lon="17.6649789">
        <ele>18.4023</ele>
        <time>2012-05-19T11:02:46Z</time>
      </trkpt>
      <trkpt lat="59.8856989" lon="17.6648953">
        <ele>18.8831</ele>
        <time>2012-05-19T11:02:49Z</time>
      </trkpt>
      <trkpt lat="59.885773" lon="17.6649177">
        <ele>18.8831</ele>
        <time>2012-05-19T11:02:50Z</time>
      </trkpt>
      <trkpt lat="59.8861501" lon="17.664798">
        <ele>20.325</ele>
        <time>2012-05-19T11:02:55Z</time>
      </trkpt>
      <trkpt lat="59.8863029" lon="17.6644215">
        <ele>20.8057</ele>
        <time>2012-05-19T11:02:58Z</time>
      </trkpt>
      <trkpt lat="59.8866153" lon="17.6635181">
        <ele>20.8057</ele>
        <time>2012-05-19T11:03:05Z</time>
      </trkpt>
      <trkpt lat="59.8869528" lon="17.6627726">
        <ele>22.2476</ele>
        <time>2012-05-19T11:03:12Z</time>
      </trkpt>
      <trkpt lat="59.8870769" lon="17.6622988">
        <ele>21.767</ele>
        <time>2012-05-19T11:03:16Z</time>
      </trkpt>
      <trkpt lat="59.8871307" lon="17.6616414">
        <ele>21.2864</ele>
        <time>2012-05-19T11:03:21Z</time>
      </trkpt>
      <trkpt lat="59.8872535" lon="17.6611825">
        <ele>21.2864</ele>
        <time>2012-05-19T11:03:25Z</time>
      </trkpt>
      <trkpt lat="59.8874994" lon="17.6609079">
        <ele>21.767</ele>
        <time>2012-05-19T11:03:29Z</time>
      </trkpt>
      <trkpt lat="59.8877907" lon="17.6605255">
        <ele>22.2476</ele>
        <time>2012-05-19T11:03:34Z</time>
      </trkpt>
      <trkpt lat="59.8878378" lon="17.6604301">
        <ele>21.767</ele>
        <time>2012-05-19T11:03:35Z</time>
      </trkpt>
      <trkpt lat="59.888175" lon="17.65953">
        <ele>21.767</ele>
        <time>2012-05-19T11:03:44Z</time>
      </trkpt>
      <trkpt lat="59.8885711" lon="17.6584628">
        <ele>22.7283</ele>
        <time>2012-05-19T11:03:54Z</time>
      </trkpt>
      <trkpt lat="59.8890027" lon="17.6573089">
        <ele>22.2476</ele>
        <time>2012-05-19T11:04:05Z</time>
      </trkpt>
      <trkpt lat="59.8893826" lon="17.6562752">
        <ele>21.2864</ele>
        <time>2012-05-19T11:04:15Z</time>
      </trkpt>
      <trkpt lat="59.889747" lon="17.6552927">
        <ele>21.767</ele>
        <time>2012-05-19T11:04:24Z</time>
      </trkpt>
      <trkpt lat="59.8901787" lon="17.6540965">
        <ele>20.325</ele>
        <time>2012-05-19T11:04:35Z</time>
      </trkpt>
      <trkpt lat="59.8906086" lon="17.65293">
        <ele>19.8444</ele>
        <time>2012-05-19T11:04:46Z</time>
      </trkpt>
      <trkpt lat="59.8909871" lon="17.6518997">
        <ele>22.7283</ele>
        <time>2012-05-19T11:04:56Z</time>
      </trkpt>
      <trkpt lat="59.8912406" lon="17.6511916">
        <ele>22.7283</ele>
        <time>2012-05-19T11:05:03Z</time>
      </trkpt>
      <trkpt lat="59.8913198" lon="17.6509984">
        <ele>22.7283</ele>
        <time>2012-05-19T11:05:05Z</time>
      </trkpt>
      <trkpt lat="59.8915876" lon="17.6501606">
        <ele>22.2476</ele>
        <time>2012-05-19T11:05:14Z</time>
      </trkpt>
      <trkpt lat="59.8917699" lon="17.6493841">
        <ele>22.7283</ele>
        <time>2012-05-19T11:05:22Z</time>
      </trkpt>
      <trkpt lat="59.8919409" lon="17.6484368">
        <ele>24.1703</ele>
        <time>2012-05-19T11:05:31Z</time>
      </trkpt>
      <trkpt lat="59.8920526" lon="17.6477319">
        <ele>25.6123</ele>
        <time>2012-05-19T11:05:37Z</time>
      </trkpt>
      <trkpt lat="59.8921419" lon="17.64702">
        <ele>25.6123</ele>
        <time>2012-05-19T11:05:43Z</time>
      </trkpt>
      <trkpt lat="59.8922228" lon="17.6462494">
        <ele>27.0543</ele>
        <time>2012-05-19T11:05:49Z</time>
      </trkpt>
      <trkpt lat="59.8923585" lon="17.6449551">
        <ele>27.5349</ele>
        <time>2012-05-19T11:05:59Z</time>
      </trkpt>
      <trkpt lat="59.8924446" lon="17.6440877">
        <ele>27.5349</ele>
        <time>2012-05-19T11:06:06Z</time>
      </trkpt>
      <trkpt lat="59.8925433" lon="17.6431573">
        <ele>29.4575</ele>
        <time>2012-05-19T11:06:13Z</time>
      </trkpt>
      <trkpt lat="59.8925943" lon="17.6427812">
        <ele>28.0155</ele>
        <time>2012-05-19T11:06:16Z</time>
      </trkpt>
      <trkpt lat="59.8926473" lon="17.6417994">
        <ele>26.5736</ele>
        <time>2012-05-19T11:06:23Z</time>
      </trkpt>
      <trkpt lat="59.8926991" lon="17.640707">
        <ele>27.5349</ele>
        <time>2012-05-19T11:06:31Z</time>
      </trkpt>
      <trkpt lat="59.8927261" lon="17.6396611">
        <ele>26.0929</ele>
        <time>2012-05-19T11:06:39Z</time>
      </trkpt>
      <trkpt lat="59.8927355" lon="17.6390054">
        <ele>26.0929</ele>
        <time>2012-05-19T11:06:44Z</time>
      </trkpt>
      <trkpt lat="59.8928742" lon="17.6386098">
        <ele>25.6123</ele>
        <time>2012-05-19T11:06:48Z</time>
      </trkpt>
      <trkpt lat="59.8930182" lon="17.6383468">
        <ele>25.6123</ele>
        <time>2012-05-19T11:06:51Z</time>
      </trkpt>
      <trkpt lat="59.8932519" lon="17.6381238">
        <ele>24.1703</ele>
        <time>2012-05-19T11:06:55Z</time>
      </trkpt>
      <trkpt lat="59.8933166" lon="17.6380928">
        <ele>24.651</ele>
        <time>2012-05-19T11:06:56Z</time>
      </trkpt>
      <trkpt lat="59.8938296" lon="17.6377419">
        <ele>28.0155</ele>
        <time>2012-05-19T11:07:05Z</time>
      </trkpt>
      <trkpt lat="59.8943787" lon="17.6373409">
        <ele>31.8607</ele>
        <time>2012-05-19T11:07:14Z</time>
      </trkpt>
      <trkpt lat="59.8949661" lon="17.6369365">
        <ele>33.3029</ele>
        <time>2012-05-19T11:07:23Z</time>
      </trkpt>
      <trkpt lat="59.8950998" lon="17.6368396">
        <ele>33.7834</ele>
        <time>2012-05-19T11:07:25Z</time>
      </trkpt>
      <trkpt lat="59.8955371" lon="17.6364459">
        <ele>33.3029</ele>
        <time>2012-05-19T11:07:32Z</time>
      </trkpt>
      <trkpt lat="59.8956639" lon="17.6363657">
        <ele>34.7449</ele>
        <time>2012-05-19T11:07:34Z</time>
      </trkpt>
      <trkpt lat="59.8959959" lon="17.6363004">
        <ele>37.1481</ele>
        <time>2012-05-19T11:07:39Z</time>
      </trkpt>
      <trkpt lat="59.8964118" lon="17.636461">
        <ele>38.1094</ele>
        <time>2012-05-19T11:07:45Z</time>
      </trkpt>
      <trkpt lat="59.8968279" lon="17.6366266">
        <ele>38.1094</ele>
        <time>2012-05-19T11:07:51Z</time>
      </trkpt>
      <trkpt lat="59.8970522" lon="17.6367495">
        <ele>38.1094</ele>
        <time>2012-05-19T11:07:54Z</time>
      </trkpt>
      <trkpt lat="59.8974298" lon="17.6368283">
        <ele>36.1868</ele>
        <time>2012-05-19T11:07:59Z</time>
      </trkpt>
      <trkpt lat="59.8975024" lon="17.6368816">
        <ele>36.1868</ele>
        <time>2012-05-19T11:08:00Z</time>
      </trkpt>
      <trkpt lat="59.8980266" lon="17.6372686">
        <ele>31.8607</ele>
        <time>2012-05-19T11:08:06Z</time>
      </trkpt>
      <trkpt lat="59.8986679" lon="17.6378187">
        <ele>31.3801</ele>
        <time>2012-05-19T11:08:13Z</time>
      </trkpt>
      <trkpt lat="59.8993564" lon="17.638447">
        <ele>29.9381</ele>
        <time>2012-05-19T11:08:21Z</time>
      </trkpt>
      <trkpt lat="59.899949" lon="17.6390268">
        <ele>29.4575</ele>
        <time>2012-05-19T11:08:28Z</time>
      </trkpt>
      <trkpt lat="59.9007041" lon="17.6397855">
        <ele>30.4188</ele>
        <time>2012-05-19T11:08:37Z</time>
      </trkpt>
      <trkpt lat="59.9014493" lon="17.6405101">
        <ele>28.9769</ele>
        <time>2012-05-19T11:08:46Z</time>
      </trkpt>
      <trkpt lat="59.9019904" lon="17.6410061">
        <ele>27.0543</ele>
        <time>2012-05-19T11:08:53Z</time>
      </trkpt>
      <trkpt lat="59.9024846" lon="17.6413827">
        <ele>24.651</ele>
        <time>2012-05-19T11:09:00Z</time>
      </trkpt>
      <trkpt lat="59.9028674" lon="17.64161">
        <ele>23.209</ele>
        <time>2012-05-19T11:09:06Z</time>
      </trkpt>
      <trkpt lat="59.9030303" lon="17.6416944">
        <ele>23.6896</ele>
        <time>2012-05-19T11:09:09Z</time>
      </trkpt>
      <trkpt lat="59.9034658" lon="17.6419761">
        <ele>28.4962</ele>
        <time>2012-05-19T11:10:55Z</time>
      </trkpt>
      <trkpt lat="59.9034776" lon="17.6419809">
        <ele>28.4962</ele>
        <time>2012-05-19T11:10:56Z</time>
      </trkpt>
      <trkpt lat="59.9035278" lon="17.6420012">
        <ele>28.4962</ele>
        <time>2012-05-19T11:10:57Z</time>
      </trkpt>
      <trkpt lat="59.9036863" lon="17.642005">
        <ele>28.0155</ele>
        <time>2012-05-19T11:11:01Z</time>
      </trkpt>
      <trkpt lat="59.9037364" lon="17.6420266">
        <ele>27.5349</ele>
        <time>2012-05-19T11:11:02Z</time>
      </trkpt>
      <trkpt lat="59.9041235" lon="17.6422374">
        <ele>26.5736</ele>
        <time>2012-05-19T11:11:08Z</time>
      </trkpt>
      <trkpt lat="59.9046767" lon="17.6425636">
        <ele>25.6123</ele>
        <time>2012-05-19T11:11:15Z</time>
      </trkpt>
      <trkpt lat="59.9051378" lon="17.6428195">
        <ele>26.0929</ele>
        <time>2012-05-19T11:11:21Z</time>
      </trkpt>
      <trkpt lat="59.9054171" lon="17.6429376">
        <ele>27.0543</ele>
        <time>2012-05-19T11:11:25Z</time>
      </trkpt>
      <trkpt lat="59.9055574" lon="17.642947">
        <ele>27.0543</ele>
        <time>2012-05-19T11:11:27Z</time>
      </trkpt>
      <trkpt lat="59.9062181" lon="17.6432282">
        <ele>28.0155</ele>
        <time>2012-05-19T11:11:37Z</time>
      </trkpt>
      <trkpt lat="59.9067993" lon="17.6434361">
        <ele>28.4962</ele>
        <time>2012-05-19T11:11:46Z</time>
      </trkpt>
      <trkpt lat="59.9074502" lon="17.6435772">
        <ele>28.9769</ele>
        <time>2012-05-19T11:11:55Z</time>
      </trkpt>
      <trkpt lat="59.9080739" lon="17.6436825">
        <ele>30.4188</ele>
        <time>2012-05-19T11:12:04Z</time>
      </trkpt>
      <trkpt lat="59.9086994" lon="17.6437202">
        <ele>29.4575</ele>
        <time>2012-05-19T11:12:13Z</time>
      </trkpt>
      <trkpt lat="59.9094357" lon="17.6436262">
        <ele>28.9769</ele>
        <time>2012-05-19T11:12:23Z</time>
      </trkpt>
      <trkpt lat="59.909805" lon="17.6435494">
        <ele>28.9769</ele>
        <time>2012-05-19T11:12:28Z</time>
      </trkpt>
      <trkpt lat="59.9101449" lon="17.6436245">
        <ele>29.9381</ele>
        <time>2012-05-19T11:12:33Z</time>
      </trkpt>
      <trkpt lat="59.9105685" lon="17.6435251">
        <ele>30.4188</ele>
        <time>2012-05-19T11:12:40Z</time>
      </trkpt>
      <trkpt lat="59.9108991" lon="17.6434301">
        <ele>30.8995</ele>
        <time>2012-05-19T11:12:45Z</time>
      </trkpt>
      <trkpt lat="59.9114762" lon="17.643293">
        <ele>31.3801</ele>
        <time>2012-05-19T11:12:54Z</time>
      </trkpt>
      <trkpt lat="59.9119665" lon="17.6431915">
        <ele>31.8607</ele>
        <time>2012-05-19T11:13:01Z</time>
      </trkpt>
      <trkpt lat="59.9124024" lon="17.6430555">
        <ele>30.8995</ele>
        <time>2012-05-19T11:13:07Z</time>
      </trkpt>
      <trkpt lat="59.9125655" lon="17.6430457">
        <ele>30.8995</ele>
        <time>2012-05-19T11:13:09Z</time>
      </trkpt>
      <trkpt lat="59.9127256" lon="17.6430998">
        <ele>31.3801</ele>
        <time>2012-05-19T11:13:11Z</time>
      </trkpt>
      <trkpt lat="59.9130921" lon="17.643088">
        <ele>32.3416</ele>
        <time>2012-05-19T11:13:16Z</time>
      </trkpt>
      <trkpt lat="59.9135586" lon="17.6429836">
        <ele>33.3029</ele>
        <time>2012-05-19T11:13:22Z</time>
      </trkpt>
      <trkpt lat="59.914287" lon="17.6428593">
        <ele>33.3029</ele>
        <time>2012-05-19T11:13:31Z</time>
      </trkpt>
      <trkpt lat="59.9151183" lon="17.6427028">
        <ele>31.3801</ele>
        <time>2012-05-19T11:13:41Z</time>
      </trkpt>
      <trkpt lat="59.9154603" lon="17.6425388">
        <ele>29.9381</ele>
        <time>2012-05-19T11:13:45Z</time>
      </trkpt>
      <trkpt lat="59.9160807" lon="17.6424553">
        <ele>28.4962</ele>
        <time>2012-05-19T11:13:52Z</time>
      </trkpt>
      <trkpt lat="59.9168381" lon="17.6423681">
        <ele>27.5349</ele>
        <time>2012-05-19T11:14:01Z</time>
      </trkpt>
      <trkpt lat="59.9171925" lon="17.6422837">
        <ele>26.5736</ele>
        <time>2012-05-19T11:14:05Z</time>
      </trkpt>
      <trkpt lat="59.9177337" lon="17.642258">
        <ele>26.5736</ele>
        <time>2012-05-19T11:14:11Z</time>
      </trkpt>
      <trkpt lat="59.9183287" lon="17.6422133">
        <ele>27.5349</ele>
        <time>2012-05-19T11:14:18Z</time>
      </trkpt>
      <trkpt lat="59.9189193" lon="17.6421451">
        <ele>28.9769</ele>
        <time>2012-05-19T11:14:26Z</time>
      </trkpt>
      <trkpt lat="59.9196528" lon="17.6420658">
        <ele>28.4962</ele>
        <time>2012-05-19T11:14:36Z</time>
      </trkpt>
      <trkpt lat="59.9202503" lon="17.641963">
        <ele>28.4962</ele>
        <time>2012-05-19T11:14:44Z</time>
      </trkpt>
      <trkpt lat="59.9208007" lon="17.6419439">
        <ele>28.0155</ele>
        <time>2012-05-19T11:14:51Z</time>
      </trkpt>
      <trkpt lat="59.921314" lon="17.6419182">
        <ele>28.4962</ele>
        <time>2012-05-19T11:14:58Z</time>
      </trkpt>
      <trkpt lat="59.9217016" lon="17.641856">
        <ele>28.4962</ele>
        <time>2012-05-19T11:15:04Z</time>
      </trkpt>
      <trkpt lat="59.922142" lon="17.6417872">
        <ele>29.9381</ele>
        <time>2012-05-19T11:15:10Z</time>
      </trkpt>
      <trkpt lat="59.9228219" lon="17.6416895">
        <ele>29.9381</ele>
        <time>2012-05-19T11:15:19Z</time>
      </trkpt>
      <trkpt lat="59.9234643" lon="17.6416213">
        <ele>28.4962</ele>
        <time>2012-05-19T11:15:27Z</time>
      </trkpt>
      <trkpt lat="59.9241696" lon="17.6415318">
        <ele>27.0543</ele>
        <time>2012-05-19T11:15:35Z</time>
      </trkpt>
      <trkpt lat="59.9248703" lon="17.6414316">
        <ele>26.5736</ele>
        <time>2012-05-19T11:15:43Z</time>
      </trkpt>
      <trkpt lat="59.9254762" lon="17.6413934">
        <ele>25.6123</ele>
        <time>2012-05-19T11:15:50Z</time>
      </trkpt>
      <trkpt lat="59.9263547" lon="17.6412835">
        <ele>25.1317</ele>
        <time>2012-05-19T11:16:00Z</time>
      </trkpt>
      <trkpt lat="59.927219" lon="17.6411795">
        <ele>25.6123</ele>
        <time>2012-05-19T11:16:10Z</time>
      </trkpt>
      <trkpt lat="59.9279523" lon="17.6411173">
        <ele>25.6123</ele>
        <time>2012-05-19T11:16:19Z</time>
      </trkpt>
      <trkpt lat="59.9287301" lon="17.6410116">
        <ele>26.0929</ele>
        <time>2012-05-19T11:16:29Z</time>
      </trkpt>
      <trkpt lat="59.9292719" lon="17.6409348">
        <ele>25.6123</ele>
        <time>2012-05-19T11:16:36Z</time>
      </trkpt>
      <trkpt lat="59.929878" lon="17.6408458">
        <ele>26.5736</ele>
        <time>2012-05-19T11:16:44Z</time>
      </trkpt>
      <trkpt lat="59.9304052" lon="17.6408453">
        <ele>27.0543</ele>
        <time>2012-05-19T11:16:51Z</time>
      </trkpt>
      <trkpt lat="59.9308112" lon="17.6408107">
        <ele>28.0155</ele>
        <time>2012-05-19T11:16:57Z</time>
      </trkpt>
      <trkpt lat="59.931128" lon="17.6409219">
        <ele>28.4962</ele>
        <time>2012-05-19T11:17:02Z</time>
      </trkpt>
      <trkpt lat="59.9314237" lon="17.6411531">
        <ele>29.9381</ele>
        <time>2012-05-19T11:17:08Z</time>
      </trkpt>
      <trkpt lat="59.931752" lon="17.6413878">
        <ele>30.8995</ele>
        <time>2012-05-19T11:17:15Z</time>
      </trkpt>
      <trkpt lat="59.9321433" lon="17.6416617">
        <ele>32.3416</ele>
        <time>2012-05-19T11:17:23Z</time>
      </trkpt>
      <trkpt lat="59.9324658" lon="17.6419761">
        <ele>30.8995</ele>
        <time>2012-05-19T11:17:29Z</time>
      </trkpt>
      <trkpt lat="59.932747" lon="17.6422798">
        <ele>30.8995</ele>
        <time>2012-05-19T11:17:34Z</time>
      </trkpt>
      <trkpt lat="59.9330623" lon="17.6428017">
        <ele>31.8607</ele>
        <time>2012-05-19T11:17:41Z</time>
      </trkpt>
      <trkpt lat="59.9333139" lon="17.6431935">
        <ele>33.7834</ele>
        <time>2012-05-19T11:17:47Z</time>
      </trkpt>
      <trkpt lat="59.9334818" lon="17.6434622">
        <ele>34.7449</ele>
        <time>2012-05-19T11:17:52Z</time>
      </trkpt>
      <trkpt lat="59.9336885" lon="17.6437201">
        <ele>35.2255</ele>
        <time>2012-05-19T11:17:58Z</time>
      </trkpt>
      <trkpt lat="59.9340002" lon="17.6440109">
        <ele>37.6287</ele>
        <time>2012-05-19T11:18:07Z</time>
      </trkpt>
      <trkpt lat="59.9343291" lon="17.6444441">
        <ele>39.5513</ele>
        <time>2012-05-19T11:18:16Z</time>
      </trkpt>
      <trkpt lat="59.9344333" lon="17.6445936">
        <ele>40.9934</ele>
        <time>2012-05-19T11:18:19Z</time>
      </trkpt>
      <trkpt lat="59.9345416" lon="17.6447886">
        <ele>42.916</ele>
        <time>2012-05-19T11:18:23Z</time>
      </trkpt>
      <trkpt lat="59.9348559" lon="17.6451909">
        <ele>43.8773</ele>
        <time>2012-05-19T11:18:32Z</time>
      </trkpt>
      <trkpt lat="59.9351636" lon="17.645541">
        <ele>42.916</ele>
        <time>2012-05-19T11:18:39Z</time>
      </trkpt>
      <trkpt lat="59.9354606" lon="17.6459027">
        <ele>42.4354</ele>
        <time>2012-05-19T11:18:45Z</time>
      </trkpt>
      <trkpt lat="59.9358765" lon="17.6463895">
        <ele>43.3966</ele>
        <time>2012-05-19T11:18:53Z</time>
      </trkpt>
      <trkpt lat="59.9362938" lon="17.6469197">
        <ele>42.916</ele>
        <time>2012-05-19T11:19:01Z</time>
      </trkpt>
      <trkpt lat="59.9366922" lon="17.6474538">
        <ele>42.4354</ele>
        <time>2012-05-19T11:19:08Z</time>
      </trkpt>
      <trkpt lat="59.9371586" lon="17.6480194">
        <ele>42.4354</ele>
        <time>2012-05-19T11:19:16Z</time>
      </trkpt>
      <trkpt lat="59.937333" lon="17.6482374">
        <ele>41.9547</ele>
        <time>2012-05-19T11:19:19Z</time>
      </trkpt>
      <trkpt lat="59.9374756" lon="17.6484996">
        <ele>41.474</ele>
        <time>2012-05-19T11:19:22Z</time>
      </trkpt>
      <trkpt lat="59.9375917" lon="17.6487149">
        <ele>40.9934</ele>
        <time>2012-05-19T11:19:25Z</time>
      </trkpt>
      <trkpt lat="59.9377033" lon="17.6490997">
        <ele>40.5128</ele>
        <time>2012-05-19T11:19:29Z</time>
      </trkpt>
      <trkpt lat="59.9378186" lon="17.6494362">
        <ele>40.0321</ele>
        <time>2012-05-19T11:19:32Z</time>
      </trkpt>
      <trkpt lat="59.9381372" lon="17.6502975">
        <ele>39.0707</ele>
        <time>2012-05-19T11:19:39Z</time>
      </trkpt>
      <trkpt lat="59.9385006" lon="17.6512056">
        <ele>39.0707</ele>
        <time>2012-05-19T11:19:46Z</time>
      </trkpt>
      <trkpt lat="59.9388403" lon="17.6522982">
        <ele>39.5513</ele>
        <time>2012-05-19T11:19:54Z</time>
      </trkpt>
      <trkpt lat="59.9391523" lon="17.6534848">
        <ele>40.0321</ele>
        <time>2012-05-19T11:20:02Z</time>
      </trkpt>
      <trkpt lat="59.9394368" lon="17.6548726">
        <ele>40.0321</ele>
        <time>2012-05-19T11:20:11Z</time>
      </trkpt>
      <trkpt lat="59.9396508" lon="17.6559163">
        <ele>39.0707</ele>
        <time>2012-05-19T11:20:18Z</time>
      </trkpt>
      <trkpt lat="59.939894" lon="17.6571713">
        <ele>36.6675</ele>
        <time>2012-05-19T11:20:26Z</time>
      </trkpt>
      <trkpt lat="59.9401725" lon="17.6585493">
        <ele>34.7449</ele>
        <time>2012-05-19T11:20:34Z</time>
      </trkpt>
      <trkpt lat="59.9403982" lon="17.6597916">
        <ele>34.7449</ele>
        <time>2012-05-19T11:20:41Z</time>
      </trkpt>
      <trkpt lat="59.9404744" lon="17.6601029">
        <ele>34.7449</ele>
        <time>2012-05-19T11:20:43Z</time>
      </trkpt>
      <trkpt lat="59.940505" lon="17.6607762">
        <ele>31.8607</ele>
        <time>2012-05-19T11:20:47Z</time>
      </trkpt>
      <trkpt lat="59.9404164" lon="17.6616403">
        <ele>30.8995</ele>
        <time>2012-05-19T11:20:52Z</time>
      </trkpt>
      <trkpt lat="59.9405583" lon="17.6620567">
        <ele>31.3801</ele>
        <time>2012-05-19T11:20:55Z</time>
      </trkpt>
      <trkpt lat="59.9407857" lon="17.6621869">
        <ele>32.8223</ele>
        <time>2012-05-19T11:20:58Z</time>
      </trkpt>
      <trkpt lat="59.9408613" lon="17.6621989">
        <ele>33.3029</ele>
        <time>2012-05-19T11:20:59Z</time>
      </trkpt>
      <trkpt lat="59.9413118" lon="17.6624086">
        <ele>34.2642</ele>
        <time>2012-05-19T11:21:05Z</time>
      </trkpt>
      <trkpt lat="59.9414486" lon="17.6625586">
        <ele>34.2642</ele>
        <time>2012-05-19T11:21:07Z</time>
      </trkpt>
      <trkpt lat="59.9419417" lon="17.6633809">
        <ele>35.7061</ele>
        <time>2012-05-19T11:21:15Z</time>
      </trkpt>
      <trkpt lat="59.9425429" lon="17.6642325">
        <ele>35.7061</ele>
        <time>2012-05-19T11:21:24Z</time>
      </trkpt>
      <trkpt lat="59.9431435" lon="17.6648767">
        <ele>35.2255</ele>
        <time>2012-05-19T11:21:32Z</time>
      </trkpt>
      <trkpt lat="59.9438041" lon="17.6653872">
        <ele>34.2642</ele>
        <time>2012-05-19T11:21:40Z</time>
      </trkpt>
      <trkpt lat="59.9445122" lon="17.6657285">
        <ele>33.7834</ele>
        <time>2012-05-19T11:21:48Z</time>
      </trkpt>
      <trkpt lat="59.9455041" lon="17.6661052">
        <ele>33.3029</ele>
        <time>2012-05-19T11:21:59Z</time>
      </trkpt>
      <trkpt lat="59.9463025" lon="17.6664339">
        <ele>32.3416</ele>
        <time>2012-05-19T11:22:08Z</time>
      </trkpt>
      <trkpt lat="59.946748" lon="17.6666077">
        <ele>32.3416</ele>
        <time>2012-05-19T11:22:13Z</time>
      </trkpt>
      <trkpt lat="59.9471908" lon="17.6667723">
        <ele>31.8607</ele>
        <time>2012-05-19T11:22:18Z</time>
      </trkpt>
      <trkpt lat="59.9479849" lon="17.6671676">
        <ele>31.3801</ele>
        <time>2012-05-19T11:22:27Z</time>
      </trkpt>
      <trkpt lat="59.948874" lon="17.6676649">
        <ele>31.3801</ele>
        <time>2012-05-19T11:22:37Z</time>
      </trkpt>
      <trkpt lat="59.9495752" lon="17.6680652">
        <ele>30.8995</ele>
        <time>2012-05-19T11:22:45Z</time>
      </trkpt>
      <trkpt lat="59.9502071" lon="17.6683256">
        <ele>30.8995</ele>
        <time>2012-05-19T11:22:52Z</time>
      </trkpt>
      <trkpt lat="59.9507563" lon="17.668329">
        <ele>30.4188</ele>
        <time>2012-05-19T11:22:58Z</time>
      </trkpt>
      <trkpt lat="59.9514658" lon="17.6681158">
        <ele>29.4575</ele>
        <time>2012-05-19T11:23:06Z</time>
      </trkpt>
      <trkpt lat="59.951717" lon="17.6682666">
        <ele>28.4962</ele>
        <time>2012-05-19T11:23:09Z</time>
      </trkpt>
      <trkpt lat="59.9518395" lon="17.6687382">
        <ele>28.0155</ele>
        <time>2012-05-19T11:23:12Z</time>
      </trkpt>
      <trkpt lat="59.9518596" lon="17.6690692">
        <ele>28.4962</ele>
        <time>2012-05-19T11:23:14Z</time>
      </trkpt>
      <trkpt lat="59.9517854" lon="17.6704289">
        <ele>29.4575</ele>
        <time>2012-05-19T11:23:23Z</time>
      </trkpt>
      <trkpt lat="59.9517617" lon="17.6708585">
        <ele>29.9381</ele>
        <time>2012-05-19T11:23:26Z</time>
      </trkpt>
      <trkpt lat="59.9518206" lon="17.6713537">
        <ele>30.4188</ele>
        <time>2012-05-19T11:23:30Z</time>
      </trkpt>
      <trkpt lat="59.9518466" lon="17.6717887">
        <ele>29.4575</ele>
        <time>2012-05-19T11:23:34Z</time>
      </trkpt>
      <trkpt lat="59.9518509" lon="17.6721151">
        <ele>29.4575</ele>
        <time>2012-05-19T11:23:37Z</time>
      </trkpt>
      <trkpt lat="59.951955" lon="17.6731216">
        <ele>28.0155</ele>
        <time>2012-05-19T11:23:46Z</time>
      </trkpt>
      <trkpt lat="59.9521002" lon="17.6739906">
        <ele>28.9769</ele>
        <time>2012-05-19T11:23:54Z</time>
      </trkpt>
      <trkpt lat="59.9522682" lon="17.6748858">
        <ele>30.8995</ele>
        <time>2012-05-19T11:24:02Z</time>
      </trkpt>
      <trkpt lat="59.9523911" lon="17.6753609">
        <ele>32.8223</ele>
        <time>2012-05-19T11:24:07Z</time>
      </trkpt>
      <trkpt lat="59.9525922" lon="17.6758402">
        <ele>33.7834</ele>
        <time>2012-05-19T11:24:12Z</time>
      </trkpt>
      <trkpt lat="59.9528653" lon="17.6765586">
        <ele>35.2255</ele>
        <time>2012-05-19T11:24:18Z</time>
      </trkpt>
      <trkpt lat="59.9532581" lon="17.6775459">
        <ele>36.1868</ele>
        <time>2012-05-19T11:24:26Z</time>
      </trkpt>
      <trkpt lat="59.9536276" lon="17.6786508">
        <ele>37.1481</ele>
        <time>2012-05-19T11:24:34Z</time>
      </trkpt>
      <trkpt lat="59.9540429" lon="17.6799135">
        <ele>37.1481</ele>
        <time>2012-05-19T11:24:43Z</time>
      </trkpt>
      <trkpt lat="59.9543683" lon="17.6808617">
        <ele>37.1481</ele>
        <time>2012-05-19T11:24:50Z</time>
      </trkpt>
      <trkpt lat="59.9545939" lon="17.6813016">
        <ele>37.1481</ele>
        <time>2012-05-19T11:24:54Z</time>
      </trkpt>
      <trkpt lat="59.9546474" lon="17.6814152">
        <ele>37.1481</ele>
        <time>2012-05-19T11:24:55Z</time>
      </trkpt>
      <trkpt lat="59.95506" lon="17.6825554">
        <ele>38.1094</ele>
        <time>2012-05-19T11:25:04Z</time>
      </trkpt>
      <trkpt lat="59.95535" lon="17.683664">
        <ele>38.5901</ele>
        <time>2012-05-19T11:25:12Z</time>
      </trkpt>
      <trkpt lat="59.955593" lon="17.6849765">
        <ele>37.6287</ele>
        <time>2012-05-19T11:25:21Z</time>
      </trkpt>
      <trkpt lat="59.9558065" lon="17.6864028">
        <ele>37.6287</ele>
        <time>2012-05-19T11:25:31Z</time>
      </trkpt>
      <trkpt lat="59.9559778" lon="17.6875563">
        <ele>37.1481</ele>
        <time>2012-05-19T11:25:40Z</time>
      </trkpt>
      <trkpt lat="59.956155" lon="17.6887321">
        <ele>36.6675</ele>
        <time>2012-05-19T11:25:49Z</time>
      </trkpt>
      <trkpt lat="59.9563877" lon="17.6899226">
        <ele>36.1868</ele>
        <time>2012-05-19T11:25:58Z</time>
      </trkpt>
      <trkpt lat="59.9564513" lon="17.6901687">
        <ele>36.6675</ele>
        <time>2012-05-19T11:26:00Z</time>
      </trkpt>
      <trkpt lat="59.9565626" lon="17.6905163">
        <ele>37.1481</ele>
        <time>2012-05-19T11:26:03Z</time>
      </trkpt>
      <trkpt lat="59.9566155" lon="17.6907633">
        <ele>36.6675</ele>
        <time>2012-05-19T11:26:05Z</time>
      </trkpt>
      <trkpt lat="59.9569486" lon="17.6917461">
        <ele>33.7834</ele>
        <time>2012-05-19T11:26:12Z</time>
      </trkpt>
      <trkpt lat="59.9573198" lon="17.6928122">
        <ele>32.3416</ele>
        <time>2012-05-19T11:26:20Z</time>
      </trkpt>
      <trkpt lat="59.9578228" lon="17.6942067">
        <ele>33.3029</ele>
        <time>2012-05-19T11:26:31Z</time>
      </trkpt>
      <trkpt lat="59.9582167" lon="17.6953117">
        <ele>34.2642</ele>
        <time>2012-05-19T11:26:40Z</time>
      </trkpt>
      <trkpt lat="59.9586943" lon="17.696506">
        <ele>35.2255</ele>
        <time>2012-05-19T11:26:50Z</time>
      </trkpt>
      <trkpt lat="59.9588972" lon="17.697297">
        <ele>35.2255</ele>
        <time>2012-05-19T11:26:56Z</time>
      </trkpt>
      <trkpt lat="59.9590139" lon="17.6980604">
        <ele>37.1481</ele>
        <time>2012-05-19T11:27:02Z</time>
      </trkpt>
      <trkpt lat="59.9590207" lon="17.6987657">
        <ele>37.1481</ele>
        <time>2012-05-19T11:27:08Z</time>
      </trkpt>
      <trkpt lat="59.9590519" lon="17.6995281">
        <ele>36.1868</ele>
        <time>2012-05-19T11:27:14Z</time>
      </trkpt>
      <trkpt lat="59.9591525" lon="17.7006603">
        <ele>36.1868</ele>
        <time>2012-05-19T11:27:22Z</time>
      </trkpt>
      <trkpt lat="59.9592346" lon="17.7014306">
        <ele>37.1481</ele>
        <time>2012-05-19T11:27:28Z</time>
      </trkpt>
      <trkpt lat="59.959274" lon="17.7016422">
        <ele>37.1481</ele>
        <time>2012-05-19T11:27:30Z</time>
      </trkpt>
      <trkpt lat="59.9594553" lon="17.7022891">
        <ele>36.1868</ele>
        <time>2012-05-19T11:27:36Z</time>
      </trkpt>
      <trkpt lat="59.9597173" lon="17.7031527">
        <ele>36.6675</ele>
        <time>2012-05-19T11:27:44Z</time>
      </trkpt>
      <trkpt lat="59.9598951" lon="17.7037224">
        <ele>35.7061</ele>
        <time>2012-05-19T11:27:49Z</time>
      </trkpt>
      <trkpt lat="59.9600277" lon="17.7041203">
        <ele>35.7061</ele>
        <time>2012-05-19T11:27:52Z</time>
      </trkpt>
      <trkpt lat="59.9603488" lon="17.7046238">
        <ele>37.1481</ele>
        <time>2012-05-19T11:27:57Z</time>
      </trkpt>
      <trkpt lat="59.9608239" lon="17.7051932">
        <ele>38.1094</ele>
        <time>2012-05-19T11:28:04Z</time>
      </trkpt>
      <trkpt lat="59.9612446" lon="17.7058385">
        <ele>39.5513</ele>
        <time>2012-05-19T11:28:11Z</time>
      </trkpt>
      <trkpt lat="59.9616889" lon="17.7065767">
        <ele>40.5128</ele>
        <time>2012-05-19T11:28:19Z</time>
      </trkpt>
      <trkpt lat="59.9620705" lon="17.706916">
        <ele>40.5128</ele>
        <time>2012-05-19T11:28:25Z</time>
      </trkpt>
      <trkpt lat="59.9626301" lon="17.7071715">
        <ele>40.9934</ele>
        <time>2012-05-19T11:28:33Z</time>
      </trkpt>
      <trkpt lat="59.9631082" lon="17.7072018">
        <ele>41.9547</ele>
        <time>2012-05-19T11:28:39Z</time>
      </trkpt>
      <trkpt lat="59.9636183" lon="17.7071885">
        <ele>41.474</ele>
        <time>2012-05-19T11:28:45Z</time>
      </trkpt>
      <trkpt lat="59.9643753" lon="17.7073184">
        <ele>40.0321</ele>
        <time>2012-05-19T11:28:54Z</time>
      </trkpt>
      <trkpt lat="59.9647829" lon="17.7075455">
        <ele>38.5901</ele>
        <time>2012-05-19T11:28:59Z</time>
      </trkpt>
      <trkpt lat="59.9654484" lon="17.7080964">
        <ele>37.1481</ele>
        <time>2012-05-19T11:29:07Z</time>
      </trkpt>
      <trkpt lat="59.9656823" lon="17.7083793">
        <ele>36.6675</ele>
        <time>2012-05-19T11:29:10Z</time>
      </trkpt>
      <trkpt lat="59.9659734" lon="17.7090626">
        <ele>36.1868</ele>
        <time>2012-05-19T11:29:15Z</time>
      </trkpt>
      <trkpt lat="59.9662685" lon="17.7101068">
        <ele>36.1868</ele>
        <time>2012-05-19T11:29:22Z</time>
      </trkpt>
      <trkpt lat="59.9665893" lon="17.7112">
        <ele>37.6287</ele>
        <time>2012-05-19T11:29:30Z</time>
      </trkpt>
      <trkpt lat="59.9669256" lon="17.7121434">
        <ele>40.0321</ele>
        <time>2012-05-19T11:29:38Z</time>
      </trkpt>
      <trkpt lat="59.9672563" lon="17.7131599">
        <ele>41.9547</ele>
        <time>2012-05-19T11:29:46Z</time>
      </trkpt>
      <trkpt lat="59.9673952" lon="17.7139863">
        <ele>40.0321</ele>
        <time>2012-05-19T11:29:51Z</time>
      </trkpt>
      <trkpt lat="59.9675396" lon="17.7151647">
        <ele>35.2255</ele>
        <time>2012-05-19T11:29:57Z</time>
      </trkpt>
      <trkpt lat="59.9675635" lon="17.7153631">
        <ele>34.7449</ele>
        <time>2012-05-19T11:29:58Z</time>
      </trkpt>
      <trkpt lat="59.9677947" lon="17.7162123">
        <ele>34.2642</ele>
        <time>2012-05-19T11:30:03Z</time>
      </trkpt>
      <trkpt lat="59.9678905" lon="17.7164914">
        <ele>33.7834</ele>
        <time>2012-05-19T11:30:05Z</time>
      </trkpt>
      <trkpt lat="59.9682143" lon="17.7170006">
        <ele>34.2642</ele>
        <time>2012-05-19T11:30:11Z</time>
      </trkpt>
      <trkpt lat="59.9682697" lon="17.7170632">
        <ele>34.2642</ele>
        <time>2012-05-19T11:30:12Z</time>
      </trkpt>
      <trkpt lat="59.9686856" lon="17.717328">
        <ele>34.7449</ele>
        <time>2012-05-19T11:30:19Z</time>
      </trkpt>
      <trkpt lat="59.9690593" lon="17.7174607">
        <ele>34.7449</ele>
        <time>2012-05-19T11:30:25Z</time>
      </trkpt>
      <trkpt lat="59.9696134" lon="17.7177067">
        <ele>35.2255</ele>
        <time>2012-05-19T11:30:33Z</time>
      </trkpt>
      <trkpt lat="59.9701246" lon="17.7181117">
        <ele>34.7449</ele>
        <time>2012-05-19T11:30:40Z</time>
      </trkpt>
      <trkpt lat="59.9709368" lon="17.7188484">
        <ele>34.7449</ele>
        <time>2012-05-19T11:30:51Z</time>
      </trkpt>
      <trkpt lat="59.9717067" lon="17.719548">
        <ele>34.7449</ele>
        <time>2012-05-19T11:31:01Z</time>
      </trkpt>
      <trkpt lat="59.9725811" lon="17.7203464">
        <ele>33.7834</ele>
        <time>2012-05-19T11:31:12Z</time>
      </trkpt>
      <trkpt lat="59.9731329" lon="17.7209743">
        <ele>32.8223</ele>
        <time>2012-05-19T11:31:19Z</time>
      </trkpt>
      <trkpt lat="59.9735387" lon="17.721716">
        <ele>32.3416</ele>
        <time>2012-05-19T11:31:25Z</time>
      </trkpt>
      <trkpt lat="59.9738585" lon="17.7226094">
        <ele>32.3416</ele>
        <time>2012-05-19T11:31:31Z</time>
      </trkpt>
      <trkpt lat="59.9740698" lon="17.7235913">
        <ele>32.8223</ele>
        <time>2012-05-19T11:31:37Z</time>
      </trkpt>
      <trkpt lat="59.974289" lon="17.7250548">
        <ele>33.3029</ele>
        <time>2012-05-19T11:31:46Z</time>
      </trkpt>
      <trkpt lat="59.9743942" lon="17.7263181">
        <ele>31.3801</ele>
        <time>2012-05-19T11:31:54Z</time>
      </trkpt>
      <trkpt lat="59.97441" lon="17.7276482">
        <ele>26.5736</ele>
        <time>2012-05-19T11:32:02Z</time>
      </trkpt>
      <trkpt lat="59.9744356" lon="17.7292303">
        <ele>23.6896</ele>
        <time>2012-05-19T11:32:11Z</time>
      </trkpt>
      <trkpt lat="59.974401" lon="17.7300907">
        <ele>23.209</ele>
        <time>2012-05-19T11:32:16Z</time>
      </trkpt>
      <trkpt lat="59.9743077" lon="17.7313933">
        <ele>22.7283</ele>
        <time>2012-05-19T11:32:24Z</time>
      </trkpt>
      <trkpt lat="59.9743106" lon="17.7325363">
        <ele>21.767</ele>
        <time>2012-05-19T11:32:31Z</time>
      </trkpt>
      <trkpt lat="59.9742834" lon="17.7336866">
        <ele>20.8057</ele>
        <time>2012-05-19T11:32:38Z</time>
      </trkpt>
      <trkpt lat="59.974261" lon="17.734771">
        <ele>21.2864</ele>
        <time>2012-05-19T11:32:45Z</time>
      </trkpt>
      <trkpt lat="59.9743642" lon="17.7358023">
        <ele>21.2864</ele>
        <time>2012-05-19T11:32:52Z</time>
      </trkpt>
      <trkpt lat="59.9745651" lon="17.7365931">
        <ele>23.6896</ele>
        <time>2012-05-19T11:32:58Z</time>
      </trkpt>
      <trkpt lat="59.9748666" lon="17.7374107">
        <ele>25.1317</ele>
        <time>2012-05-19T11:33:05Z</time>
      </trkpt>
      <trkpt lat="59.9752198" lon="17.7380639">
        <ele>27.0543</ele>
        <time>2012-05-19T11:33:12Z</time>
      </trkpt>
      <trkpt lat="59.9756608" lon="17.7388219">
        <ele>28.9769</ele>
        <time>2012-05-19T11:33:20Z</time>
      </trkpt>
      <trkpt lat="59.9760529" lon="17.7394158">
        <ele>30.8995</ele>
        <time>2012-05-19T11:33:27Z</time>
      </trkpt>
      <trkpt lat="59.9761954" lon="17.7396567">
        <ele>32.8223</ele>
        <time>2012-05-19T11:33:30Z</time>
      </trkpt>
      <trkpt lat="59.9763814" lon="17.7397625">
        <ele>34.2642</ele>
        <time>2012-05-19T11:33:34Z</time>
      </trkpt>
      <trkpt lat="59.9765227" lon="17.7396231">
        <ele>34.7449</ele>
        <time>2012-05-19T11:33:37Z</time>
      </trkpt>
      <trkpt lat="59.9768445" lon="17.7394056">
        <ele>37.1481</ele>
        <time>2012-05-19T11:33:44Z</time>
      </trkpt>
      <trkpt lat="59.9769656" lon="17.7393428">
        <ele>39.0707</ele>
        <time>2012-05-19T11:33:47Z</time>
      </trkpt>
      <trkpt lat="59.9772308" lon="17.7391838">
        <ele>40.9934</ele>
        <time>2012-05-19T11:33:53Z</time>
      </trkpt>
      <trkpt lat="59.9775783" lon="17.7390223">
        <ele>44.358</ele>
        <time>2012-05-19T11:34:01Z</time>
      </trkpt>
      <trkpt lat="59.9778048" lon="17.7390446">
        <ele>46.7612</ele>
        <time>2012-05-19T11:34:07Z</time>
      </trkpt>
      <trkpt lat="59.978028" lon="17.7391563">
        <ele>49.6453</ele>
        <time>2012-05-19T11:34:13Z</time>
      </trkpt>
      <trkpt lat="59.9782229" lon="17.7392191">
        <ele>50.6066</ele>
        <time>2012-05-19T11:34:17Z</time>
      </trkpt>
      <trkpt lat="59.9786007" lon="17.7392741">
        <ele>49.6453</ele>
        <time>2012-05-19T11:34:24Z</time>
      </trkpt>
      <trkpt lat="59.9786678" lon="17.7392819">
        <ele>48.684</ele>
        <time>2012-05-19T11:34:25Z</time>
      </trkpt>
    </trkseg>
  </trk>
</gpx>